Provisional Data: East Fork First Fork Sinnemahoning Creek near Logue, PA


Please select a monitoring station.
Please select start date.
Please select start date.

Toggle Unit: C/F Toggle Unit: C/F
Sample Time Temperature (C) Temperature (F) Specific Conductivity (mS/cm) pH   Turbidity (NTU+) DO (mg/L)
3/23/2021 12:00:00 AM 5.91 42.638 0.045 6.08 139.6 11.59
3/23/2021 12:15:00 AM 5.81 42.458 0.045 6.09 138.73 11.63
3/23/2021 12:30:00 AM 5.72 42.296 0.045 6.09 134.94 11.66
3/23/2021 12:45:00 AM 5.63 42.134 0.045 6.07 131.88 11.69
3/23/2021 1:00:00 AM 5.55 41.99 0.045 6.07 136.29 11.71
3/23/2021 1:15:00 AM 5.46 41.828 0.045 6.06 138.44 11.74
3/23/2021 1:30:00 AM 5.39 41.702 0.045 6.06 135.74 11.76
3/23/2021 1:45:00 AM 5.31 41.558 0.045 6.05 137.74 11.79
3/23/2021 2:00:00 AM 5.24 41.432 0.044 6.06 138.84 11.81
3/23/2021 2:15:00 AM 5.17 41.306 0.044 6.06 138.8 11.84
3/23/2021 2:30:00 AM 5.11 41.198 0.044 6.07 138.04 11.87
3/23/2021 2:45:00 AM 5.04 41.072 0.044 6.07 137.61 11.89
3/23/2021 3:00:00 AM 4.98 40.964 0.044 6.07 138.83 11.91
3/23/2021 3:15:00 AM 4.92 40.856 0.044 6.08 137.25 11.92
3/23/2021 3:30:00 AM 4.87 40.766 0.044 6.07 136.09 11.94
3/23/2021 3:45:00 AM 4.81 40.658 0.044 6.08 136.37 11.96
3/23/2021 4:00:00 AM 4.76 40.568 0.044 6.08 137.43 11.97
3/23/2021 4:15:00 AM 4.71 40.478 0.044 6.08 138.31 11.99
3/23/2021 4:30:00 AM 4.66 40.388 0.044 6.06 139.32 12
3/23/2021 4:45:00 AM 4.61 40.298 0.044 6.07 136.96 12.02
3/23/2021 5:00:00 AM 4.57 40.226 0.044 6.07 136.82 12.04
3/23/2021 5:15:00 AM 4.53 40.154 0.044 6.07 134.52 12.05
3/23/2021 5:30:00 AM 4.49 40.082 0.044 6.07 135.78 12.07
3/23/2021 5:45:00 AM 4.45 40.01 0.044 6.08 139.45 12.08
3/23/2021 6:00:00 AM 4.41 39.938 0.044 6.08 141.28 12.09
3/23/2021 6:15:00 AM 4.37 39.866 0.044 6.09 142.09 12.11
3/23/2021 6:30:00 AM 4.33 39.794 0.044 6.07 142.78 12.12
3/23/2021 6:45:00 AM 4.3 39.74 0.044 6.08 143.1 12.13
3/23/2021 7:00:00 AM 4.27 39.686 0.044 6.08 143.45 12.15
3/23/2021 7:15:00 AM 4.23 39.614 0.042 6.08 144.91 12.16
3/23/2021 7:30:00 AM 4.2 39.56 0.042 6.08 146.99 12.17
3/23/2021 7:45:00 AM 4.18 39.524 0.043 6.1 142.15 12.2
3/23/2021 8:00:00 AM 4.17 39.506 0.042 6.06 144.86 12.23
3/23/2021 8:15:00 AM 4.16 39.488 0.042 6.06 144.85 12.26
3/23/2021 8:30:00 AM 4.16 39.488 0.042 6.07 146.8 12.28
3/23/2021 8:45:00 AM 4.17 39.506 0.042 6.08 142.32 12.3
3/23/2021 9:00:00 AM 4.19 39.542 0.042 6.09 140.36 12.32
3/23/2021 9:15:00 AM 4.22 39.596 0.042 6.09 140.82 12.32
3/23/2021 9:30:00 AM 4.28 39.704 0.041 6.11 143.58 12.33
3/23/2021 9:45:00 AM 4.36 39.848 0.041 6.13 141.51 12.33
3/23/2021 10:00:00 AM 4.45 40.01 0.042 6.14 142.23 12.31
3/23/2021 10:15:00 AM 4.56 40.208 0.041 6.16 142.27 12.3
3/23/2021 10:30:00 AM 4.67 40.406 0.042 6.18 146.21 12.27
3/23/2021 10:45:00 AM 4.83 40.694 0.041 6.17 143.78 12.23
3/23/2021 11:00:00 AM 5.02 41.036 0.041 6.16 144.32 12.2
3/23/2021 11:15:00 AM 5.2 41.36 0.041 6.17 146.06 12.15
3/23/2021 11:30:00 AM 5.37 41.666 0.042 6.18 143.42 12.1
3/23/2021 11:45:00 AM 5.57 42.026 0.042 6.2 141.17 12.05
3/23/2021 12:00:00 PM 5.77 42.386 0.042 6.19 143.27 12
3/23/2021 12:15:00 PM 6.01 42.818 0.042 6.23 146.58 11.93
3/23/2021 12:30:00 PM 6.22 43.196 0.042 6.21 145.69 11.88
3/23/2021 12:45:00 PM 6.43 43.574 0.042 6.21 145.1 11.82
3/23/2021 1:00:00 PM 6.63 43.934 0.042 6.21 143.61 11.76
3/23/2021 1:15:00 PM 6.84 44.312 0.043 6.23 142.01 11.69
3/23/2021 1:30:00 PM 7.03 44.654 0.043 6.22 141.44 11.63
3/23/2021 1:45:00 PM 7.21 44.978 0.043 6.25 147.15 11.57
3/23/2021 2:00:00 PM 7.36 45.248 0.043 6.25 142.81 11.51
3/23/2021 2:15:00 PM 7.48 45.464 0.043 6.16 146.56 11.47
3/23/2021 2:30:00 PM 7.59 45.662 0.043 6.16 147.79 11.42
3/23/2021 2:45:00 PM 7.71 45.878 0.043 6.2 149.41 11.39
3/23/2021 3:00:00 PM 7.82 46.076 0.043 6.17 147.19 11.34
3/23/2021 3:15:00 PM 7.91 46.238 0.043 6.16 145.18 11.3
3/23/2021 3:30:00 PM 7.99 46.382 0.044 6.14 149.37 11.27
3/23/2021 3:45:00 PM 8.05 46.49 0.044 6.12 150.7 11.25
3/23/2021 4:00:00 PM 8.11 46.598 0.044 6.12 149.64 11.22
3/23/2021 4:15:00 PM 8.18 46.724 0.044 6.13 153.95 11.19
3/23/2021 4:30:00 PM 8.21 46.778 0.044 6.13 152.95 11.17
3/23/2021 4:45:00 PM 8.25 46.85 0.044 6.12 149.64 11.16
3/23/2021 5:00:00 PM 8.3 46.94 0.044 6.1 149.5 11.14
3/23/2021 5:15:00 PM 8.31 46.958 0.044 6.09 145.3 11.11
3/23/2021 5:30:00 PM 8.31 46.958 0.044 6.09 144.21 11.1
3/23/2021 5:45:00 PM 8.33 46.994 0.044 6.08 144.1 11.1
3/23/2021 6:00:00 PM 8.32 46.976 0.044 6.09 146.55 11.08
3/23/2021 6:15:00 PM 8.3 46.94 0.044 6.09 149.08 11.07
3/23/2021 6:30:00 PM 8.27 46.886 0.044 6.11 146.84 11.06
3/23/2021 6:45:00 PM 8.23 46.814 0.044 6.09 143.95 11.06
3/23/2021 7:00:00 PM 8.19 46.742 0.044 6.08 151.31 11.04
3/23/2021 7:15:00 PM 8.13 46.634 0.044 6.08 152.36 11.02
3/23/2021 7:30:00 PM 8.06 46.508 0.044 6.07 151.67 11.01
3/23/2021 7:45:00 PM 8 46.4 0.044 6.06 150.73 10.99
3/23/2021 8:00:00 PM 7.93 46.274 0.044 6.05 152.92 11
3/23/2021 8:15:00 PM 7.86 46.148 0.044 6.06 152.74 11
3/23/2021 8:30:00 PM 7.79 46.022 0.044 6.08 152.41 11.02
3/23/2021 8:45:00 PM 7.71 45.878 0.044 6.09 152 11.03
3/23/2021 9:00:00 PM 7.64 45.752 0.044 6.1 152.57 11.05
3/23/2021 9:15:00 PM 7.56 45.608 0.044 6.07 152.04 11.07
3/23/2021 9:30:00 PM 7.48 45.464 0.044 6.07 152.11 11.09
3/23/2021 9:45:00 PM 7.39 45.302 0.044 6.06 151.99 11.11
3/23/2021 10:00:00 PM 7.31 45.158 0.044 6.06 147.49 11.13
3/23/2021 10:15:00 PM 7.22 44.996 0.044 6.05 147.66 11.16
3/23/2021 10:30:00 PM 7.13 44.834 0.044 6.06 147.35 11.19
3/23/2021 10:45:00 PM 7.04 44.672 0.043 6.06 144.89 11.22
3/23/2021 11:00:00 PM 6.95 44.51 0.043 6.06 148.07 11.24
3/23/2021 11:15:00 PM 6.86 44.348 0.043 6.07 144.41 11.26
3/23/2021 11:30:00 PM 6.78 44.204 0.043 6.08 144.25 11.28
3/23/2021 11:45:00 PM 6.71 44.078 0.043 6.09 145.3 11.3
3/24/2021 12:00:00 AM 6.63 43.934 0.043 6.09 147.42 11.32
3/24/2021 12:15:00 AM 6.56 43.808 0.043 6.09 147.42 11.35
3/24/2021 12:30:00 AM 6.49 43.682 0.043 6.1 149.02 11.38
3/24/2021 12:45:00 AM 6.43 43.574 0.043 6.09 150.25 11.4
3/24/2021 1:00:00 AM 6.38 43.484 0.043 6.09 150.37 11.42
3/24/2021 1:15:00 AM 6.33 43.394 0.043 6.1 149.74 11.44
3/24/2021 1:30:00 AM 6.29 43.322 0.043 6.11 148.4 11.45
3/24/2021 1:45:00 AM 6.25 43.25 0.043 6.12 149.52 11.46
3/24/2021 2:00:00 AM 6.21 43.178 0.043 6.14 154.49 11.47
3/24/2021 2:15:00 AM 6.17 43.106 0.043 6.12 154.93 11.48
3/24/2021 2:30:00 AM 6.14 43.052 0.043 6.1 154.65 11.49
3/24/2021 2:45:00 AM 6.11 42.998 0.043 6.01 157.61 11.5
3/24/2021 3:00:00 AM 6.09 42.962 0.043 6.05 154.83 11.51
3/24/2021 3:15:00 AM 6.08 42.944 0.043 6.05 151.17 11.51
3/24/2021 3:30:00 AM 6.07 42.926 0.043 6.02 150.89 11.51
3/24/2021 3:45:00 AM 6.06 42.908 0.043 6 151.66 11.52
3/24/2021 4:00:00 AM 6.06 42.908 0.043 6.01 149.75 11.52
3/24/2021 4:15:00 AM 6.06 42.908 0.043 6.01 148.9 11.52
3/24/2021 4:30:00 AM 6.07 42.926 0.043 6.01 152.01 11.52
3/24/2021 4:45:00 AM 6.07 42.926 0.043 6.02 152.07 11.51
3/24/2021 5:00:00 AM 6.08 42.944 0.043 6.02 150.02 11.51
3/24/2021 5:15:00 AM 6.09 42.962 0.043 6.02 146.43 11.5
3/24/2021 5:30:00 AM 6.1 42.98 0.043 6.02 153.32 11.5
3/24/2021 5:45:00 AM 6.11 42.998 0.043 6.03 151.31 11.5
3/24/2021 6:00:00 AM 6.12 43.016 0.043 6.04 155.62 11.49
3/24/2021 6:15:00 AM 6.13 43.034 0.043 6.03 151.26 11.49
3/24/2021 6:30:00 AM 6.15 43.07 0.043 6.03 150.55 11.49
3/24/2021 6:45:00 AM 6.16 43.088 0.043 6.03 152.5 11.48
3/24/2021 7:00:00 AM 6.17 43.106 0.043 6.03 155.64 11.48
3/24/2021 7:15:00 AM 6.19 43.142 0.043 6.03 153.44 11.48
3/24/2021 7:30:00 AM 6.2 43.16 0.043 6.03 156.52 11.47
3/24/2021 7:45:00 AM 6.22 43.196 0.043 6.02 155.01 11.47
3/24/2021 8:00:00 AM 6.24 43.232 0.044 6.03 158.43 11.47
3/24/2021 8:15:00 AM 6.26 43.268 0.044 6.02 157.02 11.47
3/24/2021 8:30:00 AM 6.27 43.286 0.044 6.02 155.84 11.47
3/24/2021 8:45:00 AM 6.3 43.34 0.044 6.02 156.58 11.48
3/24/2021 9:00:00 AM 6.32 43.376 0.044 6.02 153.86 11.49
3/24/2021 9:15:00 AM 6.34 43.412 0.044 6.03 158.78 11.5
3/24/2021 9:30:00 AM 6.37 43.466 0.044 6.03 155.98 11.51
3/24/2021 9:45:00 AM 6.41 43.538 0.044 6.04 155.17 11.52
3/24/2021 10:00:00 AM 6.45 43.61 0.044 6.05 157.93 11.54
3/24/2021 10:15:00 AM 6.49 43.682 0.044 6.05 155.11 11.54
3/24/2021 10:30:00 AM 6.53 43.754 0.044 6.06 158.15 11.53
3/24/2021 10:45:00 AM 6.56 43.808 0.044 6.07 160.96 11.53
3/24/2021 11:00:00 AM 6.59 43.862 0.044 6.07 160.69 11.52
3/24/2021 11:15:00 AM 6.63 43.934 0.044 6.07 163.69 11.51
3/24/2021 11:30:00 AM 6.68 44.024 0.044 6.08 167.54 11.51
3/24/2021 11:45:00 AM 6.73 44.114 0.044 6.08 165.13 11.5
3/24/2021 12:00:00 PM 6.79 44.222 0.044 6.09 159.79 11.49
3/24/2021 12:15:00 PM 6.84 44.312 0.044 6.08 157.73 11.48
3/24/2021 12:30:00 PM 6.9 44.42 0.044 6.09 162.4 11.46
3/24/2021 12:45:00 PM 6.96 44.528 0.044 6.09 158.18 11.45
3/24/2021 1:00:00 PM 7.01 44.618 0.044 6.09 158.57 11.44
3/24/2021 1:15:00 PM 7.07 44.726 0.044 6.1 154.05 11.43
3/24/2021 1:30:00 PM 7.12 44.816 0.044 6.1 157.84 11.41
3/24/2021 1:45:00 PM 7.17 44.906 0.044 6.1 163.3 11.39
3/24/2021 2:00:00 PM 7.22 44.996 0.044 6.1 160.64 11.37
3/24/2021 2:15:00 PM 7.26 45.068 0.044 6.1 160.21 11.34
3/24/2021 2:30:00 PM 7.29 45.122 0.044 6.09 166.37 11.33
3/24/2021 2:45:00 PM 7.34 45.212 0.044 6.1 164.13 11.32
3/24/2021 3:00:00 PM 7.4 45.32 0.044 6.1 166.02 11.3
3/24/2021 3:15:00 PM 7.46 45.428 0.045 6.1 164.87 11.29
3/24/2021 3:30:00 PM 7.52 45.536 0.044 6.1 163.2 11.28
3/24/2021 3:45:00 PM 7.59 45.662 0.044 6.1 163.15 11.26
3/24/2021 4:00:00 PM 7.65 45.77 0.044 6.1 167.64 11.25
3/24/2021 4:15:00 PM 7.72 45.896 0.044 6.11 167.86 11.23
3/24/2021 4:30:00 PM 7.78 46.004 0.044 6.11 163.97 11.22
3/24/2021 4:45:00 PM 7.81 46.058 0.044 6.23 162.5 11.19
3/24/2021 5:00:00 PM 7.81 46.058 0.044 6.23 164 11.17
3/24/2021 5:15:00 PM 7.81 46.058 0.044 6.23 163.27 11.15
3/24/2021 5:30:00 PM 7.81 46.058 0.044 6.23 161.16 11.13
3/24/2021 5:45:00 PM 7.82 46.076 0.044 6.23 159.14 11.11
3/24/2021 6:00:00 PM 7.83 46.094 0.044 6.22 161.31 11.1
3/24/2021 6:15:00 PM 7.83 46.094 0.044 6.22 165.56 11.08
3/24/2021 6:30:00 PM 7.83 46.094 0.044 6.22 166.27 11.06
3/24/2021 6:45:00 PM 7.83 46.094 0.044 6.22 169.89 11.04
3/24/2021 7:00:00 PM 7.83 46.094 0.044 6.21 168.7 11.02
3/24/2021 7:15:00 PM 7.82 46.076 0.044 6.21 169.85 11.01
3/24/2021 7:30:00 PM 7.81 46.058 0.044 6.2 169.4 10.99
3/24/2021 7:45:00 PM 7.79 46.022 0.044 6.19 175.08 10.98
3/24/2021 8:00:00 PM 7.76 45.968 0.044 6.18 173.56 10.98
3/24/2021 8:15:00 PM 7.74 45.932 0.044 6.18 174.65 10.98
3/24/2021 8:30:00 PM 7.72 45.896 0.044 6.18 171.08 10.98
3/24/2021 8:45:00 PM 7.7 45.86 0.044 6.18 167.94 10.98
3/24/2021 9:00:00 PM 7.68 45.824 0.045 6.17 167.67 10.99
3/24/2021 9:15:00 PM 7.66 45.788 0.045 6.17 169.42 10.99
3/24/2021 9:30:00 PM 7.64 45.752 0.045 6.17 170.12 11
3/24/2021 9:45:00 PM 7.61 45.698 0.045 6.17 169.07 11.01
3/24/2021 10:00:00 PM 7.59 45.662 0.045 6.16 166.98 11.02
3/24/2021 10:15:00 PM 7.57 45.626 0.044 6.16 171.26 11.02
3/24/2021 10:30:00 PM 7.54 45.572 0.044 6.15 172.96 11.03
3/24/2021 10:45:00 PM 7.52 45.536 0.044 6.15 177.89 11.04
3/24/2021 11:00:00 PM 7.49 45.482 0.044 6.16 178.99 11.05
3/24/2021 11:15:00 PM 7.48 45.464 0.044 6.15 176.97 11.05
3/24/2021 11:30:00 PM 7.46 45.428 0.044 6.15 175.35 11.06
3/24/2021 11:45:00 PM 7.45 45.41 0.044 6.15 175.42 11.06
3/25/2021 12:00:00 AM 7.43 45.374 0.044 6.15 172.62 11.06
3/25/2021 12:15:00 AM 7.41 45.338 0.044 6.14 174.79 11.07
3/25/2021 12:30:00 AM 7.39 45.302 0.044 6.14 174.74 11.08
3/25/2021 12:45:00 AM 7.38 45.284 0.044 6.13 174.35 11.08
3/25/2021 1:00:00 AM 7.36 45.248 0.044 6.14 173.16 11.09
3/25/2021 1:15:00 AM 7.35 45.23 0.044 6.22 169.47 11.09
3/25/2021 1:30:00 AM 7.34 45.212 0.044 6.2 169.55 11.09
3/25/2021 1:45:00 AM 7.33 45.194 0.044 6.17 170.66 11.1
3/25/2021 2:00:00 AM 7.32 45.176 0.044 6.23 169.21 11.1
3/25/2021 2:15:00 AM 7.31 45.158 0.044 6.18 167.68 11.1
3/25/2021 2:30:00 AM 7.3 45.14 0.044 6.12 166.99 11.1
3/25/2021 2:45:00 AM 7.29 45.122 0.044 6.18 170.1 11.11
3/25/2021 3:00:00 AM 7.28 45.104 0.044 6.19 170.02 11.11
3/25/2021 3:15:00 AM 7.27 45.086 0.044 6.15 171.88 11.12
3/25/2021 3:30:00 AM 7.26 45.068 0.044 6.19 169.98 11.12
3/25/2021 3:45:00 AM 7.25 45.05 0.044 6.22 170.46 11.12
3/25/2021 4:00:00 AM 7.24 45.032 0.044 6.23 170.33 11.12
3/25/2021 4:15:00 AM 7.23 45.014 0.044 6.28 168.38 11.13
3/25/2021 4:30:00 AM 7.22 44.996 0.044 6.25 168.36 11.13
3/25/2021 4:45:00 AM 7.21 44.978 0.044 6.23 166.81 11.13
3/25/2021 5:00:00 AM 7.2 44.96 0.044 6.23 167.11 11.14
3/25/2021 5:15:00 AM 7.19 44.942 0.044 6.29 166.05 11.15
3/25/2021 5:30:00 AM 7.18 44.924 0.044 6.27 164.33 11.14
3/25/2021 5:45:00 AM 7.17 44.906 0.044 6.27 163.65 11.15
3/25/2021 6:00:00 AM 7.16 44.888 0.044 6.25 161.4 11.15
3/25/2021 6:15:00 AM 7.15 44.87 0.044 6.28 160.95 11.16
3/25/2021 6:30:00 AM 7.14 44.852 0.044 6.33 162.51 11.16
3/25/2021 6:45:00 AM 7.13 44.834 0.044 6.36 161.9 11.17
3/25/2021 7:00:00 AM 7.12 44.816 0.044 6.16 161.74 11.18
3/25/2021 7:15:00 AM 7.11 44.798 0.044 6.19 159.96 11.18
3/25/2021 7:30:00 AM 7.11 44.798 0.044 6.3 159.2 11.19
3/25/2021 7:45:00 AM 7.1 44.78 0.044 6.21 157.96 11.21
3/25/2021 8:00:00 AM 7.11 44.798 0.044 6.26 158.26 11.22
3/25/2021 8:15:00 AM 7.11 44.798 0.044 6.26 157.99 11.24
3/25/2021 8:30:00 AM 7.12 44.816 0.044 6.24 157.86 11.26
3/25/2021 8:45:00 AM 7.14 44.852 0.044 6.27 158.28 11.28
3/25/2021 9:00:00 AM 7.16 44.888 0.044 6.29 157.73 11.3
3/25/2021 9:15:00 AM 7.19 44.942 0.043 6.28 157.14 11.32
3/25/2021 9:30:00 AM 7.23 45.014 0.043 6.31 156.67 11.33
3/25/2021 9:45:00 AM 7.29 45.122 0.043 6.33 157.45 11.33
3/25/2021 10:00:00 AM 7.35 45.23 0.043 6.35 157.57 11.34
3/25/2021 10:15:00 AM 7.44 45.392 0.043 6.34 157.63 11.34
3/25/2021 10:30:00 AM 7.54 45.572 0.043 6.4 154.51 11.33
3/25/2021 10:45:00 AM 7.66 45.788 0.043 6.45 152.81 11.31
3/25/2021 11:00:00 AM 7.8 46.04 0.043 6.44 151.79 11.29
3/25/2021 11:15:00 AM 7.92 46.256 0.043 6.43 153.86 11.25
3/25/2021 11:30:00 AM 8.08 46.544 0.043 6.43 152.46 11.22
3/25/2021 11:45:00 AM 8.23 46.814 0.043 6.45 151.75 11.17
3/25/2021 12:00:00 PM 8.4 47.12 0.043 6.46 156.55 11.15
3/25/2021 12:15:00 PM 8.6 47.48 0.043 6.46 152.74 11.1
3/25/2021 12:30:00 PM 8.78 47.804 0.043 6.49 154.08 11.05
3/25/2021 12:45:00 PM 8.96 48.128 0.043 6.51 152.02 11.01
3/25/2021 1:00:00 PM 9.1 48.38 0.043 6.5 152.52 10.97
3/25/2021 1:15:00 PM 9.28 48.704 0.043 6.56 154.55 10.92
3/25/2021 1:30:00 PM 9.45 49.01 0.043 6.49 152.8 10.88
3/25/2021 1:45:00 PM 9.62 49.316 0.043 6.5 151.79 10.84
3/25/2021 2:00:00 PM 9.78 49.604 0.043 6.5 152.14 10.79
3/25/2021 2:15:00 PM 9.92 49.856 0.044 6.51 151.04 10.74
3/25/2021 2:30:00 PM 10.04 50.072 0.044 6.51 151.56 10.7
3/25/2021 2:45:00 PM 10.16 50.288 0.044 6.54 151.98 10.67
3/25/2021 3:00:00 PM 10.25 50.45 0.045 6.56 152.02 10.64
3/25/2021 3:15:00 PM 10.33 50.594 0.044 6.48 152.3 10.6
3/25/2021 3:30:00 PM 10.38 50.684 0.044 6.45 152.07 10.58
3/25/2021 3:45:00 PM 10.4 50.72 0.045 6.42 152.34 10.55
3/25/2021 4:00:00 PM 10.41 50.738 0.044 6.47 152.46 10.53
3/25/2021 4:15:00 PM 10.41 50.738 0.044 6.45 151.43 10.52
3/25/2021 4:30:00 PM 10.4 50.72 0.044 6.42 151.53 10.51
3/25/2021 4:45:00 PM 10.4 50.72 0.045 6.43 151.33 10.5
3/25/2021 5:00:00 PM 10.39 50.702 0.045 6.41 151.47 10.49
3/25/2021 5:15:00 PM 10.38 50.684 0.045 6.42 151.25 10.48
3/25/2021 5:30:00 PM 10.35 50.63 0.045 6.39 151.27 10.46
3/25/2021 5:45:00 PM 10.32 50.576 0.045 6.41 152.22 10.46
3/25/2021 6:00:00 PM 10.27 50.486 0.045 6.41 152.01 10.44
3/25/2021 6:15:00 PM 10.21 50.378 0.045 6.34 151.58 10.43
3/25/2021 6:30:00 PM 10.14 50.252 0.045 6.31 152.01 10.43
3/25/2021 6:45:00 PM 10.05 50.09 0.045 6.33 151.8 10.42
3/25/2021 7:00:00 PM 9.97 49.946 0.045 6.37 151.85 10.42
3/25/2021 7:15:00 PM 9.89 49.802 0.045 6.37 152.3 10.42
3/25/2021 7:30:00 PM 9.81 49.658 0.045 6.38 151.98 10.41
3/25/2021 7:45:00 PM 9.72 49.496 0.045 6.36 151.7 10.42
3/25/2021 8:00:00 PM 9.63 49.334 0.045 6.35 152 10.44
3/25/2021 8:15:00 PM 9.54 49.172 0.045 6.22 151.5 10.44
3/25/2021 8:30:00 PM 9.46 49.028 0.045 6.26 151.48 10.46
3/25/2021 8:45:00 PM 9.39 48.902 0.045 6.28 151.07 10.48
3/25/2021 9:00:00 PM 9.32 48.776 0.045 6.36 152.09 10.49
3/25/2021 9:15:00 PM 9.26 48.668 0.045 6.36 151.15 10.51
3/25/2021 9:30:00 PM 9.2 48.56 0.045 6.36 151.35 10.52
3/25/2021 9:45:00 PM 9.15 48.47 0.045 6.36 150.86 10.54
3/25/2021 10:00:00 PM 9.11 48.398 0.045 6.32 151.05 10.55
3/25/2021 10:15:00 PM 9.06 48.308 0.045 6.36 148.78 10.57
3/25/2021 10:30:00 PM 9 48.2 0.045 6.35 146.37 10.58
3/25/2021 10:45:00 PM 8.96 48.128 0.045 6.33 147.6 10.59
3/25/2021 11:00:00 PM 8.91 48.038 0.045 6.33 147.24 10.6
3/25/2021 11:15:00 PM 8.87 47.966 0.045 6.35 147.54 10.61
3/25/2021 11:30:00 PM 8.84 47.912 0.045 6.33 147.19 10.62
3/25/2021 11:45:00 PM 8.81 47.858 0.045 6.34 147.37 10.63
3/26/2021 12:00:00 AM 8.79 47.822 0.045 6.33 147.31 10.63
3/26/2021 12:15:00 AM 8.77 47.786 0.045 6.32 147.4 10.64
3/26/2021 12:30:00 AM 8.75 47.75 0.045 6.37 147.29 10.64
3/26/2021 12:45:00 AM 8.74 47.732 0.045 6.3 147.77 10.64
3/26/2021 1:00:00 AM 8.72 47.696 0.045 6.3 147.37 10.64
3/26/2021 1:15:00 AM 8.69 47.642 0.045 6.3 147.34 10.64
3/26/2021 1:30:00 AM 8.66 47.588 0.045 6.3 147.82 10.65
3/26/2021 1:45:00 AM 8.64 47.552 0.045 6.31 147.84 10.65
3/26/2021 2:00:00 AM 8.62 47.516 0.045 6.31 148.07 10.65
3/26/2021 2:15:00 AM 8.6 47.48 0.045 6.3 148.15 10.66
3/26/2021 2:30:00 AM 8.59 47.462 0.045 6.3 147.96 10.66
3/26/2021 2:45:00 AM 8.6 47.48 0.045 6.3 147.86 10.65
3/26/2021 3:00:00 AM 8.6 47.48 0.045 6.3 148.22 10.65
3/26/2021 3:15:00 AM 8.6 47.48 0.045 6.3 148 10.65
3/26/2021 3:30:00 AM 8.59 47.462 0.046 6.29 147.81 10.64
3/26/2021 3:45:00 AM 8.58 47.444 0.046 6.28 148.39 10.64
3/26/2021 4:00:00 AM 8.57 47.426 0.046 6.27 148.63 10.64
3/26/2021 4:15:00 AM 8.56 47.408 0.046 6.29 148.48 10.64
3/26/2021 4:30:00 AM 8.54 47.372 0.046 6.29 148.29 10.63
3/26/2021 4:45:00 AM 8.53 47.354 0.045 6.27 148.6 10.63
3/26/2021 5:00:00 AM 8.51 47.318 0.045 6.27 148.61 10.63
3/26/2021 5:15:00 AM 8.49 47.282 0.045 6.28 148.75 10.63
3/26/2021 5:30:00 AM 8.47 47.246 0.045 6.28 148.63 10.63
3/26/2021 5:45:00 AM 8.46 47.228 0.045 6.28 148.65 10.63
3/26/2021 6:00:00 AM 8.46 47.228 0.045 6.28 148.77 10.64
3/26/2021 6:15:00 AM 8.46 47.228 0.045 6.29 148.88 10.63
3/26/2021 6:30:00 AM 8.45 47.21 0.045 6.28 148.82 10.63
3/26/2021 6:45:00 AM 8.45 47.21 0.045 6.29 148.53 10.63
3/26/2021 7:00:00 AM 8.46 47.228 0.045 6.3 148.88 10.63
3/26/2021 7:15:00 AM 8.46 47.228 0.045 6.31 148.7 10.63
3/26/2021 7:30:00 AM 8.46 47.228 0.045 6.31 148.81 10.64
3/26/2021 7:45:00 AM 8.45 47.21 0.045 6.34 148.2 10.66
3/26/2021 8:00:00 AM 8.46 47.228 0.045 6.36 148.16 10.69
3/26/2021 8:15:00 AM 8.48 47.264 0.045 6.37 147.97 10.71
3/26/2021 8:30:00 AM 8.51 47.318 0.046 6.41 148.02 10.73
3/26/2021 8:45:00 AM 8.54 47.372 0.046 6.39 148.35 10.73
3/26/2021 9:00:00 AM 8.58 47.444 0.046 6.41 148.17 10.74
3/26/2021 9:15:00 AM 8.63 47.534 0.046 6.42 148.41 10.75
3/26/2021 9:30:00 AM 8.68 47.624 0.046 6.43 148.05 10.76
3/26/2021 9:45:00 AM 8.74 47.732 0.045 6.43 146.88 10.75
3/26/2021 10:00:00 AM 8.78 47.804 0.045 6.41 146.98 10.74
3/26/2021 10:15:00 AM 8.8 47.84 0.045 6.45 147.04 10.74
3/26/2021 10:30:00 AM 8.82 47.876 0.045 6.42 146.98 10.73
3/26/2021 10:45:00 AM 8.86 47.948 0.045 6.43 146.7 10.72
3/26/2021 11:00:00 AM 8.9 48.02 0.045 6.49 147.33 10.73
3/26/2021 11:15:00 AM 8.92 48.056 0.045 6.49 147.26 10.73
3/26/2021 11:30:00 AM 8.96 48.128 0.045 6.5 147.17 10.74
3/26/2021 11:45:00 AM 8.99 48.182 0.045 6.41 146.29 10.75
3/26/2021 12:00:00 PM 9.01 48.218 0.045 6.44 146.11 10.73
3/26/2021 12:15:00 PM 9 48.2 0.045 6.42 145.99 10.72
3/26/2021 12:30:00 PM 8.98 48.164 0.045 6.42 146.13 10.72
3/26/2021 12:45:00 PM 8.98 48.164 0.045 6.41 145.85 10.72
3/26/2021 1:00:00 PM 8.99 48.182 0.045 6.46 145.64 10.74
3/26/2021 1:15:00 PM 9.04 48.272 0.045 6.42 146.1 10.76
3/26/2021 1:30:00 PM 9.06 48.308 0.045 6.39 146.4 10.77
3/26/2021 1:45:00 PM 9.07 48.326 0.045 6.39 145.93 10.77
3/26/2021 2:00:00 PM 9.07 48.326 0.045 6.43 146.35 10.78
3/26/2021 2:15:00 PM 9.09 48.362 0.046 6.47 146.42 10.79
3/26/2021 2:30:00 PM 9.11 48.398 0.046 6.4 146.16 10.8
3/26/2021 2:45:00 PM 9.17 48.506 0.046 6.44 146.15 10.79
3/26/2021 3:00:00 PM 9.22 48.596 0.046 6.44 146.26 10.79
3/26/2021 3:15:00 PM 9.3 48.74 0.046 6.46 146.49 10.79
3/26/2021 3:30:00 PM 9.32 48.776 0.046 6.56 146.56 10.79
3/26/2021 3:45:00 PM 9.29 48.722 0.046 6.45 146.43 10.78
3/26/2021 4:00:00 PM 9.21 48.578 0.045 6.42 145.8 10.78
3/26/2021 4:15:00 PM 9.14 48.452 0.045 6.37 145.73 10.79
3/26/2021 4:30:00 PM 9.08 48.344 0.045 6.37 145.73 10.8
3/26/2021 4:45:00 PM 9.04 48.272 0.045 6.38 145.99 10.81
3/26/2021 5:00:00 PM 9 48.2 0.045 6.35 145.65 10.82
3/26/2021 5:15:00 PM 8.95 48.11 0.045 6.41 145.31 10.83
3/26/2021 5:30:00 PM 8.9 48.02 0.045 6.43 145.81 10.82
3/26/2021 5:45:00 PM 8.85 47.93 0.045 6.4 145.64 10.82
3/26/2021 6:00:00 PM 8.79 47.822 0.045 6.37 145.93 10.82
3/26/2021 6:15:00 PM 8.73 47.714 0.045 6.39 145.84 10.82
3/26/2021 6:30:00 PM 8.67 47.606 0.045 6.43 146.02 10.81
3/26/2021 6:45:00 PM 8.6 47.48 0.045 6.4 146.01 10.81
3/26/2021 7:00:00 PM 8.53 47.354 0.045 6.42 145.82 10.81
3/26/2021 7:15:00 PM 8.46 47.228 0.045 6.46 146.01 10.82
3/26/2021 7:30:00 PM 8.38 47.084 0.045 6.49 145.55 10.83
3/26/2021 7:45:00 PM 8.32 46.976 0.045 6.44 145.54 10.84
3/26/2021 8:00:00 PM 8.25 46.85 0.046 6.4 145.37 10.84
3/26/2021 8:15:00 PM 8.19 46.742 0.046 6.37 145.46 10.86
3/26/2021 8:30:00 PM 8.12 46.616 0.046 6.43 146.08 10.87
3/26/2021 8:45:00 PM 8.06 46.508 0.046 6.41 145.76 10.89
3/26/2021 9:00:00 PM 8 46.4 0.045 6.36 145.63 10.9
3/26/2021 9:15:00 PM 7.94 46.292 0.046 6.37 145.37 10.92
3/26/2021 9:30:00 PM 7.89 46.202 0.046 6.39 146.87 10.94
3/26/2021 9:45:00 PM 7.83 46.094 0.046 6.38 146.08 10.96
3/26/2021 10:00:00 PM 7.78 46.004 0.046 6.39 146.2 10.98
3/26/2021 10:15:00 PM 7.73 45.914 0.046 6.41 146.02 10.99
3/26/2021 10:30:00 PM 7.69 45.842 0.046 6.37 145.79 11.01
3/26/2021 10:45:00 PM 7.65 45.77 0.046 6.4 146.04 11.03
3/26/2021 11:00:00 PM 7.62 45.716 0.046 6.37 145.59 11.04
3/26/2021 11:15:00 PM 7.58 45.644 0.046 6.33 145.53 11.04
3/26/2021 11:30:00 PM 7.55 45.59 0.046 6.34 145.75 11.06
3/26/2021 11:45:00 PM 7.51 45.518 0.046 6.34 146.06 11.06
3/27/2021 12:00:00 AM 7.49 45.482 0.046 6.34 147.24 11.07
3/27/2021 12:15:00 AM 7.46 45.428 0.046 6.36 147.92 11.08
3/27/2021 12:30:00 AM 7.44 45.392 0.046 6.4 148.29 11.09
3/27/2021 12:45:00 AM 7.41 45.338 0.046 6.4 148.3 11.09
3/27/2021 1:00:00 AM 7.39 45.302 0.046 6.4 148.4 11.1
3/27/2021 1:15:00 AM 7.37 45.266 0.046 6.37 148.74 11.1
3/27/2021 1:30:00 AM 7.35 45.23 0.046 6.36 148.27 11.11
3/27/2021 1:45:00 AM 7.34 45.212 0.046 6.38 148.47 11.11
3/27/2021 2:00:00 AM 7.32 45.176 0.046 6.32 147.13 11.11
3/27/2021 2:15:00 AM 7.31 45.158 0.046 6.32 146.65 11.12
3/27/2021 2:30:00 AM 7.29 45.122 0.046 6.32 146.66 11.12
3/27/2021 2:45:00 AM 7.28 45.104 0.046 6.32 146.96 11.12
3/27/2021 3:00:00 AM 7.27 45.086 0.046 6.32 146.87 11.12
3/27/2021 3:15:00 AM 7.26 45.068 0.046 6.32 147.31 11.13
3/27/2021 3:30:00 AM 7.25 45.05 0.046 6.33 146.93 11.13
3/27/2021 3:45:00 AM 7.24 45.032 0.046 6.37 147.03 11.14
3/27/2021 4:00:00 AM 7.23 45.014 0.046 6.4 147.02 11.14
3/27/2021 4:15:00 AM 7.22 44.996 0.046 6.33 146.68 11.14
3/27/2021 4:30:00 AM 7.21 44.978 0.046 6.32 147.14 11.14
3/27/2021 4:45:00 AM 7.21 44.978 0.046 6.34 146.92 11.14
3/27/2021 5:00:00 AM 7.2 44.96 0.046 6.37 146.64 11.15
3/27/2021 5:15:00 AM 7.2 44.96 0.046 6.38 145.97 11.15
3/27/2021 5:30:00 AM 7.19 44.942 0.046 6.38 145.44 11.15
3/27/2021 5:45:00 AM 7.19 44.942 0.046 6.37 144.69 11.15
3/27/2021 6:00:00 AM 7.18 44.924 0.046 6.37 145.9 11.15
3/27/2021 6:15:00 AM 7.17 44.906 0.046 6.35 146.35 11.15
3/27/2021 6:30:00 AM 7.17 44.906 0.046 6.36 145.54 11.16
3/27/2021 6:45:00 AM 7.16 44.888 0.046 6.35 145.65 11.16
3/27/2021 7:00:00 AM 7.14 44.852 0.046 6.33 146.47 11.16
3/27/2021 7:15:00 AM 7.13 44.834 0.046 6.35 146.92 11.17
3/27/2021 7:30:00 AM 7.12 44.816 0.046 6.36 146.94 11.18
3/27/2021 7:45:00 AM 7.11 44.798 0.046 6.35 145.3 11.2
3/27/2021 8:00:00 AM 7.11 44.798 0.046 6.32 147.96 11.23
3/27/2021 8:15:00 AM 7.11 44.798 0.046 6.32 148.32 11.26
3/27/2021 8:30:00 AM 7.11 44.798 0.046 6.35 148.17 11.29
3/27/2021 8:45:00 AM 7.14 44.852 0.046 6.35 145.96 11.31
3/27/2021 9:00:00 AM 7.18 44.924 0.046 6.36 147.06 11.34
3/27/2021 9:15:00 AM 7.23 45.014 0.046 6.35 148.27 11.34
3/27/2021 9:30:00 AM 7.27 45.086 0.046 6.35 148.21 11.34
3/27/2021 9:45:00 AM 7.35 45.23 0.046 6.34 148.36 11.34
3/27/2021 10:00:00 AM 7.44 45.392 0.046 6.37 148.62 11.33
3/27/2021 10:15:00 AM 7.48 45.464 0.046 6.36 149.13 11.31
3/27/2021 10:30:00 AM 7.52 45.536 0.046 6.35 150.85 11.32
3/27/2021 10:45:00 AM 7.6 45.68 0.046 6.34 152.2 11.31
3/27/2021 11:00:00 AM 7.68 45.824 0.046 6.3 151.59 11.32
3/27/2021 11:15:00 AM 7.79 46.022 0.046 6.3 153.37 11.29
3/27/2021 11:30:00 AM 8.01 46.418 0.046 6.35 150.67 11.25
3/27/2021 11:45:00 AM 8.13 46.634 0.046 6.38 151.13 11.21
3/27/2021 12:00:00 PM 8.26 46.868 0.046 6.36 149.19 11.19
3/27/2021 12:15:00 PM 8.46 47.228 0.046 6.31 149.63 11.14
3/27/2021 12:30:00 PM 8.61 47.498 0.046 6.34 151.96 11.1
3/27/2021 12:45:00 PM 8.73 47.714 0.046 6.3 151.55 11.07
3/27/2021 1:00:00 PM 8.92 48.056 0.046 6.27 151.26 11.02
3/27/2021 1:15:00 PM 9.14 48.452 0.046 6.34 150.86 10.96
3/27/2021 1:30:00 PM 9.27 48.686 0.046 6.34 149.64 10.91
3/27/2021 1:45:00 PM 9.43 48.974 0.046 6.31 148.69 10.87
3/27/2021 2:00:00 PM 9.55 49.19 0.046 6.29 150.56 10.85
3/27/2021 2:15:00 PM 9.68 49.424 0.046 6.3 150.87 10.82
3/27/2021 2:30:00 PM 9.79 49.622 0.046 6.26 150.84 10.78
3/27/2021 2:45:00 PM 9.91 49.838 0.046 6.26 152.96 10.73
3/27/2021 3:00:00 PM 10 50 0.046 6.24 155.03 10.71
3/27/2021 3:15:00 PM 10.08 50.144 0.046 6.29 153.63 10.67
3/27/2021 3:30:00 PM 10.13 50.234 0.046 6.27 150.77 10.64
3/27/2021 3:45:00 PM 10.17 50.306 0.046 6.22 152.78 10.62
3/27/2021 4:00:00 PM 10.19 50.342 0.046 6.23 154.08 10.61
3/27/2021 4:15:00 PM 10.2 50.36 0.046 6.19 157.09 10.58
3/27/2021 4:30:00 PM 10.21 50.378 0.046 6.21 154.91 10.57
3/27/2021 4:45:00 PM 10.21 50.378 0.046 6.17 153.92 10.56
3/27/2021 5:00:00 PM 10.24 50.432 0.046 6.14 153.23 10.55
3/27/2021 5:15:00 PM 10.25 50.45 0.046 6.15 149.32 10.52
3/27/2021 5:30:00 PM 10.23 50.414 0.046 6.23 151.75 10.52
3/27/2021 5:45:00 PM 10.21 50.378 0.046 6.24 152.61 10.5
3/27/2021 6:00:00 PM 10.19 50.342 0.047 6.22 149.78 10.48
3/27/2021 6:15:00 PM 10.15 50.27 0.047 6.21 151.77 10.46
3/27/2021 6:30:00 PM 10.1 50.18 0.047 6.23 151.72 10.43
3/27/2021 6:45:00 PM 10.02 50.036 0.047 6.16 152.92 10.39
3/27/2021 7:00:00 PM 9.93 49.874 0.047 6.14 149.95 10.4
3/27/2021 7:15:00 PM 9.85 49.73 0.047 6.14 151.86 10.37
3/27/2021 7:30:00 PM 9.75 49.55 0.047 6.19 151.02 10.38
3/27/2021 7:45:00 PM 9.66 49.388 0.047 6.14 150.22 10.39
3/27/2021 8:00:00 PM 9.57 49.226 0.047 6.14 150.19 10.36
3/27/2021 8:15:00 PM 9.47 49.046 0.047 6.1 149.76 10.36
3/27/2021 8:30:00 PM 9.38 48.884 0.047 6.14 149.51 10.38
3/27/2021 8:45:00 PM 9.28 48.704 0.047 6.15 149.92 10.4
3/27/2021 9:00:00 PM 9.18 48.524 0.047 6.14 150.28 10.43
3/27/2021 9:15:00 PM 9.08 48.344 0.047 6.1 150.65 10.46
3/27/2021 9:30:00 PM 8.98 48.164 0.046 6.07 150.27 10.51
3/27/2021 9:45:00 PM 8.88 47.984 0.046 6.09 149.98 10.53
3/27/2021 10:00:00 PM 8.79 47.822 0.046 6.12 151.73 10.56
3/27/2021 10:15:00 PM 8.69 47.642 0.046 6.15 152.5 10.58
3/27/2021 10:30:00 PM 8.59 47.462 0.046 6.15 151.22 10.61
3/27/2021 10:45:00 PM 8.5 47.3 0.046 6.11 152.17 10.62
3/27/2021 11:00:00 PM 8.41 47.138 0.046 6.14 153.91 10.65
3/27/2021 11:15:00 PM 8.32 46.976 0.046 6.17 151.22 10.66
3/27/2021 11:30:00 PM 8.23 46.814 0.046 6.17 151.24 10.69
3/27/2021 11:45:00 PM 8.15 46.67 0.046 6.12 152.68 10.71
3/28/2021 12:00:00 AM 8.07 46.526 0.046 6.09 152.66 10.75
3/28/2021 12:15:00 AM 7.99 46.382 0.046 6.08 152.14 10.76
3/28/2021 12:30:00 AM 7.91 46.238 0.046 6.07 152.2 10.8
3/28/2021 12:45:00 AM 7.83 46.094 0.046 6.09 154.07 10.82
3/28/2021 1:00:00 AM 7.75 45.95 0.046 6.08 152.63 10.83
3/28/2021 1:15:00 AM 7.68 45.824 0.046 6.14 152.44 10.84
3/28/2021 1:30:00 AM 7.61 45.698 0.046 6.08 151.99 10.87
3/28/2021 1:45:00 AM 7.54 45.572 0.046 6.08 150.09 10.89
3/28/2021 2:00:00 AM 7.47 45.446 0.046 6.1 150.02 10.91
3/28/2021 2:15:00 AM 7.4 45.32 0.046 6.09 149.03 10.93
3/28/2021 2:30:00 AM 7.33 45.194 0.046 6.07 152.07 10.95
3/28/2021 2:45:00 AM 7.27 45.086 0.047 6.08 152.48 10.95
3/28/2021 3:00:00 AM 7.21 44.978 0.047 6.11 152.63 10.97
3/28/2021 3:15:00 AM 7.15 44.87 0.047 6.12 150.02 10.97
3/28/2021 3:30:00 AM 7.1 44.78 0.048 6.12 149.1 10.98
3/28/2021 3:45:00 AM 7.05 44.69 0.047 6.14 151.49 10.99
3/28/2021 4:00:00 AM 7 44.6 0.046 6.13 152.85 11.01
3/28/2021 4:15:00 AM 6.96 44.528 0.046 6.13 149.47 11.03
3/28/2021 4:30:00 AM 6.92 44.456 0.046 6.13 151.89 11.03
3/28/2021 4:45:00 AM 6.89 44.402 0.046 6.14 147.67 11.04
3/28/2021 5:00:00 AM 6.86 44.348 0.046 6.16 151.24 11.04
3/28/2021 5:15:00 AM 6.84 44.312 0.046 6.14 153.15 11.05
3/28/2021 5:30:00 AM 6.82 44.276 0.046 6.14 154.25 11.05
3/28/2021 5:45:00 AM 6.8 44.24 0.046 6.15 154.03 11.06
3/28/2021 6:00:00 AM 6.79 44.222 0.046 6.16 151.43 11.07
3/28/2021 6:15:00 AM 6.78 44.204 0.046 6.16 150.52 11.07
3/28/2021 6:30:00 AM 6.78 44.204 0.047 6.15 152.51 11.08
3/28/2021 6:45:00 AM 6.77 44.186 0.046 6.15 153.59 11.07
3/28/2021 7:00:00 AM 6.78 44.204 0.046 6.17 152.6 11.05
3/28/2021 7:15:00 AM 6.8 44.24 0.046 6.16 154.04 11.06
3/28/2021 7:30:00 AM 6.82 44.276 0.045 6.16 155.91 11.06
3/28/2021 7:45:00 AM 6.86 44.348 0.046 6.17 154.14 11.05
3/28/2021 8:00:00 AM 6.91 44.438 0.046 6.17 151.32 11.04
3/28/2021 8:15:00 AM 6.96 44.528 0.046 6.18 151.99 11.03
3/28/2021 8:30:00 AM 7 44.6 0.046 6.17 150.61 11.01
3/28/2021 8:45:00 AM 7.03 44.654 0.046 6.17 150.23 11.02
3/28/2021 9:00:00 AM 7.07 44.726 0.046 6.17 151.69 11.01
3/28/2021 9:15:00 AM 7.1 44.78 0.046 6.19 153.55 11.01
3/28/2021 9:30:00 AM 7.13 44.834 0.046 6.18 152.93 11
3/28/2021 9:45:00 AM 7.18 44.924 0.046 6.18 151.04 11
3/28/2021 10:00:00 AM 7.24 45.032 0.046 6.19 155.08 10.99
3/28/2021 10:15:00 AM 7.29 45.122 0.046 6.18 156.9 10.97
3/28/2021 10:30:00 AM 7.34 45.212 0.046 6.19 156.35 10.95
3/28/2021 10:45:00 AM 7.4 45.32 0.046 6.18 157.9 10.94
3/28/2021 11:00:00 AM 7.45 45.41 0.046 6.19 158.94 10.92
3/28/2021 11:15:00 AM 7.49 45.482 0.046 6.18 157.15 10.93
3/28/2021 11:30:00 AM 7.54 45.572 0.046 6.17 155.73 10.92
3/28/2021 11:45:00 AM 7.59 45.662 0.046 6.18 155.7 10.9
3/28/2021 12:00:00 PM 7.65 45.77 0.046 6.18 155.76 10.9
3/28/2021 12:15:00 PM 7.72 45.896 0.046 6.21 155.1 10.9
3/28/2021 12:30:00 PM 7.79 46.022 0.046 6.21 155.43 10.9
3/28/2021 12:45:00 PM 7.87 46.166 0.046 6.21 154.89 10.87
3/28/2021 1:00:00 PM 7.95 46.31 0.046 6.2 155.21 10.85
3/28/2021 1:15:00 PM 8.02 46.436 0.046 6.2 152.61 10.84
3/28/2021 1:30:00 PM 8.08 46.544 0.046 6.21 155.27 10.82
3/28/2021 1:45:00 PM 8.13 46.634 0.046 6.18 151.95 10.8
3/28/2021 2:00:00 PM 8.17 46.706 0.046 6.21 152.95 10.76
3/28/2021 2:15:00 PM 8.23 46.814 0.046 6.19 151.63 10.74
3/28/2021 2:30:00 PM 8.28 46.904 0.046 6.21 154.36 10.7
3/28/2021 2:45:00 PM 8.3 46.94 0.046 6.18 154.34 10.69
3/28/2021 3:00:00 PM 8.33 46.994 0.046 6.17 152.56 10.68
3/28/2021 3:15:00 PM 8.35 47.03 0.046 6.17 153.62 10.67
3/28/2021 3:30:00 PM 8.38 47.084 0.046 6.18 152.97 10.67
3/28/2021 3:45:00 PM 8.43 47.174 0.046 6.18 152.44 10.68
3/28/2021 4:00:00 PM 8.45 47.21 0.046 6.18 152.99 10.64
3/28/2021 4:15:00 PM 8.46 47.228 0.046 6.17 149.83 10.64
3/28/2021 4:30:00 PM 8.44 47.192 0.046 6.17 150.7 10.66
3/28/2021 4:45:00 PM 8.43 47.174 0.046 6.16 151.88 10.69
3/28/2021 5:00:00 PM 8.45 47.21 0.046 6.18 153.59 10.78
3/28/2021 5:15:00 PM 8.43 47.174 0.046 6.17 152.6 10.76
3/28/2021 5:30:00 PM 8.4 47.12 0.046 6.17 151.94 10.75
3/28/2021 5:45:00 PM 8.41 47.138 0.046 6.18 152.23 10.77
3/28/2021 6:00:00 PM 8.4 47.12 0.046 6.18 153.33 10.78
3/28/2021 6:15:00 PM 8.37 47.066 0.046 6.18 152.13 10.77
3/28/2021 6:30:00 PM 8.33 46.994 0.046 6.18 150.47 10.81
3/28/2021 6:45:00 PM 8.28 46.904 0.046 6.18 153.95 10.8
3/28/2021 7:00:00 PM 8.24 46.832 0.046 6.18 152.71 10.78
3/28/2021 7:15:00 PM 8.19 46.742 0.046 6.18 149.39 10.78
3/28/2021 7:30:00 PM 8.12 46.616 0.046 6.18 150.92 10.76
3/28/2021 7:45:00 PM 8.04 46.472 0.046 6.18 151.44 10.74
3/28/2021 8:00:00 PM 7.96 46.328 0.046 6.17 151.86 10.75
3/28/2021 8:15:00 PM 7.89 46.202 0.046 6.17 151.64 10.76
3/28/2021 8:30:00 PM 7.82 46.076 0.047 6.17 151.62 10.75
3/28/2021 8:45:00 PM 7.75 45.95 0.047 6.17 151.73 10.78
3/28/2021 9:00:00 PM 7.69 45.842 0.047 6.18 153.48 10.78
3/28/2021 9:15:00 PM 7.63 45.734 0.047 6.17 153.77 10.81
3/28/2021 9:30:00 PM 7.57 45.626 0.047 6.18 154.19 10.83
3/28/2021 9:45:00 PM 7.48 45.464 0.046 6.17 152.31 10.83
3/28/2021 10:00:00 PM 7.4 45.32 0.047 6.17 152.24 10.89
3/28/2021 10:15:00 PM 7.32 45.176 0.046 6.17 152.34 10.9
3/28/2021 10:30:00 PM 7.25 45.05 0.046 6.17 152.58 10.93
3/28/2021 10:45:00 PM 7.15 44.87 0.046 6.17 153.01 10.96
3/28/2021 11:00:00 PM 7.07 44.726 0.046 6.19 150.79 10.99
3/28/2021 11:15:00 PM 7 44.6 0.046 6.18 151.33 11.01
3/28/2021 11:30:00 PM 6.93 44.474 0.046 6.18 150.94 11.04
3/28/2021 11:45:00 PM 6.85 44.33 0.046 6.19 148.57 11.07
3/29/2021 12:00:00 AM 6.78 44.204 0.046 6.2 149.45 11.09
3/29/2021 12:15:00 AM 6.7 44.06 0.046 6.21 149.17 11.12
3/29/2021 12:30:00 AM 6.63 43.934 0.046 6.22 149.8 11.13
3/29/2021 12:45:00 AM 6.55 43.79 0.046 6.22 150.17 11.16
3/29/2021 1:00:00 AM 6.49 43.682 0.046 6.23 149.69 11.19
3/29/2021 1:15:00 AM 6.41 43.538 0.046 6.22 150.51 11.22
3/29/2021 1:30:00 AM 6.34 43.412 0.047 6.23 150.7 11.25
3/29/2021 1:45:00 AM 6.27 43.286 0.047 6.22 149.98 11.26
3/29/2021 2:00:00 AM 6.21 43.178 0.047 6.22 152 11.29
3/29/2021 2:15:00 AM 6.13 43.034 0.046 6.22 152.68 11.31
3/29/2021 2:30:00 AM 6.07 42.926 0.046 6.22 151.03 11.33
3/29/2021 2:45:00 AM 6.03 42.854 0.046 6.23 150.35 11.35
3/29/2021 3:00:00 AM 6 42.8 0.046 6.24 150.37 11.36
3/29/2021 3:15:00 AM 5.93 42.674 0.046 6.22 150.27 11.38
3/29/2021 3:30:00 AM 5.83 42.494 0.046 6.22 150.4 11.4
3/29/2021 3:45:00 AM 5.78 42.404 0.046 6.22 151.83 11.44
3/29/2021 4:00:00 AM 5.76 42.368 0.046 6.22 150.29 11.45
3/29/2021 4:15:00 AM 5.73 42.314 0.046 6.21 150.3 11.47
3/29/2021 4:30:00 AM 5.71 42.278 0.046 6.23 150.42 11.49
3/29/2021 4:45:00 AM 5.67 42.206 0.046 6.22 150.43 11.5
3/29/2021 5:00:00 AM 5.61 42.098 0.046 6.22 150.3 11.51
3/29/2021 5:15:00 AM 5.56 42.008 0.046 6.2 150.3 11.54
3/29/2021 5:30:00 AM 5.52 41.936 0.046 6.21 150.13 11.55
3/29/2021 5:45:00 AM 5.51 41.918 0.046 6.22 151.1 11.56
3/29/2021 6:00:00 AM 5.47 41.846 0.046 6.22 150.55 11.57
3/29/2021 6:15:00 AM 5.43 41.774 0.046 6.22 151.13 11.59
3/29/2021 6:30:00 AM 5.4 41.72 0.046 6.21 151.13 11.61
3/29/2021 6:45:00 AM 5.37 41.666 0.046 6.21 150.13 11.62
3/29/2021 7:00:00 AM 5.33 41.594 0.046 6.2 150.27 11.64
3/29/2021 7:15:00 AM 5.3 41.54 0.046 6.21 150.53 11.66
3/29/2021 7:30:00 AM 5.26 41.468 0.046 6.2 150.3 11.68
3/29/2021 7:45:00 AM 5.25 41.45 0.046 6.2 150.56 11.71
3/29/2021 8:00:00 AM 5.23 41.414 0.046 6.2 150.77 11.74
3/29/2021 8:15:00 AM 5.21 41.378 0.046 6.2 150.77 11.77
3/29/2021 8:30:00 AM 5.19 41.342 0.046 6.2 150.86 11.8
3/29/2021 8:45:00 AM 5.16 41.288 0.046 6.2 151.32 11.84
3/29/2021 9:00:00 AM 5.15 41.27 0.046 6.21 151.16 11.86
3/29/2021 9:15:00 AM 5.15 41.27 0.046 6.22 151.38 11.89
3/29/2021 9:30:00 AM 5.14 41.252 0.046 6.22 150.53 11.92
3/29/2021 9:45:00 AM 5.15 41.27 0.046 6.23 151.49 11.95
3/29/2021 10:00:00 AM 5.15 41.27 0.046 6.24 150.25 11.96
3/29/2021 10:15:00 AM 5.16 41.288 0.046 6.27 150.92 11.97
3/29/2021 10:30:00 AM 5.18 41.324 0.046 6.29 150.77 11.98
3/29/2021 10:45:00 AM 5.2 41.36 0.046 6.3 151.1 12
3/29/2021 11:00:00 AM 5.25 41.45 0.046 6.28 150.89 12.01
3/29/2021 11:15:00 AM 5.32 41.576 0.046 6.29 151.45 12
3/29/2021 11:30:00 AM 5.38 41.684 0.046 6.3 150.98 11.99
3/29/2021 11:45:00 AM 5.46 41.828 0.046 6.3 151.28 11.99
3/29/2021 12:00:00 PM 5.58 42.044 0.046 6.32 150.9 11.97
3/29/2021 12:15:00 PM 5.7 42.26 0.046 6.32 151.38 11.94
3/29/2021 12:30:00 PM 5.84 42.512 0.046 6.34 150.92 11.91
3/29/2021 12:45:00 PM 6.04 42.872 0.046 6.36 150.96 11.85
3/29/2021 1:00:00 PM 6.15 43.07 0.046 6.34 150.64 11.81
3/29/2021 1:15:00 PM 6.28 43.304 0.046 6.34 150.65 11.77
3/29/2021 1:30:00 PM 6.53 43.754 0.046 6.36 150.39 11.71
3/29/2021 1:45:00 PM 6.8 44.24 0.046 6.37 150.5 11.63
3/29/2021 2:00:00 PM 7 44.6 0.046 6.37 151.18 11.58
3/29/2021 2:15:00 PM 7.16 44.888 0.046 6.36 151.98 11.52
3/29/2021 2:30:00 PM 7.32 45.176 0.046 6.35 152.68 11.48
3/29/2021 2:45:00 PM 7.49 45.482 0.046 6.35 153.1 11.41
3/29/2021 3:00:00 PM 7.63 45.734 0.046 6.36 155.03 11.37
3/29/2021 3:15:00 PM 7.77 45.986 0.046 6.33 154.28 11.33
3/29/2021 3:30:00 PM 7.89 46.202 0.046 6.32 155.84 11.29
3/29/2021 3:45:00 PM 7.96 46.328 0.046 6.3 154.32 11.25
3/29/2021 4:00:00 PM 8.02 46.436 0.046 6.29 153.7 11.22
3/29/2021 4:15:00 PM 8.06 46.508 0.046 6.3 154.66 11.2
3/29/2021 4:30:00 PM 8.07 46.526 0.046 6.28 153.43 11.19
3/29/2021 4:45:00 PM 8.06 46.508 0.046 6.28 153.83 11.17
3/29/2021 5:00:00 PM 8.03 46.454 0.046 6.26 154.79 11.16
3/29/2021 5:15:00 PM 7.98 46.364 0.046 6.25 154.12 11.15
3/29/2021 5:30:00 PM 7.93 46.274 0.046 6.23 154.09 11.15
3/29/2021 5:45:00 PM 7.88 46.184 0.046 6.23 154.42 11.15
3/29/2021 6:00:00 PM 7.82 46.076 0.046 6.22 152.81 11.15
3/29/2021 6:15:00 PM 7.74 45.932 0.046 6.21 153.73 11.14
3/29/2021 6:30:00 PM 7.66 45.788 0.046 6.21 154.06 11.15
3/29/2021 6:45:00 PM 7.58 45.644 0.046 6.21 151.38 11.14
3/29/2021 7:00:00 PM 7.5 45.5 0.046 6.2 151.67 11.15
3/29/2021 7:15:00 PM 7.41 45.338 0.046 6.2 151.21 11.15
3/29/2021 7:30:00 PM 7.32 45.176 0.046 6.21 151.43 11.14
3/29/2021 7:45:00 PM 7.23 45.014 0.046 6.19 153.74 11.16
3/29/2021 8:00:00 PM 7.15 44.87 0.046 6.2 152.64 11.16
3/29/2021 8:15:00 PM 7.06 44.708 0.046 6.2 151.34 11.18
3/29/2021 8:30:00 PM 6.97 44.546 0.046 6.19 151.9 11.19
3/29/2021 8:45:00 PM 6.88 44.384 0.046 6.2 153.31 11.22
3/29/2021 9:00:00 PM 6.79 44.222 0.046 6.2 150.55 11.24
3/29/2021 9:15:00 PM 6.69 44.042 0.046 6.2 152.58 11.26
3/29/2021 9:30:00 PM 6.6 43.88 0.046 6.2 153.08 11.28
3/29/2021 9:45:00 PM 6.51 43.718 0.046 6.2 151.41 11.32
3/29/2021 10:00:00 PM 6.42 43.556 0.046 6.19 150.6 11.34
3/29/2021 10:15:00 PM 6.33 43.394 0.046 6.19 149.24 11.37
3/29/2021 10:30:00 PM 6.25 43.25 0.046 6.19 150.43 11.4
3/29/2021 10:45:00 PM 6.16 43.088 0.046 6.2 151.64 11.43
3/29/2021 11:00:00 PM 6.08 42.944 0.046 6.19 148.5 11.45
3/29/2021 11:15:00 PM 6 42.8 0.046 6.19 151.14 11.48
3/29/2021 11:30:00 PM 5.92 42.656 0.046 6.19 149.64 11.51
3/29/2021 11:45:00 PM 5.84 42.512 0.046 6.19 149.12 11.53
3/30/2021 12:00:00 AM 5.77 42.386 0.046 6.19 149.75 11.55
3/30/2021 12:15:00 AM 5.69 42.242 0.046 6.19 151.02 11.58
3/30/2021 12:30:00 AM 5.62 42.116 0.046 6.19 151.81 11.61
3/30/2021 12:45:00 AM 5.55 41.99 0.046 6.19 150.61 11.63
3/30/2021 1:00:00 AM 5.49 41.882 0.046 6.18 150.81 11.65
3/30/2021 1:15:00 AM 5.42 41.756 0.046 6.18 152.44 11.67
3/30/2021 1:30:00 AM 5.36 41.648 0.045 6.18 150.79 11.7
3/30/2021 1:45:00 AM 5.3 41.54 0.049 6.19 151.33 11.71
3/30/2021 2:00:00 AM 5.24 41.432 0.045 6.19 151.34 11.74
3/30/2021 2:15:00 AM 5.18 41.324 0.046 6.18 152.56 11.76
3/30/2021 2:30:00 AM 5.13 41.234 0.046 6.18 152.14 11.78
3/30/2021 2:45:00 AM 5.08 41.144 0.045 6.18 152.92 11.8
3/30/2021 3:00:00 AM 5.03 41.054 0.045 6.18 152.06 11.81
3/30/2021 3:15:00 AM 4.98 40.964 0.045 6.18 153.36 11.82
3/30/2021 3:30:00 AM 4.94 40.892 0.045 6.17 151.95 11.84
3/30/2021 3:45:00 AM 4.89 40.802 0.045 6.17 153.15 11.86
3/30/2021 4:00:00 AM 4.85 40.73 0.045 6.18 150.54 11.87
3/30/2021 4:15:00 AM 4.81 40.658 0.045 6.17 150.61 11.88
3/30/2021 4:30:00 AM 4.77 40.586 0.045 6.18 149.58 11.9
3/30/2021 4:45:00 AM 4.73 40.514 0.045 6.17 149.82 11.91
3/30/2021 5:00:00 AM 4.69 40.442 0.045 6.18 148.21 11.92
3/30/2021 5:15:00 AM 4.66 40.388 0.045 6.18 150.34 11.94
3/30/2021 5:30:00 AM 4.63 40.334 0.045 6.18 149.95 11.94
3/30/2021 5:45:00 AM 4.59 40.262 0.045 6.18 150.29 11.96
3/30/2021 6:00:00 AM 4.56 40.208 0.045 6.19 152.34 11.98
3/30/2021 6:15:00 AM 4.53 40.154 0.045 6.19 151.2 11.98
3/30/2021 6:30:00 AM 4.5 40.1 0.045 6.18 150.88 11.99
3/30/2021 6:45:00 AM 4.47 40.046 0.045 6.19 152.04 11.99
3/30/2021 7:00:00 AM 4.44 39.992 0.045 6.18 152.96 12.01
3/30/2021 7:15:00 AM 4.41 39.938 0.045 6.18 151.78 12.02
3/30/2021 7:30:00 AM 4.39 39.902 0.045 6.19 152.43 12.06
3/30/2021 7:45:00 AM 4.37 39.866 0.045 6.19 152.56 12.08
3/30/2021 8:00:00 AM 4.36 39.848 0.045 6.19 151.75 12.08
3/30/2021 8:15:00 AM 4.35 39.83 0.045 6.19 151.75 12.07
3/30/2021 8:30:00 AM 4.35 39.83 0.045 6.19 148.74 12.15
3/30/2021 8:45:00 AM 4.36 39.848 0.045 6.2 149.08 12.18
3/30/2021 9:00:00 AM 4.39 39.902 0.045 6.2 148.23 12.19
3/30/2021 9:15:00 AM 4.44 39.992 0.045 6.19 145.98 12.23
3/30/2021 9:30:00 AM 4.5 40.1 0.045 6.2 154.24 12.22
3/30/2021 9:45:00 AM 4.59 40.262 0.045 6.21 154.31 12.21
3/30/2021 10:00:00 AM 4.7 40.46 0.045 6.21 154.14 12.2
3/30/2021 10:15:00 AM 4.83 40.694 0.045 6.23 154.13 12.2
3/30/2021 10:30:00 AM 4.98 40.964 0.044 6.23 154.38 12.17
3/30/2021 10:45:00 AM 5.16 41.288 0.044 6.23 154.22 12.13
3/30/2021 11:00:00 AM 5.36 41.648 0.044 6.24 153.95 12.07
3/30/2021 11:15:00 AM 5.56 42.008 0.044 6.25 154.68 12.03
3/30/2021 11:30:00 AM 5.78 42.404 0.044 6.25 154.49 11.98
3/30/2021 11:45:00 AM 6 42.8 0.044 6.25 154.84 11.91
3/30/2021 12:00:00 PM 6.23 43.214 0.044 6.26 155.91 11.86
3/30/2021 12:15:00 PM 6.48 43.664 0.044 6.26 155.23 11.78
3/30/2021 12:30:00 PM 6.73 44.114 0.045 6.25 156.37 11.71
3/30/2021 12:45:00 PM 6.99 44.582 0.045 6.25 157.72 11.64
3/30/2021 1:00:00 PM 7.26 45.068 0.045 6.26 156.87 11.56
3/30/2021 1:15:00 PM 7.53 45.554 0.045 6.25 158.38 11.48
3/30/2021 1:30:00 PM 7.79 46.022 0.045 6.26 158.66 11.41
3/30/2021 1:45:00 PM 8.05 46.49 0.045 6.25 158.29 11.32
3/30/2021 2:00:00 PM 8.3 46.94 0.045 6.24 159.27 11.26
3/30/2021 2:15:00 PM 8.53 47.354 0.045 6.24 159.8 11.17
3/30/2021 2:30:00 PM 8.77 47.786 0.045 6.24 159.07 11.1
3/30/2021 2:45:00 PM 8.98 48.164 0.045 6.25 157.04 11.05
3/30/2021 3:00:00 PM 9.19 48.542 0.045 6.3 159.07 10.99
3/30/2021 3:15:00 PM 9.37 48.866 0.045 6.27 160.62 10.91
3/30/2021 3:30:00 PM 9.54 49.172 0.045 6.25 161.53 10.88
3/30/2021 3:45:00 PM 9.67 49.406 0.045 6.25 161.78 10.82
3/30/2021 4:00:00 PM 9.8 49.64 0.045 6.24 161.39 10.78
3/30/2021 4:15:00 PM 9.84 49.712 0.045 6.2 161.43 10.74
3/30/2021 4:30:00 PM 9.89 49.802 0.045 6.22 161.97 10.72
3/30/2021 4:45:00 PM 9.92 49.856 0.045 6.23 161.23 10.69
3/30/2021 5:00:00 PM 9.9 49.82 0.045 6.22 162.13 10.65
3/30/2021 5:15:00 PM 9.89 49.802 0.045 6.22 161.24 10.63
3/30/2021 5:30:00 PM 9.88 49.784 0.046 6.21 160.86 10.62
3/30/2021 5:45:00 PM 9.85 49.73 0.046 6.18 163.03 10.62
3/30/2021 6:00:00 PM 9.8 49.64 0.046 6.18 163.63 10.61
3/30/2021 6:15:00 PM 9.76 49.568 0.046 6.22 163.49 10.6
3/30/2021 6:30:00 PM 9.7 49.46 0.046 6.21 164.14 10.6
3/30/2021 6:45:00 PM 9.63 49.334 0.046 6.2 165.21 10.58
3/30/2021 7:00:00 PM 9.54 49.172 0.045 6.14 164.45 10.59
3/30/2021 7:15:00 PM 9.46 49.028 0.045 6.27 164.57 10.58
3/30/2021 7:30:00 PM 9.38 48.884 0.045 6.28 164.9 10.57
3/30/2021 7:45:00 PM 9.3 48.74 0.045 6.23 163.53 10.56
3/30/2021 8:00:00 PM 9.22 48.596 0.045 6.24 164.1 10.56
3/30/2021 8:15:00 PM 9.13 48.434 0.045 6.27 164.21 10.56
3/30/2021 8:30:00 PM 9.05 48.29 0.046 6.28 164.47 10.58
3/30/2021 8:45:00 PM 8.97 48.146 0.046 6.26 164.85 10.58
3/30/2021 9:00:00 PM 8.88 47.984 0.046 6.23 164.85 10.63
3/30/2021 9:15:00 PM 8.8 47.84 0.046 6.24 163.8 10.64
3/30/2021 9:30:00 PM 8.71 47.678 0.046 6.24 163.77 10.66
3/30/2021 9:45:00 PM 8.63 47.534 0.046 6.25 164.23 10.68
3/30/2021 10:00:00 PM 8.55 47.39 0.046 6.27 163.99 10.69
3/30/2021 10:15:00 PM 8.48 47.264 0.046 6.29 161.99 10.71
3/30/2021 10:30:00 PM 8.4 47.12 0.046 6.29 160.4 10.74
3/30/2021 10:45:00 PM 8.33 46.994 0.046 6.32 160.78 10.75
3/30/2021 11:00:00 PM 8.26 46.868 0.046 6.36 160.84 10.79
3/30/2021 11:15:00 PM 8.19 46.742 0.046 6.38 161.33 10.81
3/30/2021 11:30:00 PM 8.12 46.616 0.046 6.37 160.49 10.82
3/30/2021 11:45:00 PM 8.05 46.49 0.045 6.33 160.7 10.85
3/31/2021 12:00:00 AM 7.98 46.364 0.045 6.27 160.92 10.86
3/31/2021 12:15:00 AM 7.91 46.238 0.045 6.25 160.66 10.88
3/31/2021 12:30:00 AM 7.84 46.112 0.045 6.26 160.58 10.91
3/31/2021 12:45:00 AM 7.78 46.004 0.045 6.3 159.86 10.93
3/31/2021 1:00:00 AM 7.71 45.878 0.045 6.31 160.46 10.95
3/31/2021 1:15:00 AM 7.64 45.752 0.045 6.31 160.75 10.96
3/31/2021 1:30:00 AM 7.58 45.644 0.045 6.28 160.69 10.99
3/31/2021 1:45:00 AM 7.53 45.554 0.045 6.29 161.14 11
3/31/2021 2:00:00 AM 7.48 45.464 0.045 6.29 161.26 11
3/31/2021 2:15:00 AM 7.43 45.374 0.045 6.27 161.34 11.02
3/31/2021 2:30:00 AM 7.39 45.302 0.045 6.27 161.62 11.03
3/31/2021 2:45:00 AM 7.34 45.212 0.045 6.29 160.89 11.03
3/31/2021 3:00:00 AM 7.3 45.14 0.045 6.28 160.95 11.04
3/31/2021 3:15:00 AM 7.25 45.05 0.045 6.2 161.81 11.05
3/31/2021 3:30:00 AM 7.21 44.978 0.045 6.28 162.1 11.06
3/31/2021 3:45:00 AM 7.17 44.906 0.045 6.31 161.92 11.07
3/31/2021 4:00:00 AM 7.14 44.852 0.045 6.29 160.61 11.09
3/31/2021 4:15:00 AM 7.11 44.798 0.045 6.36 161.14 11.11
3/31/2021 4:30:00 AM 7.08 44.744 0.045 6.36 160.88 11.11
3/31/2021 4:45:00 AM 7.06 44.708 0.045 6.38 160.71 11.11
3/31/2021 5:00:00 AM 7.03 44.654 0.045 6.36 159.06 11.11
3/31/2021 5:15:00 AM 7.01 44.618 0.045 6.39 158.9 11.13
3/31/2021 5:30:00 AM 6.99 44.582 0.045 6.42 158.91 11.13
3/31/2021 5:45:00 AM 6.98 44.564 0.045 6.44 158.77 11.13
3/31/2021 6:00:00 AM 6.96 44.528 0.045 6.42 158.2 11.14
3/31/2021 6:15:00 AM 6.94 44.492 0.045 6.42 158.49 11.14
3/31/2021 6:30:00 AM 6.92 44.456 0.045 6.43 157.9 11.14
3/31/2021 6:45:00 AM 6.91 44.438 0.045 6.42 158.47 11.15
3/31/2021 7:00:00 AM 6.9 44.42 0.045 6.41 159.35 11.15
3/31/2021 7:15:00 AM 6.89 44.402 0.045 6.39 158.3 11.16
3/31/2021 7:30:00 AM 6.88 44.384 0.045 6.38 158.28 11.18
3/31/2021 7:45:00 AM 6.88 44.384 0.045 6.39 158.2 11.2
3/31/2021 8:00:00 AM 6.89 44.402 0.045 6.39 157.86 11.21
3/31/2021 8:15:00 AM 6.89 44.402 0.045 6.39 157.93 11.21
3/31/2021 8:30:00 AM 6.9 44.42 0.045 6.38 157.22 11.2
3/31/2021 8:45:00 AM 6.91 44.438 0.045 6.39 157.5 11.23
3/31/2021 9:00:00 AM 6.92 44.456 0.045 6.4 157.61 11.24
3/31/2021 9:15:00 AM 6.93 44.474 0.045 6.41 159.58 11.25
3/31/2021 9:30:00 AM 6.94 44.492 0.045 6.37 160.68 11.25
3/31/2021 9:45:00 AM 6.95 44.51 0.045 6.41 161.53 11.25
3/31/2021 10:00:00 AM 6.96 44.528 0.045 6.4 159.75 11.27
3/31/2021 10:15:00 AM 6.98 44.564 0.045 6.46 160.36 11.28
3/31/2021 10:30:00 AM 7.02 44.636 0.044 6.41 159.71 11.3
3/31/2021 10:45:00 AM 7.05 44.69 0.044 6.34 159.48 11.32
3/31/2021 11:00:00 AM 7.09 44.762 0.044 6.43 159.71 11.32
3/31/2021 11:15:00 AM 7.11 44.798 0.044 6.43 159.53 11.3
3/31/2021 11:30:00 AM 7.13 44.834 0.044 6.47 161.38 11.28
3/31/2021 11:45:00 AM 7.15 44.87 0.044 6.51 159.94 11.26
3/31/2021 12:00:00 PM 7.17 44.906 0.044 6.55 161.72 11.26
3/31/2021 12:15:00 PM 7.2 44.96 0.044 6.54 160.22 11.25
3/31/2021 12:30:00 PM 7.23 45.014 0.044 6.57 160.08 11.26
3/31/2021 12:45:00 PM 7.26 45.068 0.044 6.56 159.3 11.25
3/31/2021 1:00:00 PM 7.29 45.122 0.044 6.56 159.41 11.26
3/31/2021 1:15:00 PM 7.33 45.194 0.044 6.51 159.01 11.26
3/31/2021 1:30:00 PM 7.36 45.248 0.044 6.5 159.59 11.25
3/31/2021 1:45:00 PM 7.39 45.302 0.044 6.51 158.19 11.24
3/31/2021 2:00:00 PM 7.43 45.374 0.045 6.53 158.15 11.24
3/31/2021 2:15:00 PM 7.47 45.446 0.045 6.55 158.19 11.22
3/31/2021 2:30:00 PM 7.51 45.518 0.045 6.57 159.98 11.2
3/31/2021 2:45:00 PM 7.54 45.572 0.045 6.53 159.7 11.2
3/31/2021 3:00:00 PM 7.56 45.608 0.045 6.55 159.44 11.17
3/31/2021 3:15:00 PM 7.59 45.662 0.045 6.58 159.41 11.15
3/31/2021 3:30:00 PM 7.61 45.698 0.045 6.57 161.21 11.13
3/31/2021 3:45:00 PM 7.63 45.734 0.045 6.59 160.85 11.13
3/31/2021 4:00:00 PM 7.65 45.77 0.045 6.59 160.93 11.12
3/31/2021 4:15:00 PM 7.67 45.806 0.045 6.54 159.91 11.1
3/31/2021 4:30:00 PM 7.69 45.842 0.045 6.58 159.74 11.09
3/31/2021 4:45:00 PM 7.71 45.878 0.045 6.59 159.17 11.08
3/31/2021 5:00:00 PM 7.73 45.914 0.045 6.57 159.2 11.06
3/31/2021 5:15:00 PM 7.73 45.914 0.045 6.57 159.31 11.05
3/31/2021 5:30:00 PM 7.75 45.95 0.045 6.57 158.56 11.08
3/31/2021 5:45:00 PM 7.77 45.986 0.045 6.59 158.89 11.1
3/31/2021 6:00:00 PM 7.77 45.986 0.045 6.61 159.21 11.1
3/31/2021 6:15:00 PM 7.76 45.968 0.045 6.6 157.92 11.08
3/31/2021 6:30:00 PM 7.76 45.968 0.045 6.58 159.05 11.08
3/31/2021 6:45:00 PM 7.74 45.932 0.045 6.57 159.47 11.07
3/31/2021 7:00:00 PM 7.73 45.914 0.045 6.56 157.57 11.05
3/31/2021 7:15:00 PM 7.7 45.86 0.045 6.54 159.61 11.04
3/31/2021 7:30:00 PM 7.68 45.824 0.045 6.55 159.62 11.04
3/31/2021 7:45:00 PM 7.64 45.752 0.045 6.49 158.94 11.03
3/31/2021 8:00:00 PM 7.6 45.68 0.045 6.45 158.17 11.01
3/31/2021 8:15:00 PM 7.56 45.608 0.045 6.44 158.1 11.01
3/31/2021 8:30:00 PM 7.51 45.518 0.045 6.44 157.66 11.01
3/31/2021 8:45:00 PM 7.45 45.41 0.045 6.41 157.69 11.02
3/31/2021 9:00:00 PM 7.39 45.302 0.045 6.38 157.02 11.03
3/31/2021 9:15:00 PM 7.33 45.194 0.045 6.38 157.46 11.04
3/31/2021 9:30:00 PM 7.26 45.068 0.045 6.37 158.31 11.05
3/31/2021 9:45:00 PM 7.2 44.96 0.045 6.36 158.08 11.08
3/31/2021 10:00:00 PM 7.15 44.87 0.045 6.36 158.35 11.1
3/31/2021 10:15:00 PM 7.11 44.798 0.045 6.37 158.67 11.11
3/31/2021 10:30:00 PM 7.06 44.708 0.045 6.4 159.5 11.12
3/31/2021 10:45:00 PM 7.02 44.636 0.045 6.39 160.88 11.14
3/31/2021 11:00:00 PM 6.98 44.564 0.045 6.38 160.37 11.15
3/31/2021 11:15:00 PM 6.94 44.492 0.045 6.38 160.5 11.16
3/31/2021 11:30:00 PM 6.9 44.42 0.045 6.41 160 11.17
3/31/2021 11:45:00 PM 6.86 44.348 0.045 6.42 160.6 11.19
4/1/2021 12:00:00 AM 6.83 44.294 0.045 6.33 160.78 11.2
4/1/2021 12:15:00 AM 6.8 44.24 0.045 6.38 162.39 11.21
4/1/2021 12:30:00 AM 6.76 44.168 0.045 6.36 161.3 11.22
4/1/2021 12:45:00 AM 6.72 44.096 0.045 6.36 161.04 11.23
4/1/2021 1:00:00 AM 6.67 44.006 0.045 6.39 160.24 11.25
4/1/2021 1:15:00 AM 6.63 43.934 0.045 6.43 162.11 11.24
4/1/2021 1:30:00 AM 6.59 43.862 0.045 6.43 162.08 11.26
4/1/2021 1:45:00 AM 6.54 43.772 0.045 6.43 161.14 11.27
4/1/2021 2:00:00 AM 6.49 43.682 0.045 6.4 160.96 11.3
4/1/2021 2:15:00 AM 6.45 43.61 0.045 6.4 160.56 11.31
4/1/2021 2:30:00 AM 6.41 43.538 0.045 6.42 160.4 11.32
4/1/2021 2:45:00 AM 6.37 43.466 0.045 6.42 159.75 11.33
4/1/2021 3:00:00 AM 6.33 43.394 0.046 6.45 160.04 11.34
4/1/2021 3:15:00 AM 6.29 43.322 0.045 6.42 160.43 11.35
4/1/2021 3:30:00 AM 6.26 43.268 0.045 6.42 160.62 11.36
4/1/2021 3:45:00 AM 6.22 43.196 0.045 6.43 159.97 11.37
4/1/2021 4:00:00 AM 6.19 43.142 0.045 6.41 161.04 11.38
4/1/2021 4:15:00 AM 6.15 43.07 0.045 6.4 160.83 11.39
4/1/2021 4:30:00 AM 6.12 43.016 0.045 6.41 160.14 11.4
4/1/2021 4:45:00 AM 6.08 42.944 0.045 6.44 159.21 11.42
4/1/2021 5:00:00 AM 6.04 42.872 0.045 6.43 159.79 11.42
4/1/2021 5:15:00 AM 5.99 42.782 0.045 6.43 159.87 11.43
4/1/2021 5:30:00 AM 5.95 42.71 0.045 6.41 159.38 11.45
4/1/2021 5:45:00 AM 5.9 42.62 0.045 6.39 159.88 11.47
4/1/2021 6:00:00 AM 5.85 42.53 0.045 6.37 159.2 11.48
4/1/2021 6:15:00 AM 5.81 42.458 0.045 6.36 158.9 11.49
4/1/2021 6:30:00 AM 5.77 42.386 0.045 6.4 159.26 11.5
4/1/2021 6:45:00 AM 5.73 42.314 0.045 6.44 159.18 11.52
4/1/2021 7:00:00 AM 5.69 42.242 0.045 6.44 159.56 11.53
4/1/2021 7:15:00 AM 5.66 42.188 0.045 6.45 159.58 11.56
4/1/2021 7:30:00 AM 5.63 42.134 0.045 6.47 158.89 11.57
4/1/2021 7:45:00 AM 5.6 42.08 0.045 6.47 159.13 11.6
4/1/2021 8:00:00 AM 5.59 42.062 0.045 6.46 158.74 11.63
4/1/2021 8:15:00 AM 5.56 42.008 0.045 6.47 158.29 11.67
4/1/2021 8:30:00 AM 5.54 41.972 0.045 6.5 157.76 11.71
4/1/2021 8:45:00 AM 5.5 41.9 0.045 6.5 158.04 11.74
4/1/2021 9:00:00 AM 5.47 41.846 0.045 6.49 158.42 11.77
4/1/2021 9:15:00 AM 5.47 41.846 0.045 6.47 158.34 11.8
4/1/2021 9:30:00 AM 5.54 41.972 0.045 6.5 158.7 11.82
4/1/2021 9:45:00 AM 5.61 42.098 0.045 6.52 157.87 11.84
4/1/2021 10:00:00 AM 5.61 42.098 0.045 6.52 157.73 11.83
4/1/2021 10:15:00 AM 5.66 42.188 0.045 6.53 157.14 11.85
4/1/2021 10:30:00 AM 5.71 42.278 0.045 6.55 157.58 11.82
4/1/2021 10:45:00 AM 5.76 42.368 0.045 6.57 157.28 11.82
4/1/2021 11:00:00 AM 5.78 42.404 0.045 6.55 157.22 11.82
4/1/2021 11:15:00 AM 5.79 42.422 0.045 6.54 157.88 11.82
4/1/2021 11:30:00 AM 5.77 42.386 0.045 6.55 157.46 11.83
4/1/2021 11:45:00 AM 5.83 42.494 0.045 6.56 157.59 11.83
4/1/2021 12:00:00 PM 5.84 42.512 0.045 6.56 158.17 11.83
4/1/2021 12:15:00 PM 5.88 42.584 0.045 6.58 157.69 11.83
4/1/2021 12:30:00 PM 5.98 42.764 0.045 6.59 158.59 11.81
4/1/2021 12:45:00 PM 6.09 42.962 0.045 6.61 158.43 11.79
4/1/2021 1:00:00 PM 6.07 42.926 0.045 6.59 158.34 11.76
4/1/2021 1:15:00 PM 6.11 42.998 0.045 6.6 158.33 11.76
4/1/2021 1:30:00 PM 6.2 43.16 0.045 6.61 158.51 11.74
4/1/2021 1:45:00 PM 6.27 43.286 0.045 6.61 158.29 11.71
4/1/2021 2:00:00 PM 6.23 43.214 0.044 6.59 158.73 11.69
4/1/2021 2:15:00 PM 6.19 43.142 0.045 6.59 157.89 11.69
4/1/2021 2:30:00 PM 6.14 43.052 0.045 6.58 157.73 11.72
4/1/2021 2:45:00 PM 6.14 43.052 0.045 6.56 157.3 11.72
4/1/2021 3:00:00 PM 6.15 43.07 0.045 6.57 157.11 11.7
4/1/2021 3:15:00 PM 6.12 43.016 0.045 6.57 157.44 11.69
4/1/2021 3:30:00 PM 6.13 43.034 0.045 6.58 157.96 11.71
4/1/2021 3:45:00 PM 6.14 43.052 0.045 6.58 157.2 11.71
4/1/2021 4:00:00 PM 6.19 43.142 0.045 6.59 157.24 11.72
4/1/2021 4:15:00 PM 6.17 43.106 0.045 6.56 157.27 11.71
4/1/2021 4:30:00 PM 6.16 43.088 0.045 6.55 157.32 11.71
4/1/2021 4:45:00 PM 6.13 43.034 0.045 6.54 157 11.71
4/1/2021 5:00:00 PM 6.07 42.926 0.044 6.55 156.67 11.71
4/1/2021 5:15:00 PM 6.03 42.854 0.044 6.55 157.96 11.71
4/1/2021 5:30:00 PM 6 42.8 0.044 6.56 156.9 11.7
4/1/2021 5:45:00 PM 5.97 42.746 0.044 6.56 157.54 11.71
4/1/2021 6:00:00 PM 5.92 42.656 0.044 6.56 157.47 11.71
4/1/2021 6:15:00 PM 5.86 42.548 0.044 6.56 158.01 11.7
4/1/2021 6:30:00 PM 5.79 42.422 0.044 6.55 157.96 11.72
4/1/2021 6:45:00 PM 5.74 42.332 0.044 6.53 157.43 11.7
4/1/2021 7:00:00 PM 5.69 42.242 0.044 6.52 157.3 11.71
4/1/2021 7:15:00 PM 5.63 42.134 0.045 6.51 157.55 11.71
4/1/2021 7:30:00 PM 5.56 42.008 0.045 6.49 156.72 11.68
4/1/2021 7:45:00 PM 5.49 41.882 0.045 6.48 156.5 11.71
4/1/2021 8:00:00 PM 5.4 41.72 0.045 6.47 156.67 11.71
4/1/2021 8:15:00 PM 5.32 41.576 0.046 6.46 156.1 11.7
4/1/2021 8:30:00 PM 5.28 41.504 0.046 6.46 155.92 11.72
4/1/2021 8:45:00 PM 5.22 41.396 0.046 6.47 156.77 11.73
4/1/2021 9:00:00 PM 5.16 41.288 0.046 6.43 157.48 11.75
4/1/2021 9:15:00 PM 5.06 41.108 0.046 6.42 158.03 11.76
4/1/2021 9:30:00 PM 4.96 40.928 0.046 6.41 157.25 11.79
4/1/2021 9:45:00 PM 4.9 40.82 0.046 6.42 156.06 11.81
4/1/2021 10:00:00 PM 4.84 40.712 0.046 6.44 155.78 11.84
4/1/2021 10:15:00 PM 4.8 40.64 0.045 6.46 154.9 11.86
4/1/2021 10:30:00 PM 4.75 40.55 0.045 6.47 154.8 11.89
4/1/2021 10:45:00 PM 4.69 40.442 0.046 6.48 155.81 11.91
4/1/2021 11:00:00 PM 4.61 40.298 0.046 6.49 155.11 11.93
4/1/2021 11:15:00 PM 4.55 40.19 0.045 6.48 153.65 11.95
4/1/2021 11:30:00 PM 4.48 40.064 0.045 6.5 154.37 11.98
4/1/2021 11:45:00 PM 4.43 39.974 0.045 6.5 154.65 12.01
4/2/2021 12:00:00 AM 4.38 39.884 0.045 6.52 155.48 12.02
4/2/2021 12:15:00 AM 4.32 39.776 0.045 6.5 155.24 12.05
4/2/2021 12:30:00 AM 4.26 39.668 0.045 6.51 155.09 12.07
4/2/2021 12:45:00 AM 4.21 39.578 0.045 6.51 154.03 12.07
4/2/2021 1:00:00 AM 4.17 39.506 0.045 6.52 154.02 12.09
4/2/2021 1:15:00 AM 4.12 39.416 0.045 6.51 155.7 12.1
4/2/2021 1:30:00 AM 4.08 39.344 0.045 6.5 157.23 12.12
4/2/2021 1:45:00 AM 4.02 39.236 0.045 6.48 156.22 12.14
4/2/2021 2:00:00 AM 3.98 39.164 0.045 6.48 154.83 12.16
4/2/2021 2:15:00 AM 3.94 39.092 0.045 6.5 154.62 12.18
4/2/2021 2:30:00 AM 3.91 39.038 0.045 6.5 154.81 12.2
4/2/2021 2:45:00 AM 3.87 38.966 0.045 6.49 154.18 12.21
4/2/2021 3:00:00 AM 3.82 38.876 0.045 6.49 155.17 12.23
4/2/2021 3:15:00 AM 3.77 38.786 0.045 6.49 155.39 12.24
4/2/2021 3:30:00 AM 3.73 38.714 0.045 6.48 154.69 12.24
4/2/2021 3:45:00 AM 3.68 38.624 0.045 6.49 154.6 12.26
4/2/2021 4:00:00 AM 3.63 38.534 0.045 6.5 154.14 12.28
4/2/2021 4:15:00 AM 3.58 38.444 0.045 6.5 154.53 12.29
4/2/2021 4:30:00 AM 3.53 38.354 0.045 6.49 154.34 12.31
4/2/2021 4:45:00 AM 3.48 38.264 0.045 6.49 154.54 12.32
4/2/2021 5:00:00 AM 3.43 38.174 0.045 6.49 153.9 12.35
4/2/2021 5:15:00 AM 3.39 38.102 0.045 6.5 153.44 12.36
4/2/2021 5:30:00 AM 3.34 38.012 0.045 6.51 152.9 12.38
4/2/2021 5:45:00 AM 3.3 37.94 0.045 6.51 153.28 12.4
4/2/2021 6:00:00 AM 3.26 37.868 0.045 6.5 152.55 12.42
4/2/2021 6:15:00 AM 3.22 37.796 0.045 6.5 152.06 12.44
4/2/2021 6:30:00 AM 3.17 37.706 0.045 6.5 152.08 12.45
4/2/2021 6:45:00 AM 3.13 37.634 0.045 6.5 151.86 12.47
4/2/2021 7:00:00 AM 3.09 37.562 0.045 6.49 151.89 12.49
4/2/2021 7:15:00 AM 3.06 37.508 0.045 6.49 151.95 12.53
4/2/2021 7:30:00 AM 3.02 37.436 0.045 6.49 152.02 12.56
4/2/2021 7:45:00 AM 2.99 37.382 0.045 6.48 152.11 12.59
4/2/2021 8:00:00 AM 2.97 37.346 0.045 6.5 151.97 12.63
4/2/2021 8:15:00 AM 2.95 37.31 0.045 6.49 151.44 12.66
4/2/2021 8:30:00 AM 2.93 37.274 0.045 6.5 151.58 12.68
4/2/2021 8:45:00 AM 2.95 37.31 0.045 6.5 151.57 12.71
4/2/2021 9:00:00 AM 2.96 37.328 0.045 6.49 151.92 12.73
4/2/2021 9:15:00 AM 2.98 37.364 0.045 6.5 151.62 12.74
4/2/2021 9:30:00 AM 3.01 37.418 0.045 6.51 151.41 12.74
4/2/2021 9:45:00 AM 3.08 37.544 0.045 6.53 151.6 12.74
4/2/2021 10:00:00 AM 3.14 37.652 0.045 6.53 151.17 12.74
4/2/2021 10:15:00 AM 3.21 37.778 0.045 6.51 150.7 12.73
4/2/2021 10:30:00 AM 3.33 37.994 0.045 6.54 150.4 12.71
4/2/2021 10:45:00 AM 3.45 38.21 0.045 6.56 150.69 12.68
4/2/2021 11:00:00 AM 3.6 38.48 0.045 6.58 151.07 12.64
4/2/2021 11:15:00 AM 3.76 38.768 0.045 6.58 151.01 12.61
4/2/2021 11:30:00 AM 3.91 39.038 0.045 6.58 151.13 12.58
4/2/2021 11:45:00 AM 4.06 39.308 0.045 6.6 151.93 12.53
4/2/2021 12:00:00 PM 4.24 39.632 0.045 6.59 151.85 12.47
4/2/2021 12:15:00 PM 4.44 39.992 0.045 6.63 151.3 12.42
4/2/2021 12:30:00 PM 4.67 40.406 0.045 6.62 151.39 12.36
4/2/2021 12:45:00 PM 4.84 40.712 0.045 6.62 152.35 12.29
4/2/2021 1:00:00 PM 5.08 41.144 0.045 6.64 151.58 12.24
4/2/2021 1:15:00 PM 5.26 41.468 0.045 6.66 152.06 12.17
4/2/2021 1:30:00 PM 5.47 41.846 0.046 6.64 152.9 12.1
4/2/2021 1:45:00 PM 5.66 42.188 0.046 6.65 152.95 12.06
4/2/2021 2:00:00 PM 5.83 42.494 0.046 6.63 153.07 12
4/2/2021 2:15:00 PM 5.9 42.62 0.046 6.64 153.18 11.94
4/2/2021 2:30:00 PM 6.02 42.836 0.046 6.64 153.38 11.9
4/2/2021 2:45:00 PM 6.22 43.196 0.046 6.66 153.75 11.83
4/2/2021 3:00:00 PM 6.41 43.538 0.046 6.66 153.4 11.77
4/2/2021 3:15:00 PM 6.54 43.772 0.046 6.66 153.86 11.71
4/2/2021 3:30:00 PM 6.66 43.988 0.046 6.67 152.97 11.67
4/2/2021 3:45:00 PM 6.75 44.15 0.046 6.66 153.33 11.63
4/2/2021 4:00:00 PM 6.82 44.276 0.046 6.65 153.05 11.6
4/2/2021 4:15:00 PM 6.86 44.348 0.046 6.65 152.04 11.58
4/2/2021 4:30:00 PM 6.85 44.33 0.046 6.65 152.35 11.58
4/2/2021 4:45:00 PM 6.83 44.294 0.046 6.64 152.51 11.57
4/2/2021 5:00:00 PM 6.75 44.15 0.046 6.62 148.86 11.57
4/2/2021 5:15:00 PM 6.68 44.024 0.046 6.62 149.64 11.57
4/2/2021 5:30:00 PM 6.59 43.862 0.046 6.6 150.65 11.58
4/2/2021 5:45:00 PM 6.51 43.718 0.046 6.57 151.58 11.59
4/2/2021 6:00:00 PM 6.41 43.538 0.046 6.55 151.16 11.6
4/2/2021 6:15:00 PM 6.3 43.34 0.046 6.54 149.75 11.62
4/2/2021 6:30:00 PM 6.19 43.142 0.046 6.54 148.64 11.63
4/2/2021 6:45:00 PM 6.09 42.962 0.046 6.54 147.7 11.63
4/2/2021 7:00:00 PM 5.97 42.746 0.046 6.53 147.04 11.65
4/2/2021 7:15:00 PM 5.86 42.548 0.045 6.44 147.06 11.67
4/2/2021 7:30:00 PM 5.75 42.35 0.046 6.35 146.77 11.69
4/2/2021 7:45:00 PM 5.65 42.17 0.045 6.35 148.56 11.69
4/2/2021 8:00:00 PM 5.57 42.026 0.045 6.35 148.46 11.71
4/2/2021 8:15:00 PM 5.5 41.9 0.045 6.33 149.25 11.71
4/2/2021 8:30:00 PM 5.4 41.72 0.045 6.32 148.01 11.73
4/2/2021 8:45:00 PM 5.31 41.558 0.045 6.38 147.7 11.76
4/2/2021 9:00:00 PM 5.22 41.396 0.045 6.42 147.33 11.79
4/2/2021 9:15:00 PM 5.14 41.252 0.045 6.44 147.33 11.82
4/2/2021 9:30:00 PM 5.05 41.09 0.045 6.46 146.93 11.85
4/2/2021 9:45:00 PM 4.97 40.946 0.045 6.47 146.62 11.87
4/2/2021 10:00:00 PM 4.88 40.784 0.045 6.47 145.03 11.9
4/2/2021 10:15:00 PM 4.8 40.64 0.045 6.46 146.19 11.93
4/2/2021 10:30:00 PM 4.72 40.496 0.045 6.42 145.51 11.95
4/2/2021 10:45:00 PM 4.64 40.352 0.045 6.44 146.03 11.97
4/2/2021 11:00:00 PM 4.56 40.208 0.045 6.46 150.56 12.01
4/2/2021 11:15:00 PM 4.49 40.082 0.045 6.43 149.5 12.03
4/2/2021 11:30:00 PM 4.41 39.938 0.045 6.43 149.11 12.06
4/2/2021 11:45:00 PM 4.34 39.812 0.045 6.45 149.84 12.08
4/3/2021 12:00:00 AM 4.27 39.686 0.045 6.46 148.5 12.11
4/3/2021 12:15:00 AM 4.21 39.578 0.045 6.45 148.43 12.12
4/3/2021 12:30:00 AM 4.15 39.47 0.045 6.44 149.22 12.14
4/3/2021 12:45:00 AM 4.08 39.344 0.045 6.46 147.38 12.16
4/3/2021 1:00:00 AM 4.02 39.236 0.045 6.46 148.35 12.19
4/3/2021 1:15:00 AM 3.97 39.146 0.045 6.46 149 12.21
4/3/2021 1:30:00 AM 3.91 39.038 0.045 6.46 149.66 12.24
4/3/2021 1:45:00 AM 3.85 38.93 0.045 6.45 149.5 12.25
4/3/2021 2:00:00 AM 3.8 38.84 0.045 6.43 150.6 12.27
4/3/2021 2:15:00 AM 3.74 38.732 0.045 6.4 150.6 12.29
4/3/2021 2:30:00 AM 3.69 38.642 0.045 6.43 150.4 12.31
4/3/2021 2:45:00 AM 3.64 38.552 0.045 6.44 150.66 12.33
4/3/2021 3:00:00 AM 3.58 38.444 0.045 6.45 150.68 12.35
4/3/2021 3:15:00 AM 3.53 38.354 0.045 6.47 151.59 12.37
4/3/2021 3:30:00 AM 3.49 38.282 0.045 6.42 151.41 12.39
4/3/2021 3:45:00 AM 3.44 38.192 0.044 6.4 150.71 12.4
4/3/2021 4:00:00 AM 3.39 38.102 0.045 6.4 150.63 12.42
4/3/2021 4:15:00 AM 3.34 38.012 0.044 6.4 150.93 12.44
4/3/2021 4:30:00 AM 3.3 37.94 0.044 6.39 150.62 12.47
4/3/2021 4:45:00 AM 3.25 37.85 0.044 6.39 150.69 12.48
4/3/2021 5:00:00 AM 3.21 37.778 0.044 6.38 151.05 12.5
4/3/2021 5:15:00 AM 3.17 37.706 0.044 6.39 151.71 12.52
4/3/2021 5:30:00 AM 3.13 37.634 0.044 6.38 152.47 12.53
4/3/2021 5:45:00 AM 3.08 37.544 0.044 6.38 151.98 12.55
4/3/2021 6:00:00 AM 3.05 37.49 0.044 6.4 151.72 12.56
4/3/2021 6:15:00 AM 3.01 37.418 0.044 6.39 152.14 12.58
4/3/2021 6:30:00 AM 2.97 37.346 0.044 6.4 153.32 12.59
4/3/2021 6:45:00 AM 2.94 37.292 0.044 6.4 152.25 12.6
4/3/2021 7:00:00 AM 2.9 37.22 0.044 6.4 152.29 12.63
4/3/2021 7:15:00 AM 2.87 37.166 0.044 6.38 152.45 12.65
4/3/2021 7:30:00 AM 2.85 37.13 0.044 6.4 152.71 12.68
4/3/2021 7:45:00 AM 2.83 37.094 0.044 6.4 152.94 12.72
4/3/2021 8:00:00 AM 2.81 37.058 0.044 6.43 152.8 12.75
4/3/2021 8:15:00 AM 2.79 37.022 0.044 6.42 152.86 12.79
4/3/2021 8:30:00 AM 2.79 37.022 0.045 6.43 153.62 12.81
4/3/2021 8:45:00 AM 2.81 37.058 0.044 6.42 153.91 12.82
4/3/2021 9:00:00 AM 2.85 37.13 0.044 6.47 154.33 12.84
4/3/2021 9:15:00 AM 2.91 37.238 0.044 6.48 154.21 12.84
4/3/2021 9:30:00 AM 2.98 37.364 0.044 6.49 154.74 12.84
4/3/2021 9:45:00 AM 3.07 37.526 0.044 6.5 154.21 12.84
4/3/2021 10:00:00 AM 3.18 37.724 0.044 6.5 154.87 12.82
4/3/2021 10:15:00 AM 3.3 37.94 0.043 6.51 155.9 12.8
4/3/2021 10:30:00 AM 3.45 38.21 0.044 6.53 156.37 12.76
4/3/2021 10:45:00 AM 3.62 38.516 0.044 6.54 156.14 12.72
4/3/2021 11:00:00 AM 3.8 38.84 0.044 6.55 156.99 12.67
4/3/2021 11:15:00 AM 4 39.2 0.044 6.56 156.36 12.61
4/3/2021 11:30:00 AM 4.22 39.596 0.044 6.56 156.16 12.55
4/3/2021 11:45:00 AM 4.43 39.974 0.044 6.58 155.46 12.5
4/3/2021 12:00:00 PM 4.61 40.298 0.045 6.58 155.76 12.44
4/3/2021 12:15:00 PM 4.77 40.586 0.045 6.55 154.45 12.38
4/3/2021 12:30:00 PM 4.86 40.748 0.045 6.56 154.93 12.35
4/3/2021 12:45:00 PM 5 41 0.045 6.58 153.72 12.31
4/3/2021 1:00:00 PM 5.18 41.324 0.045 6.58 154.73 12.25
4/3/2021 1:15:00 PM 5.44 41.792 0.045 6.6 155.85 12.18
4/3/2021 1:30:00 PM 5.7 42.26 0.045 6.61 155.57 12.11
4/3/2021 1:45:00 PM 5.82 42.476 0.045 6.58 154.51 12.04
4/3/2021 2:00:00 PM 6.05 42.89 0.045 6.47 154.68 11.97
4/3/2021 2:15:00 PM 6.22 43.196 0.045 6.51 155.11 11.92
4/3/2021 2:30:00 PM 6.45 43.61 0.045 6.6 156.49 11.85
4/3/2021 2:45:00 PM 6.7 44.06 0.045 6.66 155.66 11.76
4/3/2021 3:00:00 PM 6.93 44.474 0.044 6.61 155.61 11.69
4/3/2021 3:15:00 PM 7.1 44.78 0.045 6.62 156.02 11.64
4/3/2021 3:30:00 PM 7.18 44.924 0.045 6.59 154.98 11.58
4/3/2021 3:45:00 PM 7.21 44.978 0.045 6.58 155.21 11.54
4/3/2021 4:00:00 PM 7.24 45.032 0.045 6.56 156.73 11.53
4/3/2021 4:15:00 PM 7.3 45.14 0.045 6.56 157.13 11.5
4/3/2021 4:30:00 PM 7.32 45.176 0.045 6.56 156.74 11.49
4/3/2021 4:45:00 PM 7.32 45.176 0.045 6.56 157.1 11.48
4/3/2021 5:00:00 PM 7.3 45.14 0.046 6.55 155.59 11.46
4/3/2021 5:15:00 PM 7.24 45.032 0.045 6.53 155.31 11.46
4/3/2021 5:30:00 PM 7.23 45.014 0.045 6.53 153.87 11.44
4/3/2021 5:45:00 PM 7.21 44.978 0.045 6.54 155.41 11.43
4/3/2021 6:00:00 PM 7.2 44.96 0.045 6.53 155.84 11.41
4/3/2021 6:15:00 PM 7.15 44.87 0.045 6.51 153.9 11.38
4/3/2021 6:30:00 PM 7.1 44.78 0.045 6.49 153.9 11.36
4/3/2021 6:45:00 PM 7.07 44.726 0.045 6.48 153.74 11.34
4/3/2021 7:00:00 PM 7.03 44.654 0.045 6.48 154.22 11.31
4/3/2021 7:15:00 PM 7 44.6 0.046 6.46 151.68 11.29
4/3/2021 7:30:00 PM 6.96 44.528 0.046 6.44 150.96 11.28
4/3/2021 7:45:00 PM 6.91 44.438 0.046 6.45 151.25 11.28
4/3/2021 8:00:00 PM 6.86 44.348 0.046 6.41 152.05 11.27
4/3/2021 8:15:00 PM 6.81 44.258 0.046 6.41 152.87 11.28
4/3/2021 8:30:00 PM 6.77 44.186 0.046 6.43 151.01 11.27
4/3/2021 8:45:00 PM 6.72 44.096 0.046 6.44 151.8 11.29
4/3/2021 9:00:00 PM 6.68 44.024 0.046 6.43 152.62 11.25
4/3/2021 9:15:00 PM 6.64 43.952 0.046 6.43 153.65 11.31
4/3/2021 9:30:00 PM 6.59 43.862 0.046 6.44 154.81 11.32
4/3/2021 9:45:00 PM 6.54 43.772 0.046 6.43 155.03 11.34
4/3/2021 10:00:00 PM 6.49 43.682 0.046 6.44 154.38 11.36
4/3/2021 10:15:00 PM 6.44 43.592 0.046 6.43 154.68 11.38
4/3/2021 10:30:00 PM 6.39 43.502 0.046 6.42 154 11.39
4/3/2021 10:45:00 PM 6.34 43.412 0.046 6.43 154.65 11.41
4/3/2021 11:00:00 PM 6.29 43.322 0.046 6.42 154.1 11.42
4/3/2021 11:15:00 PM 6.25 43.25 0.046 6.43 154.57 11.44
4/3/2021 11:30:00 PM 6.2 43.16 0.046 6.48 154.7 11.44
4/3/2021 11:45:00 PM 6.15 43.07 0.046 6.49 153.97 11.45
4/4/2021 12:00:00 AM 6.11 42.998 0.046 6.48 152.58 11.47
4/4/2021 12:15:00 AM 6.07 42.926 0.046 6.49 152.09 11.48
4/4/2021 12:30:00 AM 6.02 42.836 0.046 6.48 152.73 11.49
4/4/2021 12:45:00 AM 5.98 42.764 0.046 6.46 153.35 11.5
4/4/2021 1:00:00 AM 5.94 42.692 0.046 6.47 153.8 11.51
4/4/2021 1:15:00 AM 5.91 42.638 0.046 6.46 153.45 11.52
4/4/2021 1:30:00 AM 5.87 42.566 0.046 6.47 153.76 11.53
4/4/2021 1:45:00 AM 5.83 42.494 0.046 6.46 153.4 11.55
4/4/2021 2:00:00 AM 5.8 42.44 0.046 6.46 154.69 11.56
4/4/2021 2:15:00 AM 5.76 42.368 0.046 6.45 153.72 11.57
4/4/2021 2:30:00 AM 5.72 42.296 0.046 6.47 154.34 11.58
4/4/2021 2:45:00 AM 5.68 42.224 0.045 6.47 150.97 11.59
4/4/2021 3:00:00 AM 5.63 42.134 0.045 6.43 152.83 11.6
4/4/2021 3:15:00 AM 5.57 42.026 0.045 6.43 152.93 11.6
4/4/2021 3:30:00 AM 5.51 41.918 0.045 6.41 153.41 11.63
4/4/2021 3:45:00 AM 5.44 41.792 0.045 6.41 151.51 11.64
4/4/2021 4:00:00 AM 5.38 41.684 0.045 6.42 150.12 11.66
4/4/2021 4:15:00 AM 5.32 41.576 0.045 6.41 150.33 11.68
4/4/2021 4:30:00 AM 5.26 41.468 0.045 6.39 150.94 11.7
4/4/2021 4:45:00 AM 5.2 41.36 0.045 6.4 149.57 11.72
4/4/2021 5:00:00 AM 5.16 41.288 0.045 6.39 147.07 11.72
4/4/2021 5:15:00 AM 5.12 41.216 0.045 6.39 147.6 11.75
4/4/2021 5:30:00 AM 5.1 41.18 0.045 6.39 147.12 11.75
4/4/2021 5:45:00 AM 5.07 41.126 0.045 6.4 147.57 11.76
4/4/2021 6:00:00 AM 5.04 41.072 0.045 6.4 148.2 11.77
4/4/2021 6:15:00 AM 5 41 0.045 6.41 148.35 11.79
4/4/2021 6:30:00 AM 4.95 40.91 0.045 6.39 149.07 11.79
4/4/2021 6:45:00 AM 4.9 40.82 0.045 6.42 147.99 11.81
4/4/2021 7:00:00 AM 4.85 40.73 0.045 6.41 149.01 11.84
4/4/2021 7:15:00 AM 4.8 40.64 0.045 6.45 149.47 11.87
4/4/2021 7:30:00 AM 4.76 40.568 0.045 6.48 149.39 11.9
4/4/2021 7:45:00 AM 4.72 40.496 0.045 6.49 150.52 11.94
4/4/2021 8:00:00 AM 4.69 40.442 0.045 6.51 150.37 11.98
4/4/2021 8:15:00 AM 4.66 40.388 0.045 6.53 149.6 12.01
4/4/2021 8:30:00 AM 4.65 40.37 0.045 6.54 149.32 12.05
4/4/2021 8:45:00 AM 4.65 40.37 0.045 6.4 149.55 12.07
4/4/2021 9:00:00 AM 4.67 40.406 0.045 6.46 149.46 12.09
4/4/2021 9:15:00 AM 4.71 40.478 0.045 6.48 149.11 12.1
4/4/2021 9:30:00 AM 4.77 40.586 0.045 6.48 149.46 12.11
4/4/2021 9:45:00 AM 4.85 40.73 0.045 6.49 148.66 12.1
4/4/2021 10:00:00 AM 4.96 40.928 0.045 6.51 147.97 12.09
4/4/2021 10:15:00 AM 5.09 41.162 0.045 6.52 148.65 12.07
4/4/2021 10:30:00 AM 5.23 41.414 0.045 6.53 149.74 12.05
4/4/2021 10:45:00 AM 5.4 41.72 0.045 6.54 150.16 12.01
4/4/2021 11:00:00 AM 5.6 42.08 0.045 6.58 149.75 11.96
4/4/2021 11:15:00 AM 5.81 42.458 0.045 6.59 149.34 11.91
4/4/2021 11:30:00 AM 6.03 42.854 0.045 6.6 148.68 11.85
4/4/2021 11:45:00 AM 6.25 43.25 0.045 6.59 146.97 11.8
4/4/2021 12:00:00 PM 6.5 43.7 0.045 6.58 146.31 11.74
4/4/2021 12:15:00 PM 6.74 44.132 0.045 6.6 146.12 11.66
4/4/2021 12:30:00 PM 7 44.6 0.046 6.61 146.23 11.59
4/4/2021 12:45:00 PM 7.27 45.086 0.046 6.63 146.49 11.52
4/4/2021 1:00:00 PM 7.53 45.554 0.046 6.63 147.27 11.45
4/4/2021 1:15:00 PM 7.8 46.04 0.046 6.65 145.09 11.38
4/4/2021 1:30:00 PM 8.05 46.49 0.046 6.52 145.54 11.3
4/4/2021 1:45:00 PM 8.29 46.922 0.046 6.66 145.94 11.23
4/4/2021 2:00:00 PM 8.52 47.336 0.046 6.64 146 11.16
4/4/2021 2:15:00 PM 8.74 47.732 0.046 6.65 146.13 11.09
4/4/2021 2:30:00 PM 8.94 48.092 0.046 6.65 145.58 11.01
4/4/2021 2:45:00 PM 9.14 48.452 0.046 6.66 144.1 10.95
4/4/2021 3:00:00 PM 9.33 48.794 0.046 6.67 145.08 10.89
4/4/2021 3:15:00 PM 9.49 49.082 0.046 6.67 144.44 10.83
4/4/2021 3:30:00 PM 9.63 49.334 0.047 6.67 145.7 10.78
4/4/2021 3:45:00 PM 9.76 49.568 0.046 6.66 147.64 10.77
4/4/2021 4:00:00 PM 9.85 49.73 0.046 6.66 145.96 10.73
4/4/2021 4:15:00 PM 9.9 49.82 0.046 6.66 146.77 10.72
4/4/2021 4:30:00 PM 9.91 49.838 0.046 6.65 147.45 10.71
4/4/2021 4:45:00 PM 9.92 49.856 0.046 6.61 147.2 10.69
4/4/2021 5:00:00 PM 9.87 49.766 0.046 6.61 146.04 10.68
4/4/2021 5:15:00 PM 9.81 49.658 0.046 6.59 146 10.66
4/4/2021 5:30:00 PM 9.75 49.55 0.046 6.57 148.78 10.65
4/4/2021 5:45:00 PM 9.68 49.424 0.046 6.59 147.56 10.65
4/4/2021 6:00:00 PM 9.6 49.28 0.046 6.57 149.04 10.64
4/4/2021 6:15:00 PM 9.52 49.136 0.046 6.55 151.28 10.64
4/4/2021 6:30:00 PM 9.45 49.01 0.046 6.53 149.86 10.65
4/4/2021 6:45:00 PM 9.36 48.848 0.046 6.52 149.79 10.64
4/4/2021 7:00:00 PM 9.26 48.668 0.046 6.5 150.59 10.63
4/4/2021 7:15:00 PM 9.15 48.47 0.046 6.53 148.7 10.64
4/4/2021 7:30:00 PM 9.03 48.254 0.046 6.54 147.57 10.65
4/4/2021 7:45:00 PM 8.92 48.056 0.046 6.51 148.27 10.65
4/4/2021 8:00:00 PM 8.82 47.876 0.046 6.54 145.74 10.65
4/4/2021 8:15:00 PM 8.72 47.696 0.046 6.55 147.79 10.66
4/4/2021 8:30:00 PM 8.62 47.516 0.046 6.53 147.17 10.66
4/4/2021 8:45:00 PM 8.52 47.336 0.046 6.53 146.2 10.69
4/4/2021 9:00:00 PM 8.42 47.156 0.046 6.51 146.35 10.73
4/4/2021 9:15:00 PM 8.31 46.958 0.045 6.5 147.23 10.75
4/4/2021 9:30:00 PM 8.2 46.76 0.046 6.5 148.92 10.78
4/4/2021 9:45:00 PM 8.09 46.562 0.046 6.5 148.22 10.8
4/4/2021 10:00:00 PM 7.97 46.346 0.046 6.51 149.68 10.84
4/4/2021 10:15:00 PM 7.86 46.148 0.046 6.52 150.23 10.86
4/4/2021 10:30:00 PM 7.75 45.95 0.046 6.52 150.64 10.9
4/4/2021 10:45:00 PM 7.63 45.734 0.046 6.51 150.9 10.93
4/4/2021 11:00:00 PM 7.52 45.536 0.046 6.5 152.49 10.95
4/4/2021 11:15:00 PM 7.4 45.32 0.046 6.51 150.95 10.99
4/4/2021 11:30:00 PM 7.29 45.122 0.046 6.51 151.1 11.03
4/4/2021 11:45:00 PM 7.17 44.906 0.046 6.48 151.22 11.06
4/5/2021 12:00:00 AM 7.06 44.708 0.046 6.48 151.21 11.1
4/5/2021 12:15:00 AM 6.95 44.51 0.046 6.47 152.63 11.13
4/5/2021 12:30:00 AM 6.85 44.33 0.046 6.45 152.52 11.16
4/5/2021 12:45:00 AM 6.74 44.132 0.045 6.47 152.67 11.16
4/5/2021 1:00:00 AM 6.64 43.952 0.045 6.45 153.1 11.16
4/5/2021 1:15:00 AM 6.55 43.79 0.045 6.47 152.95 11.22
4/5/2021 1:30:00 AM 6.45 43.61 0.045 6.47 152.8 11.26
4/5/2021 1:45:00 AM 6.36 43.448 0.045 6.47 152.63 11.28
4/5/2021 2:00:00 AM 6.27 43.286 0.045 6.47 151.92 11.32
4/5/2021 2:15:00 AM 6.18 43.124 0.045 6.45 151.64 11.35
4/5/2021 2:30:00 AM 6.1 42.98 0.045 6.44 150.39 11.38
4/5/2021 2:45:00 AM 6.01 42.818 0.045 6.44 150.38 11.4
4/5/2021 3:00:00 AM 5.93 42.674 0.045 6.45 151.63 11.44
4/5/2021 3:15:00 AM 5.84 42.512 0.045 6.44 151.13 11.46
4/5/2021 3:30:00 AM 5.76 42.368 0.046 6.42 151.94 11.49
4/5/2021 3:45:00 AM 5.68 42.224 0.046 6.43 150.82 11.52
4/5/2021 4:00:00 AM 5.6 42.08 0.045 6.43 151.36 11.55
4/5/2021 4:15:00 AM 5.52 41.936 0.045 6.43 150.99 11.58
4/5/2021 4:30:00 AM 5.44 41.792 0.045 6.43 151.21 11.58
4/5/2021 4:45:00 AM 5.37 41.666 0.045 6.39 152.97 11.62
4/5/2021 5:00:00 AM 5.29 41.522 0.045 6.38 152.54 11.64
4/5/2021 5:15:00 AM 5.22 41.396 0.045 6.4 152.07 11.65
4/5/2021 5:30:00 AM 5.15 41.27 0.045 6.36 152.3 11.69
4/5/2021 5:45:00 AM 5.09 41.162 0.045 6.39 152.5 11.72
4/5/2021 6:00:00 AM 5.03 41.054 0.045 6.39 153 11.74
4/5/2021 6:15:00 AM 4.97 40.946 0.045 6.4 155.1 11.76
4/5/2021 6:30:00 AM 4.92 40.856 0.045 6.41 155.01 11.76
4/5/2021 6:45:00 AM 4.88 40.784 0.045 6.4 155.92 11.77
4/5/2021 7:00:00 AM 4.83 40.694 0.045 6.41 156.48 11.8
4/5/2021 7:15:00 AM 4.8 40.64 0.045 6.42 155.99 11.82
4/5/2021 7:30:00 AM 4.77 40.586 0.045 6.42 155.48 11.87
4/5/2021 7:45:00 AM 4.74 40.532 0.045 6.44 155.54 11.9
4/5/2021 8:00:00 AM 4.72 40.496 0.046 6.46 155.24 11.94
4/5/2021 8:15:00 AM 4.69 40.442 0.045 6.46 153.4 11.98
4/5/2021 8:30:00 AM 4.68 40.424 0.045 6.46 152.98 12.01
4/5/2021 8:45:00 AM 4.68 40.424 0.045 6.48 152.78 12.04
4/5/2021 9:00:00 AM 4.71 40.478 0.045 6.49 153.4 12.07
4/5/2021 9:15:00 AM 4.75 40.55 0.045 6.49 153.36 12.07
4/5/2021 9:30:00 AM 4.82 40.676 0.045 6.52 153.35 12.07
4/5/2021 9:45:00 AM 4.9 40.82 0.045 6.52 153.53 12.06
4/5/2021 10:00:00 AM 5 41 0.045 6.57 153.34 12.04
4/5/2021 10:15:00 AM 5.13 41.234 0.045 6.58 152.71 12.02
4/5/2021 10:30:00 AM 5.28 41.504 0.045 6.61 152.36 11.98
4/5/2021 10:45:00 AM 5.45 41.81 0.045 6.62 151.6 11.95
4/5/2021 11:00:00 AM 5.65 42.17 0.045 6.63 153.11 11.9
4/5/2021 11:15:00 AM 5.87 42.566 0.045 6.64 151.66 11.85
4/5/2021 11:30:00 AM 6.11 42.998 0.045 6.65 153.53 11.8
4/5/2021 11:45:00 AM 6.33 43.394 0.045 6.64 153.07 11.76
4/5/2021 12:00:00 PM 6.56 43.808 0.045 6.64 154.55 11.66
4/5/2021 12:15:00 PM 6.81 44.258 0.045 6.66 154.19 11.6
4/5/2021 12:30:00 PM 7.05 44.69 0.045 6.67 158.73 11.51
4/5/2021 12:45:00 PM 7.33 45.194 0.045 6.69 158.32 11.42
4/5/2021 1:00:00 PM 7.61 45.698 0.045 6.71 158.56 11.35
4/5/2021 1:15:00 PM 7.89 46.202 0.046 6.71 157.07 11.28
4/5/2021 1:30:00 PM 8.15 46.67 0.046 6.72 157.53 11.15
4/5/2021 1:45:00 PM 8.4 47.12 0.046 6.71 157.65 11.09
4/5/2021 2:00:00 PM 8.63 47.534 0.046 6.73 155.33 11.01
4/5/2021 2:15:00 PM 8.85 47.93 0.046 6.73 155.05 10.97
4/5/2021 2:30:00 PM 9.04 48.272 0.046 6.74 152.49 10.96
4/5/2021 2:45:00 PM 9.23 48.614 0.046 6.69 156.22 10.86
4/5/2021 3:00:00 PM 9.39 48.902 0.046 6.69 156.27 10.81
4/5/2021 3:15:00 PM 9.53 49.154 0.046 6.7 158.22 10.73
4/5/2021 3:30:00 PM 9.66 49.388 0.046 6.74 151.61 10.7
4/5/2021 3:45:00 PM 9.74 49.532 0.046 6.7 153.25 10.64
4/5/2021 4:00:00 PM 9.82 49.676 0.046 6.71 154.83 10.6
4/5/2021 4:15:00 PM 9.82 49.676 0.046 6.7 154.1 10.6
4/5/2021 4:30:00 PM 9.8 49.64 0.047 6.71 151.1 10.63
4/5/2021 4:45:00 PM 9.79 49.622 0.047 6.73 152.64 10.63
4/5/2021 5:00:00 PM 9.77 49.586 0.046 6.69 153.77 10.61
4/5/2021 5:15:00 PM 9.72 49.496 0.047 6.68 154.07 10.6
4/5/2021 5:30:00 PM 9.66 49.388 0.047 6.66 153.07 10.62
4/5/2021 5:45:00 PM 9.6 49.28 0.047 6.62 153 10.61
4/5/2021 6:00:00 PM 9.53 49.154 0.047 6.63 153.47 10.51
4/5/2021 6:15:00 PM 9.47 49.046 0.047 6.61 153.47 10.55
4/5/2021 6:30:00 PM 9.42 48.956 0.047 6.62 152.31 10.54
4/5/2021 6:45:00 PM 9.38 48.884 0.047 6.58 151.85 10.53
4/5/2021 7:00:00 PM 9.34 48.812 0.047 6.56 154.15 10.51
4/5/2021 7:15:00 PM 9.3 48.74 0.047 6.53 155.28 10.49
4/5/2021 7:30:00 PM 9.25 48.65 0.047 6.53 152.97 10.47
4/5/2021 7:45:00 PM 9.2 48.56 0.047 6.51 151.17 10.44
4/5/2021 8:00:00 PM 9.15 48.47 0.047 6.52 150.96 10.38
4/5/2021 8:15:00 PM 9.1 48.38 0.047 6.49 152.31 10.4
4/5/2021 8:30:00 PM 9.05 48.29 0.047 6.46 152.22 10.41
4/5/2021 8:45:00 PM 9 48.2 0.047 6.47 151.79 10.41
4/5/2021 9:00:00 PM 8.96 48.128 0.047 6.42 153.97 10.45
4/5/2021 9:15:00 PM 8.91 48.038 0.047 6.48 154.14 10.48
4/5/2021 9:30:00 PM 8.87 47.966 0.047 6.47 153.66 10.48
4/5/2021 9:45:00 PM 8.83 47.894 0.047 6.48 152.58 10.5
4/5/2021 10:00:00 PM 8.78 47.804 0.047 6.38 155.89 10.52
4/5/2021 10:15:00 PM 8.74 47.732 0.047 6.45 153.94 10.52
4/5/2021 10:30:00 PM 8.69 47.642 0.047 6.49 156.47 10.53
4/5/2021 10:45:00 PM 8.64 47.552 0.047 6.46 157 10.55
4/5/2021 11:00:00 PM 8.59 47.462 0.047 6.47 155.81 10.57
4/5/2021 11:15:00 PM 8.54 47.372 0.047 6.47 155.45 10.57
4/5/2021 11:30:00 PM 8.5 47.3 0.047 6.47 158.48 10.57
4/5/2021 11:45:00 PM 8.45 47.21 0.047 6.39 157.6 10.58
4/6/2021 12:00:00 AM 8.4 47.12 0.047 6.5 158.93 10.61
4/6/2021 12:15:00 AM 8.36 47.048 0.047 6.55 158.37 10.6
4/6/2021 12:30:00 AM 8.31 46.958 0.047 6.57 157.45 10.6
4/6/2021 12:45:00 AM 8.26 46.868 0.048 6.58 156.3 10.64
4/6/2021 1:00:00 AM 8.21 46.778 0.047 6.58 155.62 10.65
4/6/2021 1:15:00 AM 8.16 46.688 0.047 6.56 155.58 10.65
4/6/2021 1:30:00 AM 8.11 46.598 0.047 6.57 156.63 10.63
4/6/2021 1:45:00 AM 8.05 46.49 0.047 6.58 156.1 10.65
4/6/2021 2:00:00 AM 8.01 46.418 0.047 6.57 157.18 10.7
4/6/2021 2:15:00 AM 7.96 46.328 0.047 6.58 157.48 10.67
4/6/2021 2:30:00 AM 7.9 46.22 0.047 6.58 156.77 10.7
4/6/2021 2:45:00 AM 7.83 46.094 0.047 6.59 157.8 10.74
4/6/2021 3:00:00 AM 7.75 45.95 0.047 6.58 158.18 10.79
4/6/2021 3:15:00 AM 7.68 45.824 0.047 6.58 159.1 10.79
4/6/2021 3:30:00 AM 7.61 45.698 0.047 6.58 158.88 10.77
4/6/2021 3:45:00 AM 7.53 45.554 0.047 6.56 159.58 10.78
4/6/2021 4:00:00 AM 7.46 45.428 0.047 6.54 158.44 10.85
4/6/2021 4:15:00 AM 7.38 45.284 0.047 6.54 158.64 10.89
4/6/2021 4:30:00 AM 7.32 45.176 0.047 6.56 157.85 10.9
4/6/2021 4:45:00 AM 7.27 45.086 0.047 6.56 159.04 10.91
4/6/2021 5:00:00 AM 7.23 45.014 0.047 6.56 158.47 10.94
4/6/2021 5:15:00 AM 7.18 44.924 0.047 6.57 158.54 10.97
4/6/2021 5:30:00 AM 7.12 44.816 0.047 6.56 159.66 10.99
4/6/2021 5:45:00 AM 7.05 44.69 0.047 6.56 160.03 11.01
4/6/2021 6:00:00 AM 6.97 44.546 0.047 6.56 158.92 11.03
4/6/2021 6:15:00 AM 6.9 44.42 0.047 6.54 160.36 11.08
4/6/2021 6:30:00 AM 6.83 44.294 0.047 6.56 159.15 11.1
4/6/2021 6:45:00 AM 6.77 44.186 0.047 6.56 159.12 11.07
4/6/2021 7:00:00 AM 6.7 44.06 0.047 6.57 157.07 11.14
4/6/2021 7:15:00 AM 6.63 43.934 0.047 6.57 157.69 11.15
4/6/2021 7:30:00 AM 6.57 43.826 0.047 6.57 157.17 11.19
4/6/2021 7:45:00 AM 6.51 43.718 0.047 6.58 157.06 11.28
4/6/2021 8:00:00 AM 6.47 43.646 0.047 6.6 157.55 11.34
4/6/2021 8:15:00 AM 6.43 43.574 0.047 6.6 156.13 11.37
4/6/2021 8:30:00 AM 6.4 43.52 0.047 6.63 158.49 11.46
4/6/2021 8:45:00 AM 6.39 43.502 0.047 6.66 156.75 11.47
4/6/2021 9:00:00 AM 6.41 43.538 0.047 6.69 155.1 11.52
4/6/2021 9:15:00 AM 6.44 43.592 0.047 6.69 155.15 11.52
4/6/2021 9:30:00 AM 6.5 43.7 0.047 6.69 155.72 11.53
4/6/2021 9:45:00 AM 6.57 43.826 0.046 6.7 154.4 11.54
4/6/2021 10:00:00 AM 6.66 43.988 0.047 6.72 157.91 11.52
4/6/2021 10:15:00 AM 6.78 44.204 0.047 6.73 159.23 11.52
4/6/2021 10:30:00 AM 6.91 44.438 0.047 6.75 160.07 11.49
4/6/2021 10:45:00 AM 7.05 44.69 0.047 6.76 162.81 11.47
4/6/2021 11:00:00 AM 7.24 45.032 0.047 6.78 164.12 11.44
4/6/2021 11:15:00 AM 7.44 45.392 0.047 6.79 162.77 11.39
4/6/2021 11:30:00 AM 7.64 45.752 0.047 6.8 161.33 11.32
4/6/2021 11:45:00 AM 7.86 46.148 0.047 6.82 160.64 11.29
4/6/2021 12:00:00 PM 8.08 46.544 0.047 6.84 160.84 11.21
4/6/2021 12:15:00 PM 8.31 46.958 0.047 6.85 161.25 11.18
4/6/2021 12:30:00 PM 8.57 47.426 0.047 6.86 159.8 11.1
4/6/2021 12:45:00 PM 8.83 47.894 0.047 6.87 156.77 11.07
4/6/2021 1:00:00 PM 9.07 48.326 0.047 6.88 158.19 10.95
4/6/2021 1:15:00 PM 9.33 48.794 0.048 6.9 156.98 10.86
4/6/2021 1:30:00 PM 9.58 49.244 0.048 6.9 158.17 10.85
4/6/2021 1:45:00 PM 9.81 49.658 0.048 6.91 159.25 10.79
4/6/2021 2:00:00 PM 10.05 50.09 0.048 6.91 157.72 10.7
4/6/2021 2:15:00 PM 10.3 50.54 0.048 6.92 156.71 10.68
4/6/2021 2:30:00 PM 10.52 50.936 0.048 6.92 160.58 10.56
4/6/2021 2:45:00 PM 10.73 51.314 0.048 6.94 157.9 10.53
4/6/2021 3:00:00 PM 10.94 51.692 0.048 6.94 157.5 10.45
4/6/2021 3:15:00 PM 11.12 52.016 0.048 6.94 157.71 10.4
4/6/2021 3:30:00 PM 11.29 52.322 0.048 6.94 157.88 10.33
4/6/2021 3:45:00 PM 11.42 52.556 0.048 6.94 158.07 10.28
4/6/2021 4:00:00 PM 11.53 52.754 0.049 6.96 159.49 10.19
4/6/2021 4:15:00 PM 11.6 52.88 0.049 6.93 160.64 10.18
4/6/2021 4:30:00 PM 11.65 52.97 0.048 6.93 158.05 10.17
4/6/2021 4:45:00 PM 11.62 52.916 0.049 6.93 156.48 10.15
4/6/2021 5:00:00 PM 11.63 52.934 0.049 6.91 157.2 10.13
4/6/2021 5:15:00 PM 11.53 52.754 0.049 6.91 156.77 10.11
4/6/2021 5:30:00 PM 11.48 52.664 0.049 6.89 156.88 10.07
4/6/2021 5:45:00 PM 11.4 52.52 0.049 6.88 160.07 9.98
4/6/2021 6:00:00 PM 11.34 52.412 0.049 6.86 160.93 9.94
4/6/2021 6:15:00 PM 11.3 52.34 0.049 6.86 162.73 9.93
4/6/2021 6:30:00 PM 11.21 52.178 0.049 6.84 165.78 10.03
4/6/2021 6:45:00 PM 11.11 51.998 0.049 6.82 164.87 10.02
4/6/2021 7:00:00 PM 11.03 51.854 0.049 6.79 164.51 10.02
4/6/2021 7:15:00 PM 10.96 51.728 0.049 6.76 164.81 9.95
4/6/2021 7:30:00 PM 10.89 51.602 0.049 6.74 160.62 9.9
4/6/2021 7:45:00 PM 10.81 51.458 0.049 6.72 159.55 9.9
4/6/2021 8:00:00 PM 10.73 51.314 0.049 6.7 164.08 9.91
4/6/2021 8:15:00 PM 10.66 51.188 0.049 6.68 162.59 9.89
4/6/2021 8:30:00 PM 10.59 51.062 0.049 6.68 164.31 9.95
4/6/2021 8:45:00 PM 10.52 50.936 0.049 6.67 164.69 9.93
4/6/2021 9:00:00 PM 10.46 50.828 0.049 6.66 164.5 9.93
4/6/2021 9:15:00 PM 10.38 50.684 0.049 6.66 167.11 9.98
4/6/2021 9:30:00 PM 10.3 50.54 0.049 6.66 166.94 10.03
4/6/2021 9:45:00 PM 10.22 50.396 0.049 6.65 167.92 10
4/6/2021 10:00:00 PM 10.15 50.27 0.049 6.65 164.12 10.01
4/6/2021 10:15:00 PM 10.07 50.126 0.049 6.65 169.32 10.05
4/6/2021 10:30:00 PM 9.99 49.982 0.049 6.65 170.13 10.09
4/6/2021 10:45:00 PM 9.92 49.856 0.049 6.65 167.44 10.11
4/6/2021 11:00:00 PM 9.85 49.73 0.049 6.64 165.24 10.12
4/6/2021 11:15:00 PM 9.77 49.586 0.049 6.65 164.58 10.16
4/6/2021 11:30:00 PM 9.71 49.478 0.049 6.64 165.9 10.17
4/6/2021 11:45:00 PM 9.64 49.352 0.049 6.63 165.21 10.19
4/7/2021 12:00:00 AM 9.58 49.244 0.049 6.63 163.4 10.19
4/7/2021 12:15:00 AM 9.51 49.118 0.049 6.63 161.42 10.21
4/7/2021 12:30:00 AM 9.45 49.01 0.049 6.62 159.9 10.21
4/7/2021 12:45:00 AM 9.39 48.902 0.049 6.61 158.15 10.21
4/7/2021 1:00:00 AM 9.32 48.776 0.049 6.6 159.71 10.24
4/7/2021 1:15:00 AM 9.26 48.668 0.049 6.61 158.23 10.26
4/7/2021 1:30:00 AM 9.19 48.542 0.049 6.6 159.35 10.28
4/7/2021 1:45:00 AM 9.13 48.434 0.049 6.59 159.5 10.23
4/7/2021 2:00:00 AM 9.05 48.29 0.048 6.59 157.25 10.3
4/7/2021 2:15:00 AM 8.96 48.128 0.048 6.6 155.77 10.36
4/7/2021 2:30:00 AM 8.88 47.984 0.048 6.6 155.76 10.38
4/7/2021 2:45:00 AM 8.79 47.822 0.049 6.6 155.04 10.35
4/7/2021 3:00:00 AM 8.71 47.678 0.049 6.61 154.89 10.41
4/7/2021 3:15:00 AM 8.62 47.516 0.049 6.62 153.72 10.45
4/7/2021 3:30:00 AM 8.54 47.372 0.049 6.61 163.17 10.47
4/7/2021 3:45:00 AM 8.46 47.228 0.049 6.62 159.87 10.51
4/7/2021 4:00:00 AM 8.38 47.084 0.049 6.61 165.5 10.51
4/7/2021 4:15:00 AM 8.32 46.976 0.049 6.61 162.89 10.51
4/7/2021 4:30:00 AM 8.26 46.868 0.049 6.61 159.4 10.54
4/7/2021 4:45:00 AM 8.21 46.778 0.049 6.59 160.98 10.54
4/7/2021 5:00:00 AM 8.16 46.688 0.049 6.59 163.36 10.55
4/7/2021 5:15:00 AM 8.12 46.616 0.049 6.59 165.21 10.61
4/7/2021 5:30:00 AM 8.08 46.544 0.049 6.59 166.04 10.63
4/7/2021 5:45:00 AM 8.05 46.49 0.049 6.58 166.92 10.61
4/7/2021 6:00:00 AM 8.01 46.418 0.049 6.58 168.84 10.62
4/7/2021 6:15:00 AM 7.97 46.346 0.049 6.58 168.52 10.6
4/7/2021 6:30:00 AM 7.94 46.292 0.049 6.58 168.06 10.62
4/7/2021 6:45:00 AM 7.9 46.22 0.049 6.57 165.62 10.61
4/7/2021 7:00:00 AM 7.87 46.166 0.049 6.57 164.38 10.64
4/7/2021 7:15:00 AM 7.84 46.112 0.049 6.58 163.47 10.68
4/7/2021 7:30:00 AM 7.82 46.076 0.049 6.59 162.9 10.72
4/7/2021 7:45:00 AM 7.81 46.058 0.049 6.59 161.81 10.73
4/7/2021 8:00:00 AM 7.79 46.022 0.049 6.59 164.61 10.83
4/7/2021 8:15:00 AM 7.77 45.986 0.049 6.62 160.76 10.9
4/7/2021 8:30:00 AM 7.75 45.95 0.049 6.65 161.88 10.94
4/7/2021 8:45:00 AM 7.75 45.95 0.049 6.68 162.54 10.96
4/7/2021 9:00:00 AM 7.77 45.986 0.049 6.66 159.04 10.94
4/7/2021 9:15:00 AM 7.81 46.058 0.049 6.67 159.7 10.97
4/7/2021 9:30:00 AM 7.88 46.184 0.049 6.7 160.3 11.03
4/7/2021 9:45:00 AM 7.95 46.31 0.048 6.7 157.1 11.03
4/7/2021 10:00:00 AM 8.05 46.49 0.048 6.73 162.6 10.98
4/7/2021 10:15:00 AM 8.17 46.706 0.048 6.73 162.71 10.95
4/7/2021 10:30:00 AM 8.3 46.94 0.048 6.71 165.17 10.94
4/7/2021 10:45:00 AM 8.45 47.21 0.048 6.74 166.37 10.92
4/7/2021 11:00:00 AM 8.63 47.534 0.048 6.75 167.31 10.91
4/7/2021 11:15:00 AM 8.83 47.894 0.049 6.77 165.64 10.81
4/7/2021 11:30:00 AM 9.04 48.272 0.049 6.76 165.74 10.78
4/7/2021 11:45:00 AM 9.27 48.686 0.049 6.76 162.6 10.72
4/7/2021 12:00:00 PM 9.51 49.118 0.049 6.79 163.92 10.65
4/7/2021 12:15:00 PM 10.88 51.584 0 6.25 2.42 10.57
4/7/2021 12:30:00 PM 10.06 50.108 0.038 6.78 2.9 10.8
4/7/2021 12:45:00 PM 10.34 50.612 0.035 6.9 2.54 10.75
4/7/2021 1:00:00 PM 10.63 51.134 0.038 6.92 2.14 10.68
4/7/2021 1:15:00 PM 10.94 51.692 0.038 6.93 1.91 10.61
4/7/2021 1:30:00 PM 11.18 52.124 0.038 6.95 4.43 10.54
4/7/2021 1:45:00 PM 11.37 52.466 0.038 6.95 7 10.49
4/7/2021 2:00:00 PM 11.52 52.736 0.038 6.95 1.95 10.42
4/7/2021 2:15:00 PM 11.65 52.97 0.038 7 4.31 10.36
4/7/2021 2:30:00 PM 11.87 53.366 0.037 6.98 6.64 10.34
4/7/2021 2:45:00 PM 12.06 53.708 0.037 6.98 6.87 10.3
4/7/2021 3:00:00 PM 12.23 54.014 0.038 6.99 3.3 10.24
4/7/2021 3:15:00 PM 12.21 53.978 0.037 6.96 33.8 10.18
4/7/2021 3:30:00 PM 12.33 54.194 0.037 6.97 3.97 10.16
4/7/2021 3:45:00 PM 12.5 54.5 0.037 6.98 2.66 10.15
4/7/2021 4:00:00 PM 12.7 54.86 0.038 7.03 4.73 10.12
4/7/2021 4:15:00 PM 12.89 55.202 0.036 7.03 3.12 10.07
4/7/2021 4:30:00 PM 12.92 55.256 0.037 7.04 3.83 10.03
4/7/2021 4:45:00 PM 12.95 55.31 0.038 7.02 6.05 10
4/7/2021 5:00:00 PM 12.99 55.382 0.038 7.04 1.96 9.98
4/7/2021 5:15:00 PM 12.9 55.22 0.038 7.05 5.6 9.96
4/7/2021 5:30:00 PM 12.8 55.04 0.038 6.95 2.01 9.94
4/7/2021 5:45:00 PM 12.75 54.95 0.034 6.96 3.28 9.95
4/7/2021 6:00:00 PM 12.71 54.878 0.038 6.95 2.2 9.95
4/7/2021 6:15:00 PM 12.67 54.806 0.038 6.93 5.77 9.93
4/7/2021 6:30:00 PM 12.59 54.662 0.038 6.86 8.03 9.91
4/7/2021 6:45:00 PM 12.5 54.5 0.038 6.86 2.26 9.89
4/7/2021 7:00:00 PM 12.41 54.338 0.038 6.87 2.54 9.87
4/7/2021 7:15:00 PM 12.31 54.158 0.038 6.82 2.74 9.85
4/7/2021 7:30:00 PM 12.22 53.996 0.038 6.73 2.36 9.83
4/7/2021 7:45:00 PM 12.13 53.834 0.039 6.83 10.28 9.82
4/7/2021 8:00:00 PM 12.02 53.636 0.039 6.63 21.07 9.81
4/7/2021 8:15:00 PM 11.91 53.438 0.039 6.73 2.24 9.8
4/7/2021 8:30:00 PM 11.8 53.24 0.036 6.74 2.22 9.81
4/7/2021 8:45:00 PM 11.7 53.06 0.039 6.6 2.85 9.82
4/7/2021 9:00:00 PM 11.6 52.88 0.039 6.7 2.53 9.84
4/7/2021 9:15:00 PM 11.51 52.718 0.039 6.72 2.36 9.86
4/7/2021 9:30:00 PM 11.42 52.556 0.039 6.73 9.4 9.88
4/7/2021 9:45:00 PM 11.32 52.376 0.039 6.74 2.38 9.9
4/7/2021 10:00:00 PM 11.23 52.214 0.039 6.74 2.41 9.92
4/7/2021 10:15:00 PM 11.12 52.016 0.039 6.74 2.61 9.95
4/7/2021 10:30:00 PM 11.03 51.854 0.039 6.74 2.53 9.97
4/7/2021 10:45:00 PM 10.93 51.674 0.039 6.72 2.38 10
4/7/2021 11:00:00 PM 10.84 51.512 0.039 6.73 2.25 10.03
4/7/2021 11:15:00 PM 10.75 51.35 0.039 6.7 2.78 10.05
4/7/2021 11:30:00 PM 10.65 51.17 0.039 6.7 2.42 10.08
4/7/2021 11:45:00 PM 10.55 50.99 0.039 6.72 2.72 10.1
4/8/2021 12:00:00 AM 10.45 50.81 0.04 6.69 2.89 10.12
4/8/2021 12:15:00 AM 10.36 50.648 0.04 6.73 2.71 10.15
4/8/2021 12:30:00 AM 10.26 50.468 0.04 6.73 2.41 10.18
4/8/2021 12:45:00 AM 10.17 50.306 0.04 6.71 2.51 10.21
4/8/2021 1:00:00 AM 10.07 50.126 0.04 6.69 2.42 10.23
4/8/2021 1:15:00 AM 9.98 49.964 0.04 6.69 2.4 10.25
4/8/2021 1:30:00 AM 9.88 49.784 0.04 6.71 2.27 10.28
4/8/2021 1:45:00 AM 9.78 49.604 0.04 6.7 2.25 10.3
4/8/2021 2:00:00 AM 9.69 49.442 0.04 6.71 2.19 10.33
4/8/2021 2:15:00 AM 9.6 49.28 0.04 6.69 2.45 10.36
4/8/2021 2:30:00 AM 9.51 49.118 0.04 6.68 2.5 10.38
4/8/2021 2:45:00 AM 9.41 48.938 0.04 6.69 2.15 10.41
4/8/2021 3:00:00 AM 9.32 48.776 0.04 6.7 2.22 10.43
4/8/2021 3:15:00 AM 9.24 48.632 0.04 6.71 2.34 10.45
4/8/2021 3:30:00 AM 9.15 48.47 0.04 6.69 2.47 10.48
4/8/2021 3:45:00 AM 9.07 48.326 0.04 6.65 2.33 10.5
4/8/2021 4:00:00 AM 8.99 48.182 0.04 6.65 2.46 10.53
4/8/2021 4:15:00 AM 8.91 48.038 0.04 6.69 2.44 10.55
4/8/2021 4:30:00 AM 8.83 47.894 0.04 6.67 2.28 10.57
4/8/2021 4:45:00 AM 8.75 47.75 0.04 6.67 2.59 10.59
4/8/2021 5:00:00 AM 8.67 47.606 0.04 6.67 2.25 10.62
4/8/2021 5:15:00 AM 8.59 47.462 0.04 6.7 2.3 10.63
4/8/2021 5:30:00 AM 8.51 47.318 0.04 6.69 2.25 10.66
4/8/2021 5:45:00 AM 8.44 47.192 0.04 6.66 2.24 10.68
4/8/2021 6:00:00 AM 8.36 47.048 0.04 6.67 2.23 10.71
4/8/2021 6:15:00 AM 8.29 46.922 0.04 6.7 2.39 10.73
4/8/2021 6:30:00 AM 8.21 46.778 0.04 6.7 2.38 10.75
4/8/2021 6:45:00 AM 8.14 46.652 0.04 6.7 2.21 10.78
4/8/2021 7:00:00 AM 8.08 46.544 0.04 6.67 2.46 10.81
4/8/2021 7:15:00 AM 8.01 46.418 0.04 6.68 2.53 10.86
4/8/2021 7:30:00 AM 7.96 46.328 0.04 6.7 2.6 10.9
4/8/2021 7:45:00 AM 7.91 46.238 0.04 6.71 2.52 10.96
4/8/2021 8:00:00 AM 7.87 46.166 0.04 6.72 2.3 11.01
4/8/2021 8:15:00 AM 7.84 46.112 0.04 6.73 2.03 11.06
4/8/2021 8:30:00 AM 7.82 46.076 0.04 6.76 2.17 11.1
4/8/2021 8:45:00 AM 7.82 46.076 0.04 6.77 2.72 11.13
4/8/2021 9:00:00 AM 7.84 46.112 0.04 6.77 2.28 11.15
4/8/2021 9:15:00 AM 7.89 46.202 0.04 6.79 2.05 11.17
4/8/2021 9:30:00 AM 7.97 46.346 0.04 6.81 1.94 11.18
4/8/2021 9:45:00 AM 8.08 46.544 0.039 6.84 2.04 11.18
4/8/2021 10:00:00 AM 8.2 46.76 0.039 6.88 2.03 11.17
4/8/2021 10:15:00 AM 8.34 47.012 0.039 6.87 1.88 11.16
4/8/2021 10:30:00 AM 8.5 47.3 0.039 6.89 2.08 11.13
4/8/2021 10:45:00 AM 8.67 47.606 0.039 6.88 1.92 11.1
4/8/2021 11:00:00 AM 8.88 47.984 0.039 6.91 2.1 11.07
4/8/2021 11:15:00 AM 9.11 48.398 0.039 6.92 2.34 11.03
4/8/2021 11:30:00 AM 9.35 48.83 0.039 6.93 2.41 10.98
4/8/2021 11:45:00 AM 9.59 49.262 0.039 6.96 2.06 10.93
4/8/2021 12:00:00 PM 9.85 49.73 0.039 6.95 2.17 10.87
4/8/2021 12:15:00 PM 10.11 50.198 0.039 6.97 2.26 10.81
4/8/2021 12:30:00 PM 10.39 50.702 0.039 6.98 2.24 10.75
4/8/2021 12:45:00 PM 10.67 51.206 0.039 6.99 2.31 10.69
4/8/2021 1:00:00 PM 10.96 51.728 0.039 6.99 2.07 10.62
4/8/2021 1:15:00 PM 11.24 52.232 0.039 7 1.97 10.55
4/8/2021 1:30:00 PM 11.51 52.718 0.039 7.01 1.99 10.49
4/8/2021 1:45:00 PM 11.78 53.204 0.039 7.02 1.93 10.42
4/8/2021 2:00:00 PM 12.03 53.654 0.039 7.04 1.99 10.36
4/8/2021 2:15:00 PM 12.27 54.086 0.039 7.04 1.99 10.3
4/8/2021 2:30:00 PM 12.51 54.518 0.039 7.05 2 10.24
4/8/2021 2:45:00 PM 12.73 54.914 0.039 7.07 2.17 10.19
4/8/2021 3:00:00 PM 12.91 55.238 0.039 7.08 1.98 10.13
4/8/2021 3:15:00 PM 13.08 55.544 0.039 7.07 1.89 10.08
4/8/2021 3:30:00 PM 13.24 55.832 0.039 7.08 1.94 10.04
4/8/2021 3:45:00 PM 13.39 56.102 0.039 7.08 2.29 9.99
4/8/2021 4:00:00 PM 13.47 56.246 0.039 7.08 1.96 9.96
4/8/2021 4:15:00 PM 13.53 56.354 0.038 7.08 2.04 9.92
4/8/2021 4:30:00 PM 13.57 56.426 0.038 7.08 1.98 9.89
4/8/2021 4:45:00 PM 13.57 56.426 0.037 7.06 2.9 9.87
4/8/2021 5:00:00 PM 13.53 56.354 0.039 7.04 2.08 9.86
4/8/2021 5:15:00 PM 13.46 56.228 0.039 7.03 2.16 9.86
4/8/2021 5:30:00 PM 13.33 55.994 0.039 7.01 2.16 9.86
4/8/2021 5:45:00 PM 13.23 55.814 0.039 6.97 2.06 9.85
4/8/2021 6:00:00 PM 13.13 55.634 0.039 6.97 2.13 9.84
4/8/2021 6:15:00 PM 13.05 55.49 0.039 6.95 2.03 9.82
4/8/2021 6:30:00 PM 12.95 55.31 0.039 6.95 2.13 9.8
4/8/2021 6:45:00 PM 12.84 55.112 0.039 6.9 2.07 9.78
4/8/2021 7:00:00 PM 12.72 54.896 0.039 6.88 2.27 9.77
4/8/2021 7:15:00 PM 12.6 54.68 0.039 6.87 2.41 9.76
4/8/2021 7:30:00 PM 12.49 54.482 0.039 6.82 2.32 9.74
4/8/2021 7:45:00 PM 12.37 54.266 0.037 6.81 3.53 9.73
4/8/2021 8:00:00 PM 12.25 54.05 0.038 6.79 2.81 9.72
4/8/2021 8:15:00 PM 12.13 53.834 0.037 6.77 3.34 9.72
4/8/2021 8:30:00 PM 12.02 53.636 0.039 6.75 2.4 9.73
4/8/2021 8:45:00 PM 11.93 53.474 0.04 6.76 2.46 9.75
4/8/2021 9:00:00 PM 11.84 53.312 0.04 6.75 2.29 9.76
4/8/2021 9:15:00 PM 11.76 53.168 0.04 6.74 2.44 9.77
4/8/2021 9:30:00 PM 11.68 53.024 0.04 6.74 2.36 9.79
4/8/2021 9:45:00 PM 11.59 52.862 0.04 6.75 2.74 9.81
4/8/2021 10:00:00 PM 11.51 52.718 0.04 6.74 2.4 9.83
4/8/2021 10:15:00 PM 11.43 52.574 0.04 6.74 4.2 9.86
4/8/2021 10:30:00 PM 11.35 52.43 0.04 6.73 2.35 9.88
4/8/2021 10:45:00 PM 11.28 52.304 0.04 6.74 2.37 9.9
4/8/2021 11:00:00 PM 11.2 52.16 0.04 6.74 2.77 9.92
4/8/2021 11:15:00 PM 11.12 52.016 0.04 6.74 2.49 9.93
4/8/2021 11:30:00 PM 11.04 51.872 0.04 6.75 2.39 9.95
4/8/2021 11:45:00 PM 10.97 51.746 0.04 6.74 2.21 9.97
4/9/2021 12:00:00 AM 10.89 51.602 0.04 6.74 2.36 10
4/9/2021 12:15:00 AM 10.81 51.458 0.04 6.75 2.46 10.02
4/9/2021 12:30:00 AM 10.74 51.332 0.04 6.74 2.5 10.05
4/9/2021 12:45:00 AM 10.69 51.242 0.04 6.74 2.15 10.06
4/9/2021 1:00:00 AM 10.63 51.134 0.04 6.74 2.3 10.08
4/9/2021 1:15:00 AM 10.58 51.044 0.04 6.75 2.36 10.09
4/9/2021 1:30:00 AM 10.52 50.936 0.04 6.79 2.3 10.11
4/9/2021 1:45:00 AM 10.46 50.828 0.04 6.76 2.4 10.12
4/9/2021 2:00:00 AM 10.4 50.72 0.04 6.77 2.39 10.14
4/9/2021 2:15:00 AM 10.34 50.612 0.04 6.76 2.13 10.16
4/9/2021 2:30:00 AM 10.28 50.504 0.04 6.75 2.32 10.18
4/9/2021 2:45:00 AM 10.22 50.396 0.04 6.74 2.5 10.2
4/9/2021 3:00:00 AM 10.17 50.306 0.04 6.74 3 10.21
4/9/2021 3:15:00 AM 10.12 50.216 0.04 6.75 2.38 10.22
4/9/2021 3:30:00 AM 10.08 50.144 0.04 6.74 2.52 10.23
4/9/2021 3:45:00 AM 10.03 50.054 0.04 6.74 2.76 10.25
4/9/2021 4:00:00 AM 9.99 49.982 0.04 6.75 2.61 10.26
4/9/2021 4:15:00 AM 9.95 49.91 0.04 6.74 2.4 10.27
4/9/2021 4:30:00 AM 9.91 49.838 0.04 6.75 2.52 10.29
4/9/2021 4:45:00 AM 9.87 49.766 0.04 6.74 2.31 10.29
4/9/2021 5:00:00 AM 9.83 49.694 0.04 6.75 2.51 10.3
4/9/2021 5:15:00 AM 9.79 49.622 0.04 6.74 2.14 10.31
4/9/2021 5:30:00 AM 9.74 49.532 0.04 6.75 2.68 10.32
4/9/2021 5:45:00 AM 9.7 49.46 0.04 6.75 2.29 10.34
4/9/2021 6:00:00 AM 9.65 49.37 0.04 6.74 2 10.36
4/9/2021 6:15:00 AM 9.61 49.298 0.04 6.74 2.43 10.37
4/9/2021 6:30:00 AM 9.58 49.244 0.04 6.74 2.59 10.37
4/9/2021 6:45:00 AM 9.54 49.172 0.04 6.74 4.21 10.38
4/9/2021 7:00:00 AM 9.5 49.1 0.04 6.74 4.89 10.4
4/9/2021 7:15:00 AM 9.47 49.046 0.04 6.75 3.31 10.41
4/9/2021 7:30:00 AM 9.44 48.992 0.04 6.75 2.6 10.42
4/9/2021 7:45:00 AM 9.41 48.938 0.04 6.75 2.32 10.46
4/9/2021 8:00:00 AM 9.39 48.902 0.04 6.75 2.18 10.49
4/9/2021 8:15:00 AM 9.36 48.848 0.04 6.77 2.41 10.52
4/9/2021 8:30:00 AM 9.34 48.812 0.04 6.78 2.41 10.56
4/9/2021 8:45:00 AM 9.33 48.794 0.04 6.79 2.1 10.59
4/9/2021 9:00:00 AM 9.32 48.776 0.04 6.8 2.25 10.63
4/9/2021 9:15:00 AM 9.32 48.776 0.04 6.8 2.23 10.68
4/9/2021 9:30:00 AM 9.32 48.776 0.04 6.82 1.95 10.72
4/9/2021 9:45:00 AM 9.32 48.776 0.04 6.83 2.33 10.73
4/9/2021 10:00:00 AM 9.33 48.794 0.04 6.83 2.15 10.75
4/9/2021 10:15:00 AM 9.33 48.794 0.04 6.84 2.13 10.75
4/9/2021 10:30:00 AM 9.33 48.794 0.04 6.84 1.99 10.76
4/9/2021 10:45:00 AM 9.35 48.83 0.04 6.84 1.98 10.79
4/9/2021 11:00:00 AM 9.36 48.848 0.04 6.87 2.41 10.81
4/9/2021 11:15:00 AM 9.39 48.902 0.04 6.87 2.09 10.83
4/9/2021 11:30:00 AM 9.42 48.956 0.04 6.89 1.97 10.84
4/9/2021 11:45:00 AM 9.45 49.01 0.04 6.89 2.11 10.84
4/9/2021 12:00:00 PM 9.48 49.064 0.04 6.89 2.14 10.81
4/9/2021 12:15:00 PM 9.51 49.118 0.04 6.9 2.06 10.79
4/9/2021 12:30:00 PM 9.54 49.172 0.04 6.89 2.48 10.79
4/9/2021 12:45:00 PM 9.56 49.208 0.039 6.91 1.93 10.81
4/9/2021 1:00:00 PM 9.6 49.28 0.039 6.92 1.88 10.82
4/9/2021 1:15:00 PM 9.65 49.37 0.039 6.91 1.89 10.82
4/9/2021 1:30:00 PM 9.69 49.442 0.039 6.93 1.81 10.8
4/9/2021 1:45:00 PM 9.72 49.496 0.039 6.91 1.9 10.78
4/9/2021 2:00:00 PM 9.75 49.55 0.039 6.92 1.99 10.76
4/9/2021 2:15:00 PM 9.78 49.604 0.039 6.92 1.79 10.77
4/9/2021 2:30:00 PM 9.79 49.622 0.039 6.92 2.01 10.75
4/9/2021 2:45:00 PM 9.8 49.64 0.039 6.92 1.91 10.73
4/9/2021 3:00:00 PM 9.81 49.658 0.039 6.92 1.96 10.73
4/9/2021 3:15:00 PM 9.83 49.694 0.039 6.91 1.73 10.73
4/9/2021 3:30:00 PM 9.86 49.748 0.039 6.91 1.94 10.73
4/9/2021 3:45:00 PM 9.92 49.856 0.039 6.94 1.97 10.74
4/9/2021 4:00:00 PM 9.97 49.946 0.039 6.94 2.02 10.73
4/9/2021 4:15:00 PM 10.02 50.036 0.039 6.96 2.07 10.72
4/9/2021 4:30:00 PM 10.05 50.09 0.039 6.93 1.99 10.68
4/9/2021 4:45:00 PM 10.08 50.144 0.039 6.94 1.79 10.65
4/9/2021 5:00:00 PM 10.11 50.198 0.039 6.93 1.85 10.63
4/9/2021 5:15:00 PM 10.12 50.216 0.039 6.93 1.91 10.61
4/9/2021 5:30:00 PM 10.14 50.252 0.039 6.91 2.11 10.62
4/9/2021 5:45:00 PM 10.16 50.288 0.039 6.91 2.05 10.6
4/9/2021 6:00:00 PM 10.16 50.288 0.039 6.9 1.93 10.57
4/9/2021 6:15:00 PM 10.16 50.288 0.039 6.89 2.01 10.52
4/9/2021 6:30:00 PM 10.15 50.27 0.039 6.85 1.92 10.48
4/9/2021 6:45:00 PM 10.12 50.216 0.039 6.84 2.25 10.45
4/9/2021 7:00:00 PM 10.1 50.18 0.039 6.83 2.19 10.42
4/9/2021 7:15:00 PM 10.07 50.126 0.04 6.81 2.02 10.39
4/9/2021 7:30:00 PM 10.04 50.072 0.04 6.83 2.65 10.37
4/9/2021 7:45:00 PM 10.02 50.036 0.04 6.79 3.14 10.34
4/9/2021 8:00:00 PM 9.99 49.982 0.04 6.76 2.22 10.33
4/9/2021 8:15:00 PM 9.96 49.928 0.04 6.78 2.39 10.31
4/9/2021 8:30:00 PM 9.93 49.874 0.04 6.78 2.34 10.28
4/9/2021 8:45:00 PM 9.9 49.82 0.04 6.75 2.13 10.3
4/9/2021 9:00:00 PM 9.88 49.784 0.04 6.75 2.11 10.31
4/9/2021 9:15:00 PM 9.86 49.748 0.04 6.74 2.16 10.31
4/9/2021 9:30:00 PM 9.83 49.694 0.04 6.73 2.21 10.31
4/9/2021 9:45:00 PM 9.81 49.658 0.04 6.73 2.36 10.32
4/9/2021 10:00:00 PM 9.79 49.622 0.04 6.74 2.14 10.32
4/9/2021 10:15:00 PM 9.77 49.586 0.04 6.73 2.12 10.33
4/9/2021 10:30:00 PM 9.75 49.55 0.04 6.75 2.11 10.34
4/9/2021 10:45:00 PM 9.72 49.496 0.04 6.73 2.14 10.34
4/9/2021 11:00:00 PM 9.7 49.46 0.04 6.71 1.94 10.35
4/9/2021 11:15:00 PM 9.69 49.442 0.04 6.72 2.16 10.36
4/9/2021 11:30:00 PM 9.67 49.406 0.04 6.74 2.18 10.36
4/9/2021 11:45:00 PM 9.65 49.37 0.04 6.71 2.31 10.36
4/10/2021 12:00:00 AM 9.63 49.334 0.04 6.74 2.19 10.36
4/10/2021 12:15:00 AM 9.62 49.316 0.04 6.72 2.17 10.37
4/10/2021 12:30:00 AM 9.6 49.28 0.04 6.72 1.99 10.38
4/10/2021 12:45:00 AM 9.59 49.262 0.04 6.72 2.04 10.38
4/10/2021 1:00:00 AM 9.57 49.226 0.041 6.73 2.1 10.39
4/10/2021 1:15:00 AM 9.56 49.208 0.041 6.73 2.09 10.4
4/10/2021 1:30:00 AM 9.54 49.172 0.041 6.71 2.26 10.4
4/10/2021 1:45:00 AM 9.53 49.154 0.041 6.74 2.08 10.41
4/10/2021 2:00:00 AM 9.51 49.118 0.041 6.73 2.12 10.41
4/10/2021 2:15:00 AM 9.5 49.1 0.041 6.73 2.11 10.41
4/10/2021 2:30:00 AM 9.48 49.064 0.041 6.73 1.98 10.41
4/10/2021 2:45:00 AM 9.46 49.028 0.041 6.72 2.21 10.42
4/10/2021 3:00:00 AM 9.45 49.01 0.041 6.73 2.59 10.42
4/10/2021 3:15:00 AM 9.43 48.974 0.041 6.73 2.25 10.42
4/10/2021 3:30:00 AM 9.41 48.938 0.041 6.72 2.39 10.43
4/10/2021 3:45:00 AM 9.4 48.92 0.041 6.72 1.93 10.43
4/10/2021 4:00:00 AM 9.38 48.884 0.041 6.72 2.53 10.43
4/10/2021 4:15:00 AM 9.36 48.848 0.041 6.71 2.29 10.42
4/10/2021 4:30:00 AM 9.35 48.83 0.041 6.72 2.27 10.43
4/10/2021 4:45:00 AM 9.34 48.812 0.041 6.72 2.28 10.43
4/10/2021 5:00:00 AM 9.33 48.794 0.041 6.72 2.12 10.44
4/10/2021 5:15:00 AM 9.32 48.776 0.041 6.72 2.19 10.43
4/10/2021 5:30:00 AM 9.31 48.758 0.041 6.73 2.35 10.44
4/10/2021 5:45:00 AM 9.3 48.74 0.041 6.73 1.98 10.45
4/10/2021 6:00:00 AM 9.29 48.722 0.041 6.73 2.32 10.45
4/10/2021 6:15:00 AM 9.28 48.704 0.041 6.73 2.02 10.45
4/10/2021 6:30:00 AM 9.26 48.668 0.041 6.73 2.2 10.46
4/10/2021 6:45:00 AM 9.25 48.65 0.041 6.72 2.31 10.46
4/10/2021 7:00:00 AM 9.24 48.632 0.041 6.72 2.17 10.46
4/10/2021 7:15:00 AM 9.23 48.614 0.041 6.73 2.23 10.49
4/10/2021 7:30:00 AM 9.23 48.614 0.041 6.73 2.18 10.51
4/10/2021 7:45:00 AM 9.24 48.632 0.041 6.74 2.31 10.54
4/10/2021 8:00:00 AM 9.24 48.632 0.041 6.75 5.14 10.58
4/10/2021 8:15:00 AM 9.26 48.668 0.041 6.78 2.17 10.62
4/10/2021 8:30:00 AM 9.27 48.686 0.041 6.79 2.02 10.65
4/10/2021 8:45:00 AM 9.3 48.74 0.041 6.81 2.25 10.69
4/10/2021 9:00:00 AM 9.33 48.794 0.041 6.83 2.06 10.72
4/10/2021 9:15:00 AM 9.38 48.884 0.04 6.84 2.35 10.76
4/10/2021 9:30:00 AM 9.43 48.974 0.04 6.87 2.38 10.79
4/10/2021 9:45:00 AM 9.49 49.082 0.04 6.89 2.49 10.8
4/10/2021 10:00:00 AM 9.57 49.226 0.04 6.91 1.9 10.8
4/10/2021 10:15:00 AM 9.67 49.406 0.04 6.93 2.04 10.8
4/10/2021 10:30:00 AM 9.8 49.64 0.04 6.95 1.93 10.8
4/10/2021 10:45:00 AM 9.94 49.892 0.04 6.98 1.98 10.79
4/10/2021 11:00:00 AM 10.1 50.18 0.04 7.02 1.93 10.75
4/10/2021 11:15:00 AM 10.25 50.45 0.039 7.03 1.82 10.73
4/10/2021 11:30:00 AM 10.44 50.792 0.039 7.04 1.96 10.69
4/10/2021 11:45:00 AM 10.68 51.224 0.039 7.06 2.12 10.65
4/10/2021 12:00:00 PM 10.97 51.746 0.038 7.08 1.93 10.58
4/10/2021 12:15:00 PM 11.21 52.178 0.038 7.08 1.93 10.53
4/10/2021 12:30:00 PM 11.46 52.628 0.037 7.1 1.95 10.48
4/10/2021 12:45:00 PM 11.66 52.988 0.036 7.09 1.82 10.41
4/10/2021 1:00:00 PM 11.87 53.366 0.035 7.1 1.93 10.36
4/10/2021 1:15:00 PM 12.08 53.744 0.034 7.11 2.02 10.34
4/10/2021 1:30:00 PM 12.29 54.122 0.033 7.01 1.95 10.29
4/10/2021 1:45:00 PM 12.53 54.554 0.031 7.02 2.56 10.23
4/10/2021 2:00:00 PM 12.72 54.896 0.03 7.02 2.43 10.18
4/10/2021 2:15:00 PM 12.92 55.256 0.027 7.06 1.81 10.12
4/10/2021 2:30:00 PM 13.1 55.58 0.025 7.07 2.3 10.08
4/10/2021 2:45:00 PM 13.26 55.868 0.023 7.07 2.08 10.04
4/10/2021 3:00:00 PM 13.42 56.156 0.039 7.12 3.64 10.01
4/10/2021 3:15:00 PM 13.52 56.336 0.039 7.13 2.7 9.97
4/10/2021 3:30:00 PM 13.64 56.552 0.039 7.14 2.29 9.93
4/10/2021 3:45:00 PM 13.75 56.75 0.039 7.14 2.14 9.9
4/10/2021 4:00:00 PM 13.81 56.858 0.039 7.14 2.12 9.87
4/10/2021 4:15:00 PM 13.86 56.948 0.039 7.14 1.9 9.85
4/10/2021 4:30:00 PM 13.91 57.038 0.039 7.14 1.86 9.83
4/10/2021 4:45:00 PM 13.89 57.002 0.039 7.12 2.21 9.81
4/10/2021 5:00:00 PM 13.86 56.948 0.039 7.12 1.95 9.8
4/10/2021 5:15:00 PM 13.79 56.822 0.039 7.1 1.96 9.79
4/10/2021 5:30:00 PM 13.69 56.642 0.039 7.08 2.02 9.78
4/10/2021 5:45:00 PM 13.61 56.498 0.039 7.07 1.94 9.76
4/10/2021 6:00:00 PM 13.52 56.336 0.039 7.07 1.95 9.74
4/10/2021 6:15:00 PM 13.45 56.21 0.039 7.03 2.15 9.74
4/10/2021 6:30:00 PM 13.37 56.066 0.039 7.01 2 9.73
4/10/2021 6:45:00 PM 13.27 55.886 0.039 6.99 2.1 9.71
4/10/2021 7:00:00 PM 13.16 55.688 0.04 6.97 2.88 9.68
4/10/2021 7:15:00 PM 13.06 55.508 0.04 6.93 2.14 9.65
4/10/2021 7:30:00 PM 12.93 55.274 0.04 6.89 2 9.61
4/10/2021 7:45:00 PM 12.82 55.076 0.04 6.86 1.97 9.58
4/10/2021 8:00:00 PM 12.7 54.86 0.04 6.84 2.09 9.57
4/10/2021 8:15:00 PM 12.58 54.644 0.04 6.82 2.22 9.55
4/10/2021 8:30:00 PM 12.49 54.482 0.04 6.8 2.45 9.55
4/10/2021 8:45:00 PM 12.39 54.302 0.04 6.8 2.63 9.56
4/10/2021 9:00:00 PM 12.3 54.14 0.04 6.79 2.35 9.55
4/10/2021 9:15:00 PM 12.21 53.978 0.041 6.79 2.34 9.57
4/10/2021 9:30:00 PM 12.14 53.852 0.041 6.8 2.37 9.59
4/10/2021 9:45:00 PM 12.07 53.726 0.041 6.79 2.18 9.61
4/10/2021 10:00:00 PM 12.01 53.618 0.041 6.8 2.15 9.62
4/10/2021 10:15:00 PM 11.95 53.51 0.041 6.79 2.34 9.64
4/10/2021 10:30:00 PM 11.9 53.42 0.041 6.79 2.3 9.64
4/10/2021 10:45:00 PM 11.85 53.33 0.041 6.79 2.08 9.67
4/10/2021 11:00:00 PM 11.8 53.24 0.041 6.79 2.5 9.67
4/10/2021 11:15:00 PM 11.75 53.15 0.039 6.79 2.89 9.68
4/10/2021 11:30:00 PM 11.7 53.06 0.041 6.8 2.12 9.69
4/10/2021 11:45:00 PM 11.65 52.97 0.039 6.78 3.03 9.71
4/11/2021 12:00:00 AM 11.61 52.898 0.041 6.8 2.27 9.71
4/11/2021 12:15:00 AM 11.57 52.826 0.041 6.79 2.47 9.72
4/11/2021 12:30:00 AM 11.52 52.736 0.041 6.79 2.17 9.74
4/11/2021 12:45:00 AM 11.48 52.664 0.041 6.8 2.48 9.74
4/11/2021 1:00:00 AM 11.45 52.61 0.039 6.78 3 9.75
4/11/2021 1:15:00 AM 11.41 52.538 0.041 6.78 2.42 9.76
4/11/2021 1:30:00 AM 11.37 52.466 0.039 6.78 2.99 9.77
4/11/2021 1:45:00 AM 11.33 52.394 0.041 6.79 2.38 9.77
4/11/2021 2:00:00 AM 11.3 52.34 0.04 6.78 2.68 9.78
4/11/2021 2:15:00 AM 11.26 52.268 0.041 6.78 2.48 9.79
4/11/2021 2:30:00 AM 11.23 52.214 0.041 6.78 2.48 9.79
4/11/2021 2:45:00 AM 11.19 52.142 0.041 6.78 2.4 9.81
4/11/2021 3:00:00 AM 11.16 52.088 0.041 6.78 1.91 9.8
4/11/2021 3:15:00 AM 11.13 52.034 0.041 6.78 2.21 9.81
4/11/2021 3:30:00 AM 11.1 51.98 0.041 6.77 2.15 9.81
4/11/2021 3:45:00 AM 11.06 51.908 0.041 6.79 2.38 9.83
4/11/2021 4:00:00 AM 11.03 51.854 0.041 6.77 2.25 9.83
4/11/2021 4:15:00 AM 10.99 51.782 0.041 6.77 2.4 9.84
4/11/2021 4:30:00 AM 10.97 51.746 0.041 6.76 2.12 9.84
4/11/2021 4:45:00 AM 10.93 51.674 0.041 6.78 2.44 9.85
4/11/2021 5:00:00 AM 10.9 51.62 0.041 6.78 2.37 9.85
4/11/2021 5:15:00 AM 10.88 51.584 0.041 6.78 2.7 9.85
4/11/2021 5:30:00 AM 10.86 51.548 0.041 6.84 2.64 9.86
4/11/2021 5:45:00 AM 10.83 51.494 0.041 6.83 2.44 9.86
4/11/2021 6:00:00 AM 10.79 51.422 0.041 6.81 2.44 9.87
4/11/2021 6:15:00 AM 10.77 51.386 0.041 6.77 2.53 9.87
4/11/2021 6:30:00 AM 10.73 51.314 0.041 6.79 2.54 9.88
4/11/2021 6:45:00 AM 10.71 51.278 0.041 6.8 2.32 9.88
4/11/2021 7:00:00 AM 10.68 51.224 0.041 6.78 2.5 9.9
4/11/2021 7:15:00 AM 10.66 51.188 0.041 6.78 10.41 9.89
4/11/2021 7:30:00 AM 10.64 51.152 0.041 6.77 2.84 9.91
4/11/2021 7:45:00 AM 10.62 51.116 0.041 6.81 2.86 9.93
4/11/2021 8:00:00 AM 10.61 51.098 0.041 6.8 2.68 9.94
4/11/2021 8:15:00 AM 10.6 51.08 0.041 6.79 2.84 9.96
4/11/2021 8:30:00 AM 10.58 51.044 0.041 6.79 2.7 9.99
4/11/2021 8:45:00 AM 10.58 51.044 0.041 6.8 5.47 10.04
4/11/2021 9:00:00 AM 10.58 51.044 0.041 6.81 4.18 10.07
4/11/2021 9:15:00 AM 10.58 51.044 0.041 6.88 3.98 10.12
4/11/2021 9:30:00 AM 10.59 51.062 0.041 6.86 3.36 10.15
4/11/2021 9:45:00 AM 10.6 51.08 0.041 6.87 3.36 10.18
4/11/2021 10:00:00 AM 10.62 51.116 0.04 6.9 2.87 10.2
4/11/2021 10:15:00 AM 10.62 51.116 0.04 6.87 2.74 10.2
4/11/2021 10:30:00 AM 10.64 51.152 0.04 6.87 2.78 10.21
4/11/2021 10:45:00 AM 10.67 51.206 0.04 6.89 2.82 10.25
4/11/2021 11:00:00 AM 10.72 51.296 0.04 6.91 2.87 10.3
4/11/2021 11:15:00 AM 10.76 51.368 0.041 6.95 2.99 10.32
4/11/2021 11:30:00 AM 10.85 51.53 0.041 6.98 2.79 10.35
4/11/2021 11:45:00 AM 10.94 51.692 0.041 7 2.99 10.36
4/11/2021 12:00:00 PM 11.02 51.836 0.041 7.01 2.79 10.35
4/11/2021 12:15:00 PM 11.16 52.088 0.04 7.02 2.79 10.34
4/11/2021 12:30:00 PM 11.22 52.196 0.04 7.04 2.91 10.33
4/11/2021 12:45:00 PM 11.29 52.322 0.04 7.04 2.94 10.3
4/11/2021 1:00:00 PM 11.42 52.556 0.04 7.06 2.88 10.3
4/11/2021 1:15:00 PM 11.54 52.772 0.04 7.07 2.66 10.28
4/11/2021 1:30:00 PM 11.6 52.88 0.04 7.07 2.82 10.26
4/11/2021 1:45:00 PM 11.7 53.06 0.04 7.08 2.79 10.24
4/11/2021 2:00:00 PM 11.84 53.312 0.04 7.09 2.69 10.21
4/11/2021 2:15:00 PM 11.98 53.564 0.04 7.11 2.82 10.2
4/11/2021 2:30:00 PM 12.08 53.744 0.04 7.09 2.47 10.18
4/11/2021 2:45:00 PM 12.18 53.924 0.04 7.11 2.6 10.15
4/11/2021 3:00:00 PM 12.25 54.05 0.04 7.11 2.51 10.11
4/11/2021 3:15:00 PM 12.27 54.086 0.04 7.09 2.47 10.04
4/11/2021 3:30:00 PM 12.26 54.068 0.041 7.06 2.42 10
4/11/2021 3:45:00 PM 12.23 54.014 0.041 7.02 2.59 9.95
4/11/2021 4:00:00 PM 12.19 53.942 0.041 7.01 2.39 9.92
4/11/2021 4:15:00 PM 12.17 53.906 0.041 7.01 2.57 9.94
4/11/2021 4:30:00 PM 12.13 53.834 0.041 6.98 2.31 9.94
4/11/2021 4:45:00 PM 12.1 53.78 0.041 6.98 2.38 9.92
4/11/2021 5:00:00 PM 12.1 53.78 0.041 7 2.26 9.95
4/11/2021 5:15:00 PM 12.08 53.744 0.041 6.99 2.26 9.95
4/11/2021 5:30:00 PM 12.13 53.834 0.041 7.01 2.4 9.97
4/11/2021 5:45:00 PM 12.15 53.87 0.041 7.01 2.59 9.98
4/11/2021 6:00:00 PM 12.08 53.744 0.041 6.98 2.14 9.96
4/11/2021 6:15:00 PM 12.03 53.654 0.041 6.99 2.05 9.92
4/11/2021 6:30:00 PM 11.98 53.564 0.041 6.95 2.2 9.88
4/11/2021 6:45:00 PM 11.9 53.42 0.041 6.9 2.1 9.85
4/11/2021 7:00:00 PM 11.85 53.33 0.041 6.91 2.19 9.81
4/11/2021 7:15:00 PM 11.82 53.276 0.041 6.88 2.21 9.81
4/11/2021 7:30:00 PM 11.78 53.204 0.041 6.89 2.28 9.8
4/11/2021 7:45:00 PM 11.72 53.096 0.042 6.85 2.45 9.77
4/11/2021 8:00:00 PM 11.65 52.97 0.042 6.82 2.31 9.75
4/11/2021 8:15:00 PM 11.58 52.844 0.042 6.83 2.33 9.73
4/11/2021 8:30:00 PM 11.5 52.7 0.042 6.83 2.37 9.73
4/11/2021 8:45:00 PM 11.44 52.592 0.042 6.81 2.32 9.73
4/11/2021 9:00:00 PM 11.39 52.502 0.042 6.8 2.37 9.74
4/11/2021 9:15:00 PM 11.34 52.412 0.042 6.79 2.5 9.74
4/11/2021 9:30:00 PM 11.29 52.322 0.042 6.81 2.58 9.75
4/11/2021 9:45:00 PM 11.24 52.232 0.042 6.77 2.71 9.75
4/11/2021 10:00:00 PM 11.19 52.142 0.042 6.78 2.61 9.77
4/11/2021 10:15:00 PM 11.14 52.052 0.042 6.81 2.63 9.78
4/11/2021 10:30:00 PM 11.08 51.944 0.041 6.79 2.58 9.79
4/11/2021 10:45:00 PM 11.03 51.854 0.041 6.79 2.54 9.8
4/11/2021 11:00:00 PM 10.98 51.764 0.041 6.77 3.63 9.82
4/11/2021 11:15:00 PM 10.93 51.674 0.041 6.78 3.13 9.84
4/11/2021 11:30:00 PM 10.89 51.602 0.042 6.76 3.02 9.85
4/11/2021 11:45:00 PM 10.85 51.53 0.042 6.77 3.63 9.87
4/12/2021 12:00:00 AM 10.81 51.458 0.042 6.78 3.45 9.88
4/12/2021 12:15:00 AM 10.77 51.386 0.042 6.85 3.78 9.89
4/12/2021 12:30:00 AM 10.73 51.314 0.043 6.78 3.66 9.91
4/12/2021 12:45:00 AM 10.69 51.242 0.043 6.79 3.79 9.92
4/12/2021 1:00:00 AM 10.65 51.17 0.043 6.77 3.89 9.93
4/12/2021 1:15:00 AM 10.62 51.116 0.043 6.77 3.95 9.94
4/12/2021 1:30:00 AM 10.58 51.044 0.043 6.82 3.89 9.95
4/12/2021 1:45:00 AM 10.54 50.972 0.043 6.77 4.07 9.95
4/12/2021 2:00:00 AM 10.5 50.9 0.042 6.81 4.2 9.97
4/12/2021 2:15:00 AM 10.45 50.81 0.042 6.78 4.33 9.98
4/12/2021 2:30:00 AM 10.39 50.702 0.042 6.8 4.38 9.99
4/12/2021 2:45:00 AM 10.33 50.594 0.042 6.78 3.87 10
4/12/2021 3:00:00 AM 10.28 50.504 0.042 6.76 3.88 10.02
4/12/2021 3:15:00 AM 10.23 50.414 0.042 6.77 4.61 10.03
4/12/2021 3:30:00 AM 10.19 50.342 0.042 6.76 3.37 10.05
4/12/2021 3:45:00 AM 10.15 50.27 0.042 6.77 3.8 10.06
4/12/2021 4:00:00 AM 10.12 50.216 0.043 6.76 4.16 10.06
4/12/2021 4:15:00 AM 10.07 50.126 0.043 6.79 3.1 10.07
4/12/2021 4:30:00 AM 10.03 50.054 0.043 6.77 7.58 10.08
4/12/2021 4:45:00 AM 9.98 49.964 0.043 6.75 3.42 10.1
4/12/2021 5:00:00 AM 9.92 49.856 0.043 6.75 2.78 10.11
4/12/2021 5:15:00 AM 9.87 49.766 0.044 6.83 4.06 10.11
4/12/2021 5:30:00 AM 9.82 49.676 0.044 6.76 3.43 10.14
4/12/2021 5:45:00 AM 9.76 49.568 0.043 6.77 3.02 10.16
4/12/2021 6:00:00 AM 9.71 49.478 0.043 6.77 3 10.17
4/12/2021 6:15:00 AM 9.67 49.406 0.043 6.76 2.85 10.18
4/12/2021 6:30:00 AM 9.63 49.334 0.043 6.79 3.05 10.19
4/12/2021 6:45:00 AM 9.59 49.262 0.043 6.75 2.9 10.21
4/12/2021 7:00:00 AM 9.55 49.19 0.043 6.75 2.68 10.25
4/12/2021 7:15:00 AM 9.53 49.154 0.043 6.77 3.04 10.28
4/12/2021 7:30:00 AM 9.51 49.118 0.043 6.81 3.22 10.33
4/12/2021 7:45:00 AM 9.51 49.118 0.043 6.84 3.3 10.38
4/12/2021 8:00:00 AM 9.5 49.1 0.043 6.81 3.09 10.4
4/12/2021 8:15:00 AM 9.49 49.082 0.043 6.82 2.92 10.42
4/12/2021 8:30:00 AM 9.5 49.1 0.043 6.83 2.54 10.44
4/12/2021 8:45:00 AM 9.49 49.082 0.043 6.85 2.96 10.47
4/12/2021 9:00:00 AM 9.49 49.082 0.042 6.85 2.51 10.48
4/12/2021 9:15:00 AM 9.48 49.064 0.042 6.85 2.34 10.46
4/12/2021 9:30:00 AM 9.47 49.046 0.042 6.85 2.35 10.47
4/12/2021 9:45:00 AM 9.47 49.046 0.042 6.85 2.56 10.49
4/12/2021 10:00:00 AM 9.47 49.046 0.042 6.85 3.02 10.52
4/12/2021 10:15:00 AM 9.48 49.064 0.042 6.87 2.29 10.56
4/12/2021 10:30:00 AM 9.48 49.064 0.042 6.88 2.46 10.57
4/12/2021 10:45:00 AM 9.48 49.064 0.042 6.88 2.79 10.57
4/12/2021 11:00:00 AM 9.49 49.082 0.042 6.89 2.65 10.57
4/12/2021 11:15:00 AM 9.49 49.082 0.042 6.9 2.34 10.6
4/12/2021 11:30:00 AM 9.51 49.118 0.042 6.92 2.27 10.63
4/12/2021 11:45:00 AM 9.58 49.244 0.042 6.95 2.36 10.68
4/12/2021 12:00:00 PM 9.67 49.406 0.042 6.96 2.35 10.71
4/12/2021 12:15:00 PM 9.74 49.532 0.042 6.99 2.37 10.71
4/12/2021 12:30:00 PM 9.81 49.658 0.042 7.01 2.49 10.69
4/12/2021 12:45:00 PM 9.86 49.748 0.042 7 2.38 10.67
4/12/2021 1:00:00 PM 9.9 49.82 0.042 7.01 2.57 10.67
4/12/2021 1:15:00 PM 9.89 49.802 0.042 7.01 2.88 10.65
4/12/2021 1:30:00 PM 9.88 49.784 0.042 7 2.72 10.63
4/12/2021 1:45:00 PM 9.91 49.838 0.042 7 2.78 10.64
4/12/2021 2:00:00 PM 9.94 49.892 0.042 7 2.67 10.62
4/12/2021 2:15:00 PM 9.97 49.946 0.042 7 2.74 10.63
4/12/2021 2:30:00 PM 10.02 50.036 0.042 7.01 2.47 10.62
4/12/2021 2:45:00 PM 10 50 0.041 7.01 2.57 10.58
4/12/2021 3:00:00 PM 9.99 49.982 0.041 6.98 2.54 10.55
4/12/2021 3:15:00 PM 9.97 49.946 0.041 6.96 2.33 10.55
4/12/2021 3:30:00 PM 9.96 49.928 0.041 6.96 2.24 10.55
4/12/2021 3:45:00 PM 9.96 49.928 0.041 6.97 2.42 10.57
4/12/2021 4:00:00 PM 9.98 49.964 0.041 6.98 2.27 10.59
4/12/2021 4:15:00 PM 9.99 49.982 0.041 6.99 3.24 10.61
4/12/2021 4:30:00 PM 10 50 0.041 7 2.36 10.6
4/12/2021 4:45:00 PM 9.99 49.982 0.041 6.98 2.4 10.58
4/12/2021 5:00:00 PM 9.98 49.964 0.041 6.98 2.3 10.56
4/12/2021 5:15:00 PM 9.97 49.946 0.041 6.97 2.17 10.55
4/12/2021 5:30:00 PM 9.98 49.964 0.041 6.96 3.02 10.55
4/12/2021 5:45:00 PM 9.98 49.964 0.041 6.97 2.18 10.56
4/12/2021 6:00:00 PM 9.97 49.946 0.041 6.96 2.15 10.55
4/12/2021 6:15:00 PM 9.97 49.946 0.041 6.96 2.24 10.54
4/12/2021 6:30:00 PM 9.95 49.91 0.042 6.93 2.29 10.5
4/12/2021 6:45:00 PM 9.92 49.856 0.042 6.93 2.3 10.45
4/12/2021 7:00:00 PM 9.89 49.802 0.042 6.92 2.44 10.39
4/12/2021 7:15:00 PM 9.85 49.73 0.042 6.88 2.35 10.35
4/12/2021 7:30:00 PM 9.81 49.658 0.042 6.86 2.74 10.33
4/12/2021 7:45:00 PM 9.77 49.586 0.042 6.84 2.71 10.31
4/12/2021 8:00:00 PM 9.72 49.496 0.042 6.83 2.4 10.3
4/12/2021 8:15:00 PM 9.68 49.424 0.042 6.83 2.36 10.3
4/12/2021 8:30:00 PM 9.64 49.352 0.042 6.82 2.42 10.31
4/12/2021 8:45:00 PM 9.6 49.28 0.042 6.81 2.72 10.32
4/12/2021 9:00:00 PM 9.56 49.208 0.042 6.8 3.75 10.33
4/12/2021 9:15:00 PM 9.54 49.172 0.042 6.8 2.67 10.34
4/12/2021 9:30:00 PM 9.51 49.118 0.042 6.8 2.72 10.34
4/12/2021 9:45:00 PM 9.49 49.082 0.042 6.79 3.17 10.36
4/12/2021 10:00:00 PM 9.47 49.046 0.042 6.79 3.18 10.36
4/12/2021 10:15:00 PM 9.44 48.992 0.043 6.79 3.42 10.37
4/12/2021 10:30:00 PM 9.42 48.956 0.043 6.81 3.63 10.37
4/12/2021 10:45:00 PM 9.4 48.92 0.043 6.8 3.56 10.38
4/12/2021 11:00:00 PM 9.37 48.866 0.043 6.78 3.64 10.39
4/12/2021 11:15:00 PM 9.34 48.812 0.043 6.78 2.96 10.39
4/12/2021 11:30:00 PM 9.32 48.776 0.043 6.79 3.06 10.4
4/12/2021 11:45:00 PM 9.29 48.722 0.043 6.8 3.12 10.4
4/13/2021 12:00:00 AM 9.26 48.668 0.043 6.79 3.16 10.42
4/13/2021 12:15:00 AM 9.24 48.632 0.043 6.78 3.63 10.42
4/13/2021 12:30:00 AM 9.21 48.578 0.043 6.78 2.99 10.43
4/13/2021 12:45:00 AM 9.18 48.524 0.043 6.79 2.77 10.44
4/13/2021 1:00:00 AM 9.15 48.47 0.043 6.78 2.87 10.45
4/13/2021 1:15:00 AM 9.13 48.434 0.043 6.79 2.93 10.46
4/13/2021 1:30:00 AM 9.1 48.38 0.043 6.8 2.94 10.47
4/13/2021 1:45:00 AM 9.08 48.344 0.043 6.8 2.82 10.48
4/13/2021 2:00:00 AM 9.05 48.29 0.043 6.79 2.47 10.48
4/13/2021 2:15:00 AM 9.03 48.254 0.043 6.79 2.71 10.5
4/13/2021 2:30:00 AM 9 48.2 0.043 6.8 2.94 10.5
4/13/2021 2:45:00 AM 8.98 48.164 0.043 6.79 2.75 10.51
4/13/2021 3:00:00 AM 8.96 48.128 0.043 6.78 2.74 10.52
4/13/2021 3:15:00 AM 8.94 48.092 0.043 6.79 3.06 10.52
4/13/2021 3:30:00 AM 8.92 48.056 0.043 6.79 2.88 10.53
4/13/2021 3:45:00 AM 8.9 48.02 0.043 6.78 2.99 10.54
4/13/2021 4:00:00 AM 8.88 47.984 0.043 6.77 3.05 10.54
4/13/2021 4:15:00 AM 8.86 47.948 0.043 6.78 3.46 10.55
4/13/2021 4:30:00 AM 8.84 47.912 0.043 6.79 3.08 10.56
4/13/2021 4:45:00 AM 8.82 47.876 0.043 6.78 2.87 10.56
4/13/2021 5:00:00 AM 8.8 47.84 0.043 6.79 2.81 10.57
4/13/2021 5:15:00 AM 8.78 47.804 0.043 6.77 2.65 10.58
4/13/2021 5:30:00 AM 8.77 47.786 0.043 6.78 2.55 10.58
4/13/2021 5:45:00 AM 8.75 47.75 0.043 6.77 2.61 10.59
4/13/2021 6:00:00 AM 8.73 47.714 0.043 6.77 3.39 10.6
4/13/2021 6:15:00 AM 8.71 47.678 0.043 6.77 2.98 10.59
4/13/2021 6:30:00 AM 8.7 47.66 0.043 6.77 3.76 10.6
4/13/2021 6:45:00 AM 8.68 47.624 0.043 6.76 3.15 10.61
4/13/2021 7:00:00 AM 8.67 47.606 0.043 6.77 2.93 10.62
4/13/2021 7:15:00 AM 8.66 47.588 0.043 6.77 3.07 10.64
4/13/2021 7:30:00 AM 8.65 47.57 0.043 6.78 2.76 10.68
4/13/2021 7:45:00 AM 8.64 47.552 0.043 6.79 2.72 10.7
4/13/2021 8:00:00 AM 8.64 47.552 0.042 6.79 3.1 10.72
4/13/2021 8:15:00 AM 8.64 47.552 0.042 6.81 3.01 10.76
4/13/2021 8:30:00 AM 8.64 47.552 0.042 6.81 2.66 10.78
4/13/2021 8:45:00 AM 8.65 47.57 0.042 6.82 2.51 10.82
4/13/2021 9:00:00 AM 8.68 47.624 0.042 6.85 2.55 10.88
4/13/2021 9:15:00 AM 8.72 47.696 0.042 6.87 2.54 10.93
4/13/2021 9:30:00 AM 8.8 47.84 0.042 6.89 2.52 10.98
4/13/2021 9:45:00 AM 8.9 48.02 0.042 6.92 2.4 10.99
4/13/2021 10:00:00 AM 9.01 48.218 0.042 6.94 2.32 11
4/13/2021 10:15:00 AM 9.09 48.362 0.042 6.93 2.6 10.99
4/13/2021 10:30:00 AM 9.22 48.596 0.042 6.96 2.62 10.96
4/13/2021 10:45:00 AM 9.43 48.974 0.042 6.98 2.47 10.92
4/13/2021 11:00:00 AM 9.52 49.136 0.041 6.98 2.44 10.9
4/13/2021 11:15:00 AM 9.56 49.208 0.041 6.96 2.84 10.9
4/13/2021 11:30:00 AM 9.73 49.514 0.041 6.98 2.77 10.87
4/13/2021 11:45:00 AM 9.89 49.802 0.041 7.01 2.5 10.83
4/13/2021 12:00:00 PM 9.97 49.946 0.041 7 3.99 10.81
4/13/2021 12:15:00 PM 9.97 49.946 0.041 6.99 2.69 10.79
4/13/2021 12:30:00 PM 9.98 49.964 0.041 7.01 3.02 10.77
4/13/2021 12:45:00 PM 10.06 50.108 0.041 6.99 2.68 10.77
4/13/2021 1:00:00 PM 10.14 50.252 0.041 7 2.62 10.78
4/13/2021 1:15:00 PM 10.28 50.504 0.041 7.02 2.72 10.76
4/13/2021 1:30:00 PM 10.4 50.72 0.041 7.02 2.53 10.72
4/13/2021 1:45:00 PM 10.45 50.81 0.041 7.01 2.76 10.68
4/13/2021 2:00:00 PM 10.6 51.08 0.041 7.02 2.65 10.64
4/13/2021 2:15:00 PM 10.67 51.206 0.041 7.03 2.67 10.62
4/13/2021 2:30:00 PM 10.58 51.044 0.041 7 2.38 10.59
4/13/2021 2:45:00 PM 10.54 50.972 0.041 6.98 2.48 10.59
4/13/2021 3:00:00 PM 10.51 50.918 0.041 6.97 2.49 10.6
4/13/2021 3:15:00 PM 10.51 50.918 0.041 6.99 2.45 10.61
4/13/2021 3:30:00 PM 10.71 51.278 0.041 7 2.51 10.62
4/13/2021 3:45:00 PM 10.65 51.17 0.041 7 2.57 10.61
4/13/2021 4:00:00 PM 10.78 51.404 0.041 7.01 2.5 10.6
4/13/2021 4:15:00 PM 10.88 51.584 0.041 7.03 2.74 10.57
4/13/2021 4:30:00 PM 10.87 51.566 0.041 7.01 2.6 10.53
4/13/2021 4:45:00 PM 10.97 51.746 0.04 7.03 2.54 10.52
4/13/2021 5:00:00 PM 11.08 51.944 0.04 7.04 2.56 10.51
4/13/2021 5:15:00 PM 11.03 51.854 0.04 7.01 4.3 10.46
4/13/2021 5:30:00 PM 11.09 51.962 0.04 6.99 2.48 10.45
4/13/2021 5:45:00 PM 11.06 51.908 0.04 6.99 2.64 10.43
4/13/2021 6:00:00 PM 11.03 51.854 0.04 6.98 2.65 10.43
4/13/2021 6:15:00 PM 10.98 51.764 0.04 6.97 2.55 10.4
4/13/2021 6:30:00 PM 10.9 51.62 0.04 6.94 2.49 10.37
4/13/2021 6:45:00 PM 10.83 51.494 0.04 6.93 2.62 10.37
4/13/2021 7:00:00 PM 10.73 51.314 0.041 6.9 2.42 10.34
4/13/2021 7:15:00 PM 10.64 51.152 0.041 6.88 2.65 10.31
4/13/2021 7:30:00 PM 10.56 51.008 0.041 6.85 2.48 10.28
4/13/2021 7:45:00 PM 10.47 50.846 0.041 6.82 2.6 10.26
4/13/2021 8:00:00 PM 10.39 50.702 0.041 6.8 2.59 10.24
4/13/2021 8:15:00 PM 10.33 50.594 0.041 6.78 3.06 10.21
4/13/2021 8:30:00 PM 10.27 50.486 0.041 6.78 2.94 10.23
4/13/2021 8:45:00 PM 10.21 50.378 0.041 6.77 3.22 10.24
4/13/2021 9:00:00 PM 10.15 50.27 0.041 6.75 3.01 10.24
4/13/2021 9:15:00 PM 10.08 50.144 0.041 6.73 2.86 10.25
4/13/2021 9:30:00 PM 10.02 50.036 0.041 6.72 2.89 10.26
4/13/2021 9:45:00 PM 9.96 49.928 0.041 6.73 2.77 10.28
4/13/2021 10:00:00 PM 9.9 49.82 0.041 6.74 2.98 10.29
4/13/2021 10:15:00 PM 9.83 49.694 0.041 6.73 3.08 10.31
4/13/2021 10:30:00 PM 9.77 49.586 0.041 6.74 2.88 10.33
4/13/2021 10:45:00 PM 9.71 49.478 0.041 6.73 3.09 10.35
4/13/2021 11:00:00 PM 9.65 49.37 0.041 6.73 2.85 10.36
4/13/2021 11:15:00 PM 9.59 49.262 0.041 6.73 2.82 10.37
4/13/2021 11:30:00 PM 9.53 49.154 0.041 6.72 2.79 10.39
4/13/2021 11:45:00 PM 9.47 49.046 0.041 6.72 2.58 10.41
4/14/2021 12:00:00 AM 9.42 48.956 0.041 6.72 2.83 10.43
4/14/2021 12:15:00 AM 9.35 48.83 0.041 6.72 2.76 10.45
4/14/2021 12:30:00 AM 9.29 48.722 0.041 6.72 2.96 10.46
4/14/2021 12:45:00 AM 9.22 48.596 0.041 6.73 3.04 10.48
4/14/2021 1:00:00 AM 9.16 48.488 0.041 6.74 2.94 10.5
4/14/2021 1:15:00 AM 9.1 48.38 0.041 6.73 3.12 10.51
4/14/2021 1:30:00 AM 9.03 48.254 0.041 6.72 3.43 10.54
4/14/2021 1:45:00 AM 8.96 48.128 0.041 6.72 2.92 10.55
4/14/2021 2:00:00 AM 8.89 48.002 0.041 6.72 2.65 10.57
4/14/2021 2:15:00 AM 8.84 47.912 0.041 6.71 3.27 10.59
4/14/2021 2:30:00 AM 8.79 47.822 0.041 6.72 2.8 10.6
4/14/2021 2:45:00 AM 8.75 47.75 0.041 6.72 2.8 10.62
4/14/2021 3:00:00 AM 8.71 47.678 0.041 6.73 3.24 10.63
4/14/2021 3:15:00 AM 8.67 47.606 0.041 6.73 3.12 10.64
4/14/2021 3:30:00 AM 8.63 47.534 0.041 6.73 3.15 10.65
4/14/2021 3:45:00 AM 8.58 47.444 0.041 6.72 2.86 10.66
4/14/2021 4:00:00 AM 8.54 47.372 0.041 6.72 2.87 10.67
4/14/2021 4:15:00 AM 8.48 47.264 0.041 6.72 3.12 10.69
4/14/2021 4:30:00 AM 8.43 47.174 0.041 6.71 3.7 10.7
4/14/2021 4:45:00 AM 8.38 47.084 0.041 6.71 2.92 10.73
4/14/2021 5:00:00 AM 8.32 46.976 0.041 6.71 3.07 10.74
4/14/2021 5:15:00 AM 8.27 46.886 0.041 6.72 2.94 10.75
4/14/2021 5:30:00 AM 8.21 46.778 0.041 6.71 3.1 10.77
4/14/2021 5:45:00 AM 8.16 46.688 0.041 6.7 3.18 10.78
4/14/2021 6:00:00 AM 8.11 46.598 0.041 6.72 2.83 10.8
4/14/2021 6:15:00 AM 8.06 46.508 0.041 6.71 3.3 10.81
4/14/2021 6:30:00 AM 8.02 46.436 0.041 6.71 4.36 10.82
4/14/2021 6:45:00 AM 7.98 46.364 0.041 6.7 3.64 10.84
4/14/2021 7:00:00 AM 7.94 46.292 0.041 6.72 3 10.87
4/14/2021 7:15:00 AM 7.92 46.256 0.041 6.72 3.07 10.91
4/14/2021 7:30:00 AM 7.9 46.22 0.041 6.73 3.21 10.97
4/14/2021 7:45:00 AM 7.89 46.202 0.041 6.75 3.25 11.02
4/14/2021 8:00:00 AM 7.88 46.184 0.041 6.76 2.93 11.07
4/14/2021 8:15:00 AM 7.88 46.184 0.041 6.78 2.78 11.11
4/14/2021 8:30:00 AM 7.88 46.184 0.04 6.8 3.08 11.12
4/14/2021 8:45:00 AM 7.88 46.184 0.04 6.8 2.87 11.14
4/14/2021 9:00:00 AM 7.89 46.202 0.04 6.83 2.81 11.16
4/14/2021 9:15:00 AM 7.92 46.256 0.04 6.83 2.65 11.17
4/14/2021 9:30:00 AM 7.97 46.346 0.04 6.86 2.58 11.19
4/14/2021 9:45:00 AM 8.03 46.454 0.04 6.87 3.08 11.22
4/14/2021 10:00:00 AM 8.11 46.598 0.04 6.89 2.73 11.22
4/14/2021 10:15:00 AM 8.19 46.742 0.04 6.91 2.82 11.23
4/14/2021 10:30:00 AM 8.27 46.886 0.04 6.91 3.02 11.22
4/14/2021 10:45:00 AM 8.39 47.102 0.04 6.93 2.71 11.21
4/14/2021 11:00:00 AM 8.5 47.3 0.04 6.94 2.78 11.18
4/14/2021 11:15:00 AM 8.65 47.57 0.04 6.95 2.8 11.15
4/14/2021 11:30:00 AM 8.79 47.822 0.04 6.96 2.64 11.13
4/14/2021 11:45:00 AM 8.93 48.074 0.04 6.97 2.76 11.09
4/14/2021 12:00:00 PM 9.06 48.308 0.039 6.98 2.69 11.04
4/14/2021 12:15:00 PM 9.27 48.686 0.039 6.98 2.67 11
4/14/2021 12:30:00 PM 9.43 48.974 0.039 6.97 2.66 10.97
4/14/2021 12:45:00 PM 9.55 49.19 0.039 6.99 2.54 10.93
4/14/2021 1:00:00 PM 9.74 49.532 0.039 7 2.59 10.87
4/14/2021 1:15:00 PM 9.8 49.64 0.039 6.98 2.85 10.82
4/14/2021 1:30:00 PM 10.09 50.162 0.039 7 2.68 10.79
4/14/2021 1:45:00 PM 10.2 50.36 0.039 7 2.77 10.73
4/14/2021 2:00:00 PM 10.51 50.918 0.039 7 2.68 10.66
4/14/2021 2:15:00 PM 10.84 51.512 0.039 7.03 2.92 10.6
4/14/2021 2:30:00 PM 11.09 51.962 0.039 7.03 3 10.52
4/14/2021 2:45:00 PM 11.21 52.178 0.039 7.04 3.13 10.47
4/14/2021 3:00:00 PM 11.33 52.394 0.039 7.03 2.51 10.44
4/14/2021 3:15:00 PM 11.3 52.34 0.039 7 3.01 10.43
4/14/2021 3:30:00 PM 11.5 52.7 0.039 7.05 2.71 10.4
4/14/2021 3:45:00 PM 11.61 52.898 0.039 7.05 3.22 10.37
4/14/2021 4:00:00 PM 11.65 52.97 0.039 7.03 2.7 10.33
4/14/2021 4:15:00 PM 11.62 52.916 0.039 7.02 2.67 10.3
4/14/2021 4:30:00 PM 11.61 52.898 0.036 7.01 6.12 10.31
4/14/2021 4:45:00 PM 11.52 52.736 0.039 6.99 3.24 10.28
4/14/2021 5:00:00 PM 11.38 52.484 0.039 6.94 3.86 10.29
4/14/2021 5:15:00 PM 11.3 52.34 0.039 6.96 3.28 10.3
4/14/2021 5:30:00 PM 11.21 52.178 0.039 6.94 3.68 10.28
4/14/2021 5:45:00 PM 11.19 52.142 0.039 6.94 3.21 10.27
4/14/2021 6:00:00 PM 11.15 52.07 0.039 6.94 3.27 10.26
4/14/2021 6:15:00 PM 11.11 51.998 0.039 6.94 3.11 10.25
4/14/2021 6:30:00 PM 11.05 51.89 0.039 6.93 3.38 10.24
4/14/2021 6:45:00 PM 10.99 51.782 0.039 6.9 3.18 10.24
4/14/2021 7:00:00 PM 10.92 51.656 0.039 6.89 2.88 10.24
4/14/2021 7:15:00 PM 10.83 51.494 0.039 6.85 3.26 10.21
4/14/2021 7:30:00 PM 10.74 51.332 0.039 6.83 2.93 10.19
4/14/2021 7:45:00 PM 10.66 51.188 0.039 6.82 3.1 10.17
4/14/2021 8:00:00 PM 10.57 51.026 0.039 6.8 3.05 10.15
4/14/2021 8:15:00 PM 10.49 50.882 0.039 6.74 3.36 10.14
4/14/2021 8:30:00 PM 10.42 50.756 0.04 6.73 3.24 10.13
4/14/2021 8:45:00 PM 10.34 50.612 0.04 6.74 3.78 10.14
4/14/2021 9:00:00 PM 10.25 50.45 0.04 6.72 3.9 10.14
4/14/2021 9:15:00 PM 10.16 50.288 0.04 6.69 3.5 10.16
4/14/2021 9:30:00 PM 10.08 50.144 0.04 6.72 3.45 10.18
4/14/2021 9:45:00 PM 9.99 49.982 0.04 6.69 3.19 10.2
4/14/2021 10:00:00 PM 9.9 49.82 0.04 6.69 2.98 10.22
4/14/2021 10:15:00 PM 9.8 49.64 0.04 6.7 3.29 10.24
4/14/2021 10:30:00 PM 9.72 49.496 0.04 6.69 3.41 10.27
4/14/2021 10:45:00 PM 9.63 49.334 0.04 6.68 3.39 10.29
4/14/2021 11:00:00 PM 9.55 49.19 0.04 6.69 3.17 10.31
4/14/2021 11:15:00 PM 9.47 49.046 0.04 6.7 3.17 10.34
4/14/2021 11:30:00 PM 9.39 48.902 0.04 6.71 3.45 10.37
4/14/2021 11:45:00 PM 9.3 48.74 0.04 6.72 3.52 10.38
4/15/2021 12:00:00 AM 9.23 48.614 0.04 6.71 3.32 10.41
4/15/2021 12:15:00 AM 9.15 48.47 0.04 6.7 3.63 10.43
4/15/2021 12:30:00 AM 9.08 48.344 0.04 6.69 3.45 10.45
4/15/2021 12:45:00 AM 9.02 48.236 0.04 6.71 3.37 10.48
4/15/2021 1:00:00 AM 8.96 48.128 0.04 6.71 3.81 10.5
4/15/2021 1:15:00 AM 8.89 48.002 0.04 6.71 3.51 10.51
4/15/2021 1:30:00 AM 8.83 47.894 0.04 6.71 3.25 10.52
4/15/2021 1:45:00 AM 8.77 47.786 0.04 6.7 3.53 10.54
4/15/2021 2:00:00 AM 8.71 47.678 0.04 6.7 3.27 10.55
4/15/2021 2:15:00 AM 8.65 47.57 0.04 6.71 3.8 10.57
4/15/2021 2:30:00 AM 8.59 47.462 0.04 6.72 4.08 10.58
4/15/2021 2:45:00 AM 8.53 47.354 0.04 6.72 4.06 10.59
4/15/2021 3:00:00 AM 8.47 47.246 0.04 6.72 3.28 10.62
4/15/2021 3:15:00 AM 8.4 47.12 0.04 6.69 3.14 10.63
4/15/2021 3:30:00 AM 8.34 47.012 0.04 6.7 23.74 10.58
4/15/2021 3:45:00 AM 8.28 46.904 0.04 6.71 4.04 10.66
4/15/2021 4:00:00 AM 8.22 46.796 0.04 6.71 6.2 10.67
4/15/2021 4:15:00 AM 8.16 46.688 0.04 6.71 2.93 10.69
4/15/2021 4:30:00 AM 8.11 46.598 0.04 6.69 3.04 10.7
4/15/2021 4:45:00 AM 8.06 46.508 0.04 6.7 2.97 10.72
4/15/2021 5:00:00 AM 8 46.4 0.04 6.7 2.78 10.74
4/15/2021 5:15:00 AM 7.95 46.31 0.04 6.67 2.77 10.75
4/15/2021 5:30:00 AM 7.9 46.22 0.04 6.65 3.11 10.76
4/15/2021 5:45:00 AM 7.86 46.148 0.04 6.66 2.85 10.77
4/15/2021 6:00:00 AM 7.82 46.076 0.04 6.67 3.23 10.79
4/15/2021 6:15:00 AM 7.79 46.022 0.04 6.67 2.95 10.8
4/15/2021 6:30:00 AM 7.76 45.968 0.04 6.66 2.76 10.8
4/15/2021 6:45:00 AM 7.73 45.914 0.04 6.69 3.03 10.82
4/15/2021 7:00:00 AM 7.7 45.86 0.04 6.71 2.96 10.83
4/15/2021 7:15:00 AM 7.68 45.824 0.04 6.7 3.25 10.85
4/15/2021 7:30:00 AM 7.65 45.77 0.04 6.71 3.26 10.87
4/15/2021 7:45:00 AM 7.63 45.734 0.04 6.72 3.19 10.88
4/15/2021 8:00:00 AM 7.61 45.698 0.04 6.73 3.17 10.91
4/15/2021 8:15:00 AM 7.6 45.68 0.04 6.74 2.76 10.94
4/15/2021 8:30:00 AM 7.58 45.644 0.04 6.75 3.48 10.97
4/15/2021 8:45:00 AM 7.57 45.626 0.04 6.77 3.37 11.01
4/15/2021 9:00:00 AM 7.56 45.608 0.04 6.8 3.7 11.06
4/15/2021 9:15:00 AM 7.55 45.59 0.04 6.81 2.78 11.07
4/15/2021 9:30:00 AM 7.55 45.59 0.039 6.82 2.58 11.09
4/15/2021 9:45:00 AM 7.54 45.572 0.039 6.81 2.58 11.11
4/15/2021 10:00:00 AM 7.54 45.572 0.039 6.79 2.71 11.14
4/15/2021 10:15:00 AM 7.58 45.644 0.039 6.86 2.73 11.19
4/15/2021 10:30:00 AM 7.61 45.698 0.039 6.85 2.6 11.22
4/15/2021 10:45:00 AM 7.71 45.878 0.039 6.88 2.86 11.23
4/15/2021 11:00:00 AM 7.76 45.968 0.039 6.9 2.64 11.23
4/15/2021 11:15:00 AM 7.84 46.112 0.039 6.89 3.39 11.22
4/15/2021 11:30:00 AM 7.89 46.202 0.039 6.89 11.06 11.2
4/15/2021 11:45:00 AM 7.94 46.292 0.039 6.91 2.73 11.2
4/15/2021 12:00:00 PM 7.98 46.364 0.039 6.92 2.67 11.19
4/15/2021 12:15:00 PM 7.98 46.364 0.039 6.91 2.37 11.15
4/15/2021 12:30:00 PM 7.98 46.364 0.039 6.89 2.51 11.09
4/15/2021 12:45:00 PM 7.96 46.328 0.039 6.87 2.51 11.06
4/15/2021 1:00:00 PM 7.91 46.238 0.039 6.85 2.8 11.07
4/15/2021 1:15:00 PM 7.9 46.22 0.039 6.83 2.58 11.11
4/15/2021 1:30:00 PM 7.93 46.274 0.039 6.87 2.45 11.14
4/15/2021 1:45:00 PM 7.94 46.292 0.039 6.86 2.39 11.13
4/15/2021 2:00:00 PM 7.93 46.274 0.039 6.85 2.45 11.09
4/15/2021 2:15:00 PM 7.93 46.274 0.039 6.84 2.45 11.09
4/15/2021 2:30:00 PM 7.89 46.202 0.039 6.85 3.4 11.08
4/15/2021 2:45:00 PM 7.84 46.112 0.039 6.81 2.6 11.09
4/15/2021 3:00:00 PM 7.81 46.058 0.039 6.83 2.43 11.09
4/15/2021 3:15:00 PM 7.8 46.04 0.039 6.81 2.43 11.11
4/15/2021 3:30:00 PM 7.75 45.95 0.039 6.82 2.62 11.1
4/15/2021 3:45:00 PM 7.73 45.914 0.039 6.83 2.38 11.08
4/15/2021 4:00:00 PM 7.73 45.914 0.039 6.83 2.48 11.11
4/15/2021 4:15:00 PM 7.73 45.914 0.039 6.86 2.39 11.14
4/15/2021 4:30:00 PM 7.76 45.968 0.039 6.86 2.62 11.17
4/15/2021 4:45:00 PM 7.81 46.058 0.038 6.86 2.68 11.19
4/15/2021 5:00:00 PM 7.8 46.04 0.038 6.82 2.72 11.18
4/15/2021 5:15:00 PM 7.87 46.166 0.038 6.83 2.52 11.15
4/15/2021 5:30:00 PM 7.89 46.202 0.038 6.85 2.25 11.15
4/15/2021 5:45:00 PM 7.87 46.166 0.038 6.86 2.52 11.15
4/15/2021 6:00:00 PM 7.83 46.094 0.038 6.86 2.62 11.13
4/15/2021 6:15:00 PM 7.82 46.076 0.038 6.84 3.16 11.11
4/15/2021 6:30:00 PM 7.8 46.04 0.038 6.86 2.69 11.09
4/15/2021 6:45:00 PM 7.77 45.986 0.038 6.85 2.65 11.08
4/15/2021 7:00:00 PM 7.77 45.986 0.038 6.83 2.41 11.07
4/15/2021 7:15:00 PM 7.73 45.914 0.039 6.82 2.9 11.03
4/15/2021 7:30:00 PM 7.66 45.788 0.039 6.81 3.2 11.01
4/15/2021 7:45:00 PM 7.56 45.608 0.039 6.8 2.5 10.99
4/15/2021 8:00:00 PM 7.51 45.518 0.039 6.77 2.74 10.97
4/15/2021 8:15:00 PM 7.46 45.428 0.039 6.78 2.58 10.95
4/15/2021 8:30:00 PM 7.41 45.338 0.039 6.75 2.58 10.94
4/15/2021 8:45:00 PM 7.36 45.248 0.039 6.74 3.17 10.94
4/15/2021 9:00:00 PM 7.32 45.176 0.039 6.7 2.77 10.95
4/15/2021 9:15:00 PM 7.28 45.104 0.039 6.72 3.19 10.95
4/15/2021 9:30:00 PM 7.24 45.032 0.039 6.71 2.93 10.96
4/15/2021 9:45:00 PM 7.2 44.96 0.039 6.73 2.84 10.98
4/15/2021 10:00:00 PM 7.17 44.906 0.039 6.73 3.07 10.99
4/15/2021 10:15:00 PM 7.12 44.816 0.039 6.73 2.84 11
4/15/2021 10:30:00 PM 7.08 44.744 0.039 6.73 2.79 11.01
4/15/2021 10:45:00 PM 7.04 44.672 0.039 6.72 2.96 11.02
4/15/2021 11:00:00 PM 7 44.6 0.039 6.73 3.04 11.03
4/15/2021 11:15:00 PM 6.97 44.546 0.039 6.65 2.89 11.04
4/15/2021 11:30:00 PM 6.94 44.492 0.039 6.68 2.94 11.04
4/15/2021 11:45:00 PM 6.92 44.456 0.039 6.71 2.93 11.06
4/16/2021 12:00:00 AM 6.88 44.384 0.039 6.7 2.83 11.07
4/16/2021 12:15:00 AM 6.85 44.33 0.039 6.7 10.72 11.06
4/16/2021 12:30:00 AM 6.8 44.24 0.039 6.7 4.2 11.09
4/16/2021 12:45:00 AM 6.75 44.15 0.039 6.7 3.95 11.1
4/16/2021 1:00:00 AM 6.7 44.06 0.039 6.72 3.98 11.12
4/16/2021 1:15:00 AM 6.67 44.006 0.039 6.73 3.71 11.13
4/16/2021 1:30:00 AM 6.63 43.934 0.039 6.71 3.67 11.14
4/16/2021 1:45:00 AM 6.59 43.862 0.039 6.71 1826.47 11.15
4/16/2021 2:00:00 AM 6.56 43.808 0.039 6.7 3.92 11.17
4/16/2021 2:15:00 AM 6.52 43.736 0.039 6.67 4.52 11.17
4/16/2021 2:30:00 AM 6.49 43.682 0.039 6.7 3.72 11.19
4/16/2021 2:45:00 AM 6.46 43.628 0.039 6.69 3.81 11.2
4/16/2021 3:00:00 AM 6.43 43.574 0.039 6.7 3.72 11.2
4/16/2021 3:15:00 AM 6.41 43.538 0.039 6.69 4.48 11.21
4/16/2021 3:30:00 AM 6.38 43.484 0.039 6.7 4.78 11.21
4/16/2021 3:45:00 AM 6.36 43.448 0.039 6.7 4.14 11.22
4/16/2021 4:00:00 AM 6.33 43.394 0.039 6.71 4.44 11.23
4/16/2021 4:15:00 AM 6.31 43.358 0.039 6.71 4.4 11.23
4/16/2021 4:30:00 AM 6.28 43.304 0.039 6.7 4.21 11.24
4/16/2021 4:45:00 AM 6.26 43.268 0.039 6.67 3.79 11.24
4/16/2021 5:00:00 AM 6.24 43.232 0.039 6.67 4.38 11.25
4/16/2021 5:15:00 AM 6.22 43.196 0.039 6.69 3.92 11.26
4/16/2021 5:30:00 AM 6.22 43.196 0.039 6.73 4 11.26
4/16/2021 5:45:00 AM 6.2 43.16 0.039 6.72 3.91 11.26
4/16/2021 6:00:00 AM 6.19 43.142 0.039 6.69 4.08 11.26
4/16/2021 6:15:00 AM 6.19 43.142 0.039 6.7 4.17 11.27
4/16/2021 6:30:00 AM 6.18 43.124 0.039 6.71 3.76 11.27
4/16/2021 6:45:00 AM 6.17 43.106 0.039 6.71 3.77 11.27
4/16/2021 7:00:00 AM 6.16 43.088 0.039 6.7 3.59 11.29
4/16/2021 7:15:00 AM 6.16 43.088 0.039 6.7 3.59 11.32
4/16/2021 7:30:00 AM 6.16 43.088 0.039 6.72 6.4 11.34
4/16/2021 7:45:00 AM 6.16 43.088 0.039 6.71 3.62 11.38
4/16/2021 8:00:00 AM 6.17 43.106 0.039 6.7 4.38 11.41
4/16/2021 8:15:00 AM 6.18 43.124 0.039 6.74 3.29 11.43
4/16/2021 8:30:00 AM 6.2 43.16 0.039 6.77 3.95 11.45
4/16/2021 8:45:00 AM 6.21 43.178 0.039 6.78 3.54 11.47
4/16/2021 9:00:00 AM 6.23 43.214 0.039 6.8 3.45 11.51
4/16/2021 9:15:00 AM